<?xml version="1.0" encoding="UTF-8" standalone="no" ?>
<gpx xmlns="http://www.topografix.com/GPX/1/1" xmlns:xsi="http://www.w3.org/2001/XMLSchema-instance" xsi:schemaLocation="http://www.topografix.com/GPX/1/1 http://www.topografix.com/GPX/1/1/gpx.xsd" version="1.1" creator="VisuGPX - https://www.visugpx.com">
  <metadata>
    <name>60g20208</name>
  </metadata>
  <trk>
    <name><![CDATA[60g20208]]></name>
    <trkseg>
      <trkpt lat="50.50361" lon="3.46454">
        <ele>20.89163</ele>
        <time>2020-07-28T20:10:49.412Z</time>
      </trkpt>
      <trkpt lat="50.50361" lon="3.46454">
        <ele>20.89163</ele>
        <time>2020-07-28T20:10:49.417Z</time>
      </trkpt>
      <trkpt lat="50.5034" lon="3.46438">
        <ele>20.89163</ele>
        <time>2020-07-28T20:10:52.972Z</time>
      </trkpt>
      <trkpt lat="50.50316" lon="3.46422">
        <ele>20.89163</ele>
        <time>2020-07-28T20:10:56.946Z</time>
      </trkpt>
      <trkpt lat="50.50313" lon="3.46411">
        <ele>20.89163</ele>
        <time>2020-07-28T20:10:58.024Z</time>
      </trkpt>
      <trkpt lat="50.50317" lon="3.46374">
        <ele>20.89163</ele>
        <time>2020-07-28T20:11:01.532Z</time>
      </trkpt>
      <trkpt lat="50.50325" lon="3.46304">
        <ele>20.800165</ele>
        <time>2020-07-28T20:11:07.953Z</time>
      </trkpt>
      <trkpt lat="50.50335" lon="3.46236">
        <ele>20.687575</ele>
        <time>2020-07-28T20:11:14.237Z</time>
      </trkpt>
      <trkpt lat="50.50345" lon="3.46155">
        <ele>20.555786</ele>
        <time>2020-07-28T20:11:21.614Z</time>
      </trkpt>
      <trkpt lat="50.50361" lon="3.46074">
        <ele>20.406292</ele>
        <time>2020-07-28T20:11:28.887Z</time>
      </trkpt>
      <trkpt lat="50.5041" lon="3.45851">
        <ele>19.732277</ele>
        <time>2020-07-28T20:11:48.935Z</time>
      </trkpt>
      <trkpt lat="50.50424" lon="3.45772">
        <ele>19.477701</ele>
        <time>2020-07-28T20:11:55.994Z</time>
      </trkpt>
      <trkpt lat="50.50433" lon="3.4572">
        <ele>19.298582</ele>
        <time>2020-07-28T20:12:00.687Z</time>
      </trkpt>
      <trkpt lat="50.50436" lon="3.45642">
        <ele>19.042353</ele>
        <time>2020-07-28T20:12:07.404Z</time>
      </trkpt>
      <trkpt lat="50.50437" lon="3.45631">
        <ele>19.005918</ele>
        <time>2020-07-28T20:12:08.218Z</time>
      </trkpt>
      <trkpt lat="50.5044" lon="3.45588">
        <ele>18.861852</ele>
        <time>2020-07-28T20:12:12.326Z</time>
      </trkpt>
      <trkpt lat="50.5044" lon="3.45585">
        <ele>18.852225</ele>
        <time>2020-07-28T20:12:12.547Z</time>
      </trkpt>
      <trkpt lat="50.50441" lon="3.45573">
        <ele>18.811094</ele>
        <time>2020-07-28T20:12:13.478Z</time>
      </trkpt>
      <trkpt lat="50.50441" lon="3.45568">
        <ele>18.794136</ele>
        <time>2020-07-28T20:12:13.921Z</time>
      </trkpt>
      <trkpt lat="50.50443" lon="3.45552">
        <ele>18.74019</ele>
        <time>2020-07-28T20:12:15.276Z</time>
      </trkpt>
      <trkpt lat="50.50448" lon="3.45508">
        <ele>18.51538</ele>
        <time>2020-07-28T20:12:18.703Z</time>
      </trkpt>
      <trkpt lat="50.50447" lon="3.4549">
        <ele>18.407156</ele>
        <time>2020-07-28T20:12:20.139Z</time>
      </trkpt>
      <trkpt lat="50.50444" lon="3.45482">
        <ele>18.35192</ele>
        <time>2020-07-28T20:12:20.947Z</time>
      </trkpt>
      <trkpt lat="50.50448" lon="3.4547">
        <ele>18.273101</ele>
        <time>2020-07-28T20:12:21.930Z</time>
      </trkpt>
      <trkpt lat="50.50458" lon="3.45443">
        <ele>18.089359</ele>
        <time>2020-07-28T20:12:24.380Z</time>
      </trkpt>
      <trkpt lat="50.50468" lon="3.45372">
        <ele>17.665446</ele>
        <time>2020-07-28T20:12:30.067Z</time>
      </trkpt>
      <trkpt lat="50.50471" lon="3.45343">
        <ele>17.49315</ele>
        <time>2020-07-28T20:12:32.431Z</time>
      </trkpt>
      <trkpt lat="50.50473" lon="3.45332">
        <ele>17.430887</ele>
        <time>2020-07-28T20:12:33.235Z</time>
      </trkpt>
      <trkpt lat="50.50477" lon="3.45312">
        <ele>17.305047</ele>
        <time>2020-07-28T20:12:34.995Z</time>
      </trkpt>
      <trkpt lat="50.50513" lon="3.45201">
        <ele>16.742336</ele>
        <time>2020-07-28T20:12:44.913Z</time>
      </trkpt>
      <trkpt lat="50.50531" lon="3.45152">
        <ele>16.526197</ele>
        <time>2020-07-28T20:12:49.482Z</time>
      </trkpt>
      <trkpt lat="50.50539" lon="3.45133">
        <ele>16.437831</ele>
        <time>2020-07-28T20:12:51.292Z</time>
      </trkpt>
      <trkpt lat="50.50551" lon="3.45111">
        <ele>16.328842</ele>
        <time>2020-07-28T20:12:53.731Z</time>
      </trkpt>
      <trkpt lat="50.50599" lon="3.45026">
        <ele>15.951473</ele>
        <time>2020-07-28T20:13:03.708Z</time>
      </trkpt>
      <trkpt lat="50.50652" lon="3.44916">
        <ele>15.828216</ele>
        <time>2020-07-28T20:13:16.547Z</time>
      </trkpt>
      <trkpt lat="50.50661" lon="3.44894">
        <ele>15.805192</ele>
        <time>2020-07-28T20:13:18.811Z</time>
      </trkpt>
      <trkpt lat="50.50673" lon="3.44871">
        <ele>15.778212</ele>
        <time>2020-07-28T20:13:21.706Z</time>
      </trkpt>
      <trkpt lat="50.50707" lon="3.44823">
        <ele>15.715387</ele>
        <time>2020-07-28T20:13:28.172Z</time>
      </trkpt>
      <trkpt lat="50.50883" lon="3.4467">
        <ele>15.517996</ele>
        <time>2020-07-28T20:13:57.010Z</time>
      </trkpt>
      <trkpt lat="50.51095" lon="3.44486">
        <ele>15.514744</ele>
        <time>2020-07-28T20:14:32.602Z</time>
      </trkpt>
      <trkpt lat="50.51116" lon="3.44468">
        <ele>15.537479</ele>
        <time>2020-07-28T20:14:36.419Z</time>
      </trkpt>
      <trkpt lat="50.51187" lon="3.44406">
        <ele>15.643524</ele>
        <time>2020-07-28T20:14:49.065Z</time>
      </trkpt>
      <trkpt lat="50.5119" lon="3.44403">
        <ele>15.660484</ele>
        <time>2020-07-28T20:14:49.859Z</time>
      </trkpt>
      <trkpt lat="50.51322" lon="3.4435">
        <ele>16.189209</ele>
        <time>2020-07-28T20:15:12.255Z</time>
      </trkpt>
      <trkpt lat="50.5134" lon="3.44349">
        <ele>16.261892</ele>
        <time>2020-07-28T20:15:15.451Z</time>
      </trkpt>
      <trkpt lat="50.51346" lon="3.4435">
        <ele>16.284212</ele>
        <time>2020-07-28T20:15:16.397Z</time>
      </trkpt>
      <trkpt lat="50.5139" lon="3.44363">
        <ele>16.37552</ele>
        <time>2020-07-28T20:15:23.684Z</time>
      </trkpt>
      <trkpt lat="50.51573" lon="3.44428">
        <ele>16.484705</ele>
        <time>2020-07-28T20:15:52.531Z</time>
      </trkpt>
      <trkpt lat="50.51599" lon="3.44445">
        <ele>16.401339</ele>
        <time>2020-07-28T20:15:56.314Z</time>
      </trkpt>
      <trkpt lat="50.51714" lon="3.44519">
        <ele>16.044181</ele>
        <time>2020-07-28T20:16:12.790Z</time>
      </trkpt>
      <trkpt lat="50.51727" lon="3.44527">
        <ele>16.012443</ele>
        <time>2020-07-28T20:16:14.531Z</time>
      </trkpt>
      <trkpt lat="50.51818" lon="3.44585">
        <ele>15.781365</ele>
        <time>2020-07-28T20:16:27.951Z</time>
      </trkpt>
      <trkpt lat="50.51845" lon="3.44602">
        <ele>15.714171</ele>
        <time>2020-07-28T20:16:32.275Z</time>
      </trkpt>
      <trkpt lat="50.5192" lon="3.44671">
        <ele>15.939809</ele>
        <time>2020-07-28T20:16:46.054Z</time>
      </trkpt>
      <trkpt lat="50.51925" lon="3.44675">
        <ele>15.96304</ele>
        <time>2020-07-28T20:16:47.066Z</time>
      </trkpt>
      <trkpt lat="50.51933" lon="3.44684">
        <ele>16.003982</ele>
        <time>2020-07-28T20:16:49.060Z</time>
      </trkpt>
      <trkpt lat="50.51953" lon="3.44702">
        <ele>16.094233</ele>
        <time>2020-07-28T20:16:52.605Z</time>
      </trkpt>
      <trkpt lat="50.51991" lon="3.44724">
        <ele>16.258314</ele>
        <time>2020-07-28T20:16:59.547Z</time>
      </trkpt>
      <trkpt lat="50.52029" lon="3.44725">
        <ele>16.401594</ele>
        <time>2020-07-28T20:17:05.966Z</time>
      </trkpt>
      <trkpt lat="50.52034" lon="3.44722">
        <ele>16.412403</ele>
        <time>2020-07-28T20:17:07.009Z</time>
      </trkpt>
      <trkpt lat="50.52072" lon="3.44707">
        <ele>16.498261</ele>
        <time>2020-07-28T20:17:13.613Z</time>
      </trkpt>
      <trkpt lat="50.52089" lon="3.44693">
        <ele>16.541449</ele>
        <time>2020-07-28T20:17:16.663Z</time>
      </trkpt>
      <trkpt lat="50.52092" lon="3.44691">
        <ele>16.54729</ele>
        <time>2020-07-28T20:17:17.081Z</time>
      </trkpt>
      <trkpt lat="50.52105" lon="3.44679">
        <ele>16.580322</ele>
        <time>2020-07-28T20:17:19.557Z</time>
      </trkpt>
      <trkpt lat="50.52116" lon="3.44669">
        <ele>16.609454</ele>
        <time>2020-07-28T20:17:21.588Z</time>
      </trkpt>
      <trkpt lat="50.52143" lon="3.44666">
        <ele>16.667739</ele>
        <time>2020-07-28T20:17:25.761Z</time>
      </trkpt>
      <trkpt lat="50.52154" lon="3.44675">
        <ele>16.695627</ele>
        <time>2020-07-28T20:17:27.625Z</time>
      </trkpt>
      <trkpt lat="50.52189" lon="3.44712">
        <ele>16.784141</ele>
        <time>2020-07-28T20:17:33.797Z</time>
      </trkpt>
      <trkpt lat="50.52222" lon="3.44745">
        <ele>16.746683</ele>
        <time>2020-07-28T20:17:39.383Z</time>
      </trkpt>
      <trkpt lat="50.52251" lon="3.448">
        <ele>16.703522</ele>
        <time>2020-07-28T20:17:45.895Z</time>
      </trkpt>
      <trkpt lat="50.52281" lon="3.44844">
        <ele>16.664286</ele>
        <time>2020-07-28T20:17:51.803Z</time>
      </trkpt>
      <trkpt lat="50.52311" lon="3.44887">
        <ele>16.626168</ele>
        <time>2020-07-28T20:17:57.644Z</time>
      </trkpt>
      <trkpt lat="50.52348" lon="3.44962">
        <ele>16.683959</ele>
        <time>2020-07-28T20:18:06.699Z</time>
      </trkpt>
      <trkpt lat="50.52354" lon="3.44967">
        <ele>16.694534</ele>
        <time>2020-07-28T20:18:07.781Z</time>
      </trkpt>
      <trkpt lat="50.52364" lon="3.44971">
        <ele>16.709172</ele>
        <time>2020-07-28T20:18:09.353Z</time>
      </trkpt>
      <trkpt lat="50.52397" lon="3.4497">
        <ele>16.757184</ele>
        <time>2020-07-28T20:18:14.592Z</time>
      </trkpt>
      <trkpt lat="50.52465" lon="3.44966">
        <ele>16.85558</ele>
        <time>2020-07-28T20:18:25.204Z</time>
      </trkpt>
      <trkpt lat="50.52496" lon="3.44968">
        <ele>16.902481</ele>
        <time>2020-07-28T20:18:30.114Z</time>
      </trkpt>
      <trkpt lat="50.52556" lon="3.44992">
        <ele>16.996637</ele>
        <time>2020-07-28T20:18:39.712Z</time>
      </trkpt>
      <trkpt lat="50.52569" lon="3.45007">
        <ele>17.022113</ele>
        <time>2020-07-28T20:18:42.104Z</time>
      </trkpt>
      <trkpt lat="50.52594" lon="3.45088">
        <ele>17.109282</ele>
        <time>2020-07-28T20:18:50.803Z</time>
      </trkpt>
      <trkpt lat="50.52608" lon="3.45115">
        <ele>17.14254</ele>
        <time>2020-07-28T20:18:54.036Z</time>
      </trkpt>
      <trkpt lat="50.52695" lon="3.45217">
        <ele>17.697916</ele>
        <time>2020-07-28T20:19:11.546Z</time>
      </trkpt>
      <trkpt lat="50.52698" lon="3.45225">
        <ele>17.731869</ele>
        <time>2020-07-28T20:19:12.714Z</time>
      </trkpt>
      <trkpt lat="50.52707" lon="3.45261">
        <ele>17.861277</ele>
        <time>2020-07-28T20:19:16.969Z</time>
      </trkpt>
      <trkpt lat="50.52719" lon="3.45338">
        <ele>18.141662</ele>
        <time>2020-07-28T20:19:26.153Z</time>
      </trkpt>
      <trkpt lat="50.52726" lon="3.45386">
        <ele>18.414079</ele>
        <time>2020-07-28T20:19:32.001Z</time>
      </trkpt>
      <trkpt lat="50.52741" lon="3.45438">
        <ele>18.729656</ele>
        <time>2020-07-28T20:19:38.921Z</time>
      </trkpt>
      <trkpt lat="50.52758" lon="3.45546">
        <ele>19.342503</ele>
        <time>2020-07-28T20:19:52.101Z</time>
      </trkpt>
      <trkpt lat="50.52769" lon="3.45601">
        <ele>19.658218</ele>
        <time>2020-07-28T20:19:58.630Z</time>
      </trkpt>
      <trkpt lat="50.52802" lon="3.4571">
        <ele>20.193273</ele>
        <time>2020-07-28T20:20:12.179Z</time>
      </trkpt>
      <trkpt lat="50.52899" lon="3.46191">
        <ele>22.644665</ele>
        <time>2020-07-28T20:21:08.410Z</time>
      </trkpt>
      <trkpt lat="50.52939" lon="3.46351">
        <ele>23.966791</ele>
        <time>2020-07-28T20:21:30.763Z</time>
      </trkpt>
      <trkpt lat="50.52951" lon="3.46484">
        <ele>25.072505</ele>
        <time>2020-07-28T20:21:48.397Z</time>
      </trkpt>
      <trkpt lat="50.53003" lon="3.46805">
        <ele>27.604872</ele>
        <time>2020-07-28T20:22:30.865Z</time>
      </trkpt>
      <trkpt lat="50.53008" lon="3.46817">
        <ele>27.691676</ele>
        <time>2020-07-28T20:22:32.571Z</time>
      </trkpt>
      <trkpt lat="50.53012" lon="3.46822">
        <ele>27.737643</ele>
        <time>2020-07-28T20:22:33.529Z</time>
      </trkpt>
      <trkpt lat="50.53018" lon="3.46828">
        <ele>27.812571</ele>
        <time>2020-07-28T20:22:35.014Z</time>
      </trkpt>
      <trkpt lat="50.53025" lon="3.46829">
        <ele>27.879267</ele>
        <time>2020-07-28T20:22:36.778Z</time>
      </trkpt>
      <trkpt lat="50.53175" lon="3.46773">
        <ele>27.957307</ele>
        <time>2020-07-28T20:23:01.765Z</time>
      </trkpt>
      <trkpt lat="50.53195" lon="3.46763">
        <ele>27.813923</ele>
        <time>2020-07-28T20:23:04.666Z</time>
      </trkpt>
      <trkpt lat="50.532" lon="3.46759">
        <ele>27.776369</ele>
        <time>2020-07-28T20:23:05.171Z</time>
      </trkpt>
      <trkpt lat="50.53267" lon="3.46704">
        <ele>27.205423</ele>
        <time>2020-07-28T20:23:13.663Z</time>
      </trkpt>
      <trkpt lat="50.53356" lon="3.46634">
        <ele>25.856618</ele>
        <time>2020-07-28T20:23:24.740Z</time>
      </trkpt>
      <trkpt lat="50.5341" lon="3.46593">
        <ele>25.047421</ele>
        <time>2020-07-28T20:23:32.054Z</time>
      </trkpt>
      <trkpt lat="50.53601" lon="3.4645">
        <ele>24.357476</ele>
        <time>2020-07-28T20:24:03.487Z</time>
      </trkpt>
      <trkpt lat="50.53712" lon="3.46368">
        <ele>23.09455</ele>
        <time>2020-07-28T20:24:18.414Z</time>
      </trkpt>
      <trkpt lat="50.53812" lon="3.46292">
        <ele>21.729872</ele>
        <time>2020-07-28T20:24:30.935Z</time>
      </trkpt>
      <trkpt lat="50.53844" lon="3.46263">
        <ele>21.248057</ele>
        <time>2020-07-28T20:24:35.139Z</time>
      </trkpt>
      <trkpt lat="50.53856" lon="3.46244">
        <ele>21.017892</ele>
        <time>2020-07-28T20:24:37.222Z</time>
      </trkpt>
      <trkpt lat="50.53878" lon="3.46181">
        <ele>20.42161</ele>
        <time>2020-07-28T20:24:42.689Z</time>
      </trkpt>
      <trkpt lat="50.5388" lon="3.46164">
        <ele>20.305625</ele>
        <time>2020-07-28T20:24:44.028Z</time>
      </trkpt>
      <trkpt lat="50.53949" lon="3.45679">
        <ele>19.380449</ele>
        <time>2020-07-28T20:25:28.610Z</time>
      </trkpt>
      <trkpt lat="50.54021" lon="3.45177">
        <ele>18.5258</ele>
        <time>2020-07-28T20:26:14.064Z</time>
      </trkpt>
      <trkpt lat="50.5404" lon="3.45071">
        <ele>18.350185</ele>
        <time>2020-07-28T20:26:23.723Z</time>
      </trkpt>
      <trkpt lat="50.54079" lon="3.44862">
        <ele>17.899068</ele>
        <time>2020-07-28T20:26:43.912Z</time>
      </trkpt>
      <trkpt lat="50.54083" lon="3.44841">
        <ele>17.853377</ele>
        <time>2020-07-28T20:26:45.634Z</time>
      </trkpt>
      <trkpt lat="50.54086" lon="3.44827">
        <ele>17.821898</ele>
        <time>2020-07-28T20:26:46.831Z</time>
      </trkpt>
      <trkpt lat="50.54086" lon="3.44823">
        <ele>17.81374</ele>
        <time>2020-07-28T20:26:47.320Z</time>
      </trkpt>
      <trkpt lat="50.54099" lon="3.44745">
        <ele>17.553714</ele>
        <time>2020-07-28T20:26:53.510Z</time>
      </trkpt>
      <trkpt lat="50.5411" lon="3.4468">
        <ele>17.289195</ele>
        <time>2020-07-28T20:26:58.809Z</time>
      </trkpt>
      <trkpt lat="50.54123" lon="3.44691">
        <ele>17.197991</ele>
        <time>2020-07-28T20:27:00.771Z</time>
      </trkpt>
      <trkpt lat="50.54138" lon="3.44698">
        <ele>17.103798</ele>
        <time>2020-07-28T20:27:02.759Z</time>
      </trkpt>
      <trkpt lat="50.54141" lon="3.447">
        <ele>17.083377</ele>
        <time>2020-07-28T20:27:03.123Z</time>
      </trkpt>
      <trkpt lat="50.5416" lon="3.44707">
        <ele>16.961948</ele>
        <time>2020-07-28T20:27:05.984Z</time>
      </trkpt>
      <trkpt lat="50.5417" lon="3.44711">
        <ele>16.900782</ele>
        <time>2020-07-28T20:27:07.333Z</time>
      </trkpt>
      <trkpt lat="50.54179" lon="3.44715">
        <ele>16.842109</ele>
        <time>2020-07-28T20:27:08.557Z</time>
      </trkpt>
      <trkpt lat="50.54192" lon="3.4472">
        <ele>16.759031</ele>
        <time>2020-07-28T20:27:10.478Z</time>
      </trkpt>
      <trkpt lat="50.54222" lon="3.44731">
        <ele>16.668991</ele>
        <time>2020-07-28T20:27:14.702Z</time>
      </trkpt>
      <trkpt lat="50.54249" lon="3.44741">
        <ele>16.733196</ele>
        <time>2020-07-28T20:27:18.444Z</time>
      </trkpt>
      <trkpt lat="50.54262" lon="3.44741">
        <ele>16.763442</ele>
        <time>2020-07-28T20:27:20.272Z</time>
      </trkpt>
      <trkpt lat="50.5428" lon="3.44728">
        <ele>16.810258</ele>
        <time>2020-07-28T20:27:22.926Z</time>
      </trkpt>
      <trkpt lat="50.54288" lon="3.44721">
        <ele>16.831514</ele>
        <time>2020-07-28T20:27:24.529Z</time>
      </trkpt>
      <trkpt lat="50.54333" lon="3.44658">
        <ele>16.970704</ele>
        <time>2020-07-28T20:27:35.251Z</time>
      </trkpt>
      <trkpt lat="50.54389" lon="3.44586">
        <ele>17.021959</ele>
        <time>2020-07-28T20:27:47.888Z</time>
      </trkpt>
      <trkpt lat="50.54403" lon="3.4458">
        <ele>17.006701</ele>
        <time>2020-07-28T20:27:50.186Z</time>
      </trkpt>
      <trkpt lat="50.54414" lon="3.4458">
        <ele>16.99494</ele>
        <time>2020-07-28T20:27:51.730Z</time>
      </trkpt>
      <trkpt lat="50.54423" lon="3.4458">
        <ele>16.985348</ele>
        <time>2020-07-28T20:27:52.973Z</time>
      </trkpt>
      <trkpt lat="50.54433" lon="3.44583">
        <ele>16.974353</ele>
        <time>2020-07-28T20:27:54.386Z</time>
      </trkpt>
      <trkpt lat="50.54444" lon="3.44586">
        <ele>16.961116</ele>
        <time>2020-07-28T20:27:56.122Z</time>
      </trkpt>
      <trkpt lat="50.54473" lon="3.44524">
        <ele>16.90796</ele>
        <time>2020-07-28T20:28:05.338Z</time>
      </trkpt>
      <trkpt lat="50.54483" lon="3.44498">
        <ele>16.886641</ele>
        <time>2020-07-28T20:28:09.020Z</time>
      </trkpt>
      <trkpt lat="50.54489" lon="3.44433">
        <ele>16.749977</ele>
        <time>2020-07-28T20:28:16.729Z</time>
      </trkpt>
      <trkpt lat="50.54494" lon="3.44392">
        <ele>16.603027</ele>
        <time>2020-07-28T20:28:21.455Z</time>
      </trkpt>
      <trkpt lat="50.54508" lon="3.44226">
        <ele>16.007509</ele>
        <time>2020-07-28T20:28:40.859Z</time>
      </trkpt>
      <trkpt lat="50.54518" lon="3.44112">
        <ele>15.622933</ele>
        <time>2020-07-28T20:28:54.996Z</time>
      </trkpt>
      <trkpt lat="50.54516" lon="3.44077">
        <ele>15.507142</ele>
        <time>2020-07-28T20:28:59.026Z</time>
      </trkpt>
      <trkpt lat="50.54515" lon="3.44071">
        <ele>15.486484</ele>
        <time>2020-07-28T20:28:59.891Z</time>
      </trkpt>
      <trkpt lat="50.54511" lon="3.44051">
        <ele>15.419096</ele>
        <time>2020-07-28T20:29:02.364Z</time>
      </trkpt>
      <trkpt lat="50.54501" lon="3.43991">
        <ele>15.214716</ele>
        <time>2020-07-28T20:29:09.645Z</time>
      </trkpt>
      <trkpt lat="50.54501" lon="3.43988">
        <ele>15.20753</ele>
        <time>2020-07-28T20:29:09.915Z</time>
      </trkpt>
      <trkpt lat="50.54501" lon="3.4397">
        <ele>15.148876</ele>
        <time>2020-07-28T20:29:11.845Z</time>
      </trkpt>
      <trkpt lat="50.54505" lon="3.43927">
        <ele>15.005306</ele>
        <time>2020-07-28T20:29:17.188Z</time>
      </trkpt>
      <trkpt lat="50.54526" lon="3.43876">
        <ele>14.919722</ele>
        <time>2020-07-28T20:29:24.249Z</time>
      </trkpt>
      <trkpt lat="50.5453" lon="3.43871">
        <ele>14.915805</ele>
        <time>2020-07-28T20:29:25.031Z</time>
      </trkpt>
      <trkpt lat="50.54543" lon="3.43866">
        <ele>14.905247</ele>
        <time>2020-07-28T20:29:27.707Z</time>
      </trkpt>
      <trkpt lat="50.54554" lon="3.43862">
        <ele>14.896476</ele>
        <time>2020-07-28T20:29:29.855Z</time>
      </trkpt>
      <trkpt lat="50.54576" lon="3.43854">
        <ele>14.878805</ele>
        <time>2020-07-28T20:29:34.022Z</time>
      </trkpt>
      <trkpt lat="50.54585" lon="3.43851">
        <ele>14.87212</ele>
        <time>2020-07-28T20:29:35.854Z</time>
      </trkpt>
      <trkpt lat="50.54706" lon="3.43806">
        <ele>15.001564</ele>
        <time>2020-07-28T20:30:02.356Z</time>
      </trkpt>
      <trkpt lat="50.54713" lon="3.43803">
        <ele>15.044309</ele>
        <time>2020-07-28T20:30:03.974Z</time>
      </trkpt>
      <trkpt lat="50.54733" lon="3.43795">
        <ele>15.177573</ele>
        <time>2020-07-28T20:30:09.239Z</time>
      </trkpt>
      <trkpt lat="50.54791" lon="3.43766">
        <ele>15.554855</ele>
        <time>2020-07-28T20:30:23.799Z</time>
      </trkpt>
      <trkpt lat="50.54967" lon="3.43634">
        <ele>16.092608</ele>
        <time>2020-07-28T20:31:06.337Z</time>
      </trkpt>
      <trkpt lat="50.55012" lon="3.43602">
        <ele>16.131148</ele>
        <time>2020-07-28T20:31:15.377Z</time>
      </trkpt>
      <trkpt lat="50.55041" lon="3.43582">
        <ele>16.047241</ele>
        <time>2020-07-28T20:31:21.179Z</time>
      </trkpt>
      <trkpt lat="50.55069" lon="3.43549">
        <ele>15.954973</ele>
        <time>2020-07-28T20:31:27.568Z</time>
      </trkpt>
      <trkpt lat="50.55087" lon="3.43541">
        <ele>15.905052</ele>
        <time>2020-07-28T20:31:30.961Z</time>
      </trkpt>
      <trkpt lat="50.55102" lon="3.43536">
        <ele>15.864265</ele>
        <time>2020-07-28T20:31:33.859Z</time>
      </trkpt>
      <trkpt lat="50.5511" lon="3.43534">
        <ele>15.843335</ele>
        <time>2020-07-28T20:31:35.249Z</time>
      </trkpt>
      <trkpt lat="50.55121" lon="3.43525">
        <ele>15.809901</ele>
        <time>2020-07-28T20:31:37.556Z</time>
      </trkpt>
      <trkpt lat="50.5527" lon="3.43406">
        <ele>16.184215</ele>
        <time>2020-07-28T20:32:13.872Z</time>
      </trkpt>
      <trkpt lat="50.55356" lon="3.43369">
        <ele>16.478314</ele>
        <time>2020-07-28T20:32:34.247Z</time>
      </trkpt>
      <trkpt lat="50.55416" lon="3.4335">
        <ele>16.454751</ele>
        <time>2020-07-28T20:32:47.269Z</time>
      </trkpt>
      <trkpt lat="50.5546" lon="3.43342">
        <ele>16.43761</ele>
        <time>2020-07-28T20:32:56.021Z</time>
      </trkpt>
      <trkpt lat="50.5559" lon="3.43346">
        <ele>16.127266</ele>
        <time>2020-07-28T20:33:19.761Z</time>
      </trkpt>
      <trkpt lat="50.55712" lon="3.43385">
        <ele>15.870344</ele>
        <time>2020-07-28T20:33:43.498Z</time>
      </trkpt>
      <trkpt lat="50.55812" lon="3.43451">
        <ele>16.42136</ele>
        <time>2020-07-28T20:34:07.782Z</time>
      </trkpt>
      <trkpt lat="50.55875" lon="3.43506">
        <ele>16.877548</ele>
        <time>2020-07-28T20:34:25.219Z</time>
      </trkpt>
      <trkpt lat="50.55997" lon="3.43655">
        <ele>18.255189</ele>
        <time>2020-07-28T20:35:01.183Z</time>
      </trkpt>
      <trkpt lat="50.56071" lon="3.43784">
        <ele>19.942952</ele>
        <time>2020-07-28T20:35:30.340Z</time>
      </trkpt>
      <trkpt lat="50.56084" lon="3.43825">
        <ele>20.388263</ele>
        <time>2020-07-28T20:36:05.169Z</time>
      </trkpt>
      <trkpt lat="50.56158" lon="3.43942">
        <ele>21.188235</ele>
        <time>2020-07-28T20:38:09.248Z</time>
      </trkpt>
      <trkpt lat="50.56172" lon="3.43961">
        <ele>21.231248</ele>
        <time>2020-07-28T20:38:30.731Z</time>
      </trkpt>
      <trkpt lat="50.56223" lon="3.44029">
        <ele>21.389412</ele>
        <time>2020-07-28T20:39:44.284Z</time>
      </trkpt>
      <trkpt lat="50.5623" lon="3.44038">
        <ele>21.41067</ele>
        <time>2020-07-28T20:39:54.510Z</time>
      </trkpt>
      <trkpt lat="50.56246" lon="3.44047">
        <ele>21.449976</ele>
        <time>2020-07-28T20:39:56.999Z</time>
      </trkpt>
      <trkpt lat="50.56268" lon="3.44063">
        <ele>21.101281</ele>
        <time>2020-07-28T20:40:01.314Z</time>
      </trkpt>
      <trkpt lat="50.56327" lon="3.44114">
        <ele>19.783433</ele>
        <time>2020-07-28T20:40:11.858Z</time>
      </trkpt>
      <trkpt lat="50.56367" lon="3.44147">
        <ele>18.895089</ele>
        <time>2020-07-28T20:40:18.547Z</time>
      </trkpt>
      <trkpt lat="50.56399" lon="3.4417">
        <ele>18.21425</ele>
        <time>2020-07-28T20:40:23.786Z</time>
      </trkpt>
      <trkpt lat="50.5654" lon="3.44229">
        <ele>17.054321</ele>
        <time>2020-07-28T20:40:49.406Z</time>
      </trkpt>
      <trkpt lat="50.56556" lon="3.44251">
        <ele>16.910957</ele>
        <time>2020-07-28T20:40:54.055Z</time>
      </trkpt>
      <trkpt lat="50.56562" lon="3.44265">
        <ele>16.838867</ele>
        <time>2020-07-28T20:40:56.125Z</time>
      </trkpt>
      <trkpt lat="50.56583" lon="3.44325">
        <ele>16.980747</ele>
        <time>2020-07-28T20:41:05.623Z</time>
      </trkpt>
      <trkpt lat="50.56598" lon="3.44335">
        <ele>17.125234</ele>
        <time>2020-07-28T20:41:09.696Z</time>
      </trkpt>
      <trkpt lat="50.56658" lon="3.44416">
        <ele>17.839709</ele>
        <time>2020-07-28T20:41:29.198Z</time>
      </trkpt>
      <trkpt lat="50.56704" lon="3.4445">
        <ele>18.29682</ele>
        <time>2020-07-28T20:41:42.086Z</time>
      </trkpt>
      <trkpt lat="50.56727" lon="3.44465">
        <ele>18.457357</ele>
        <time>2020-07-28T20:41:48.129Z</time>
      </trkpt>
      <trkpt lat="50.5673" lon="3.44467">
        <ele>18.476735</ele>
        <time>2020-07-28T20:41:49.071Z</time>
      </trkpt>
      <trkpt lat="50.56746" lon="3.44474">
        <ele>18.573086</ele>
        <time>2020-07-28T20:41:52.446Z</time>
      </trkpt>
      <trkpt lat="50.56754" lon="3.44476">
        <ele>18.618536</ele>
        <time>2020-07-28T20:41:54.227Z</time>
      </trkpt>
      <trkpt lat="50.56754" lon="3.44496">
        <ele>18.692415</ele>
        <time>2020-07-28T20:41:56.906Z</time>
      </trkpt>
      <trkpt lat="50.56765" lon="3.44495">
        <ele>18.758402</ele>
        <time>2020-07-28T20:41:59.127Z</time>
      </trkpt>
      <trkpt lat="50.56775" lon="3.44487">
        <ele>18.823469</ele>
        <time>2020-07-28T20:42:01.486Z</time>
      </trkpt>
      <trkpt lat="50.56791" lon="3.44467">
        <ele>18.93959</ele>
        <time>2020-07-28T20:42:06.308Z</time>
      </trkpt>
      <trkpt lat="50.56797" lon="3.44462">
        <ele>18.977009</ele>
        <time>2020-07-28T20:42:07.461Z</time>
      </trkpt>
      <trkpt lat="50.56809" lon="3.44501">
        <ele>19.133828</ele>
        <time>2020-07-28T20:42:13.902Z</time>
      </trkpt>
      <trkpt lat="50.56832" lon="3.44485">
        <ele>19.278779</ele>
        <time>2020-07-28T20:42:17.934Z</time>
      </trkpt>
      <trkpt lat="50.56853" lon="3.44471">
        <ele>19.400024</ele>
        <time>2020-07-28T20:42:21.320Z</time>
      </trkpt>
      <trkpt lat="50.56871" lon="3.44452">
        <ele>19.450816</ele>
        <time>2020-07-28T20:42:25.097Z</time>
      </trkpt>
      <trkpt lat="50.56885" lon="3.44439">
        <ele>19.488197</ele>
        <time>2020-07-28T20:42:27.210Z</time>
      </trkpt>
      <trkpt lat="50.56893" lon="3.44434">
        <ele>19.50776</ele>
        <time>2020-07-28T20:42:28.492Z</time>
      </trkpt>
      <trkpt lat="50.56917" lon="3.44427">
        <ele>19.56458</ele>
        <time>2020-07-28T20:42:32.169Z</time>
      </trkpt>
      <trkpt lat="50.56942" lon="3.44419">
        <ele>19.622044</ele>
        <time>2020-07-28T20:42:36.303Z</time>
      </trkpt>
      <trkpt lat="50.56976" lon="3.44409">
        <ele>19.701954</ele>
        <time>2020-07-28T20:42:41.537Z</time>
      </trkpt>
      <trkpt lat="50.57037" lon="3.44381">
        <ele>19.842635</ele>
        <time>2020-07-28T20:42:51.815Z</time>
      </trkpt>
      <trkpt lat="50.57047" lon="3.44376">
        <ele>19.863212</ele>
        <time>2020-07-28T20:42:53.576Z</time>
      </trkpt>
      <trkpt lat="50.5707" lon="3.44371">
        <ele>19.909189</ele>
        <time>2020-07-28T20:42:57.483Z</time>
      </trkpt>
      <trkpt lat="50.57126" lon="3.44364">
        <ele>20.018284</ele>
        <time>2020-07-28T20:43:07.421Z</time>
      </trkpt>
      <trkpt lat="50.5716" lon="3.44366">
        <ele>20.084751</ele>
        <time>2020-07-28T20:43:12.684Z</time>
      </trkpt>
      <trkpt lat="50.57202" lon="3.44368">
        <ele>20.137859</ele>
        <time>2020-07-28T20:43:18.142Z</time>
      </trkpt>
      <trkpt lat="50.57217" lon="3.44385">
        <ele>20.033797</ele>
        <time>2020-07-28T20:43:20.483Z</time>
      </trkpt>
      <trkpt lat="50.57214" lon="3.44392">
        <ele>20.008258</ele>
        <time>2020-07-28T20:43:21.480Z</time>
      </trkpt>
      <trkpt lat="50.57213" lon="3.44413">
        <ele>19.932143</ele>
        <time>2020-07-28T20:43:23.162Z</time>
      </trkpt>
      <trkpt lat="50.57216" lon="3.44421">
        <ele>19.90189</ele>
        <time>2020-07-28T20:43:24.117Z</time>
      </trkpt>
      <trkpt lat="50.57218" lon="3.44427">
        <ele>19.877832</ele>
        <time>2020-07-28T20:43:24.646Z</time>
      </trkpt>
      <trkpt lat="50.57226" lon="3.44436">
        <ele>19.822666</ele>
        <time>2020-07-28T20:43:25.813Z</time>
      </trkpt>
      <trkpt lat="50.57233" lon="3.44437">
        <ele>19.787136</ele>
        <time>2020-07-28T20:43:26.899Z</time>
      </trkpt>
      <trkpt lat="50.57238" lon="3.44437">
        <ele>19.757151</ele>
        <time>2020-07-28T20:43:27.509Z</time>
      </trkpt>
      <trkpt lat="50.57249" lon="3.44428">
        <ele>19.687132</ele>
        <time>2020-07-28T20:43:29.303Z</time>
      </trkpt>
      <trkpt lat="50.57252" lon="3.44422">
        <ele>19.66037</ele>
        <time>2020-07-28T20:43:29.835Z</time>
      </trkpt>
      <trkpt lat="50.57254" lon="3.44419">
        <ele>19.645806</ele>
        <time>2020-07-28T20:43:30.103Z</time>
      </trkpt>
      <trkpt lat="50.57255" lon="3.44396">
        <ele>19.564273</ele>
        <time>2020-07-28T20:43:32.282Z</time>
      </trkpt>
      <trkpt lat="50.57252" lon="3.44385">
        <ele>19.5229</ele>
        <time>2020-07-28T20:43:33.234Z</time>
      </trkpt>
      <trkpt lat="50.57266" lon="3.44374">
        <ele>19.436412</ele>
        <time>2020-07-28T20:43:35.118Z</time>
      </trkpt>
      <trkpt lat="50.57276" lon="3.4437">
        <ele>19.378662</ele>
        <time>2020-07-28T20:43:36.862Z</time>
      </trkpt>
      <trkpt lat="50.57276" lon="3.4437">
        <ele>19.376337</ele>
        <time>2020-07-28T20:43:36.913Z</time>
      </trkpt>
      <trkpt lat="50.57346" lon="3.44374">
        <ele>19.035838</ele>
        <time>2020-07-28T20:43:45.990Z</time>
      </trkpt>
      <trkpt lat="50.57427" lon="3.44377">
        <ele>18.707307</ele>
        <time>2020-07-28T20:43:56.587Z</time>
      </trkpt>
      <trkpt lat="50.57535" lon="3.44384">
        <ele>18.298341</ele>
        <time>2020-07-28T20:44:12.363Z</time>
      </trkpt>
      <trkpt lat="50.57633" lon="3.44381">
        <ele>17.980937</ele>
        <time>2020-07-28T20:44:25.680Z</time>
      </trkpt>
      <trkpt lat="50.57733" lon="3.4437">
        <ele>17.755881</ele>
        <time>2020-07-28T20:44:38.726Z</time>
      </trkpt>
      <trkpt lat="50.57852" lon="3.44354">
        <ele>17.573141</ele>
        <time>2020-07-28T20:44:56.178Z</time>
      </trkpt>
      <trkpt lat="50.5786" lon="3.44352">
        <ele>17.602422</ele>
        <time>2020-07-28T20:44:57.669Z</time>
      </trkpt>
      <trkpt lat="50.57901" lon="3.44345">
        <ele>17.836187</ele>
        <time>2020-07-28T20:45:04.724Z</time>
      </trkpt>
      <trkpt lat="50.58088" lon="3.44256">
        <ele>18.780648</ele>
        <time>2020-07-28T20:45:38.649Z</time>
      </trkpt>
      <trkpt lat="50.58104" lon="3.44247">
        <ele>18.839783</ele>
        <time>2020-07-28T20:45:41.399Z</time>
      </trkpt>
      <trkpt lat="50.58231" lon="3.44094">
        <ele>19.136794</ele>
        <time>2020-07-28T20:46:06.104Z</time>
      </trkpt>
      <trkpt lat="50.5832" lon="3.43947">
        <ele>19.013339</ele>
        <time>2020-07-28T20:46:24.524Z</time>
      </trkpt>
      <trkpt lat="50.58498" lon="3.43639">
        <ele>17.808447</ele>
        <time>2020-07-28T20:46:59.724Z</time>
      </trkpt>
      <trkpt lat="50.58584" lon="3.43445">
        <ele>16.968382</ele>
        <time>2020-07-28T20:47:19.966Z</time>
      </trkpt>
      <trkpt lat="50.58677" lon="3.43278">
        <ele>16.082161</ele>
        <time>2020-07-28T20:47:37.699Z</time>
      </trkpt>
      <trkpt lat="50.5871" lon="3.43211">
        <ele>15.827691</ele>
        <time>2020-07-28T20:47:44.637Z</time>
      </trkpt>
      <trkpt lat="50.58743" lon="3.43142">
        <ele>15.566236</ele>
        <time>2020-07-28T20:47:52.122Z</time>
      </trkpt>
      <trkpt lat="50.58753" lon="3.43121">
        <ele>15.489096</ele>
        <time>2020-07-28T20:47:54.288Z</time>
      </trkpt>
      <trkpt lat="50.58768" lon="3.43087">
        <ele>15.36264</ele>
        <time>2020-07-28T20:47:58.068Z</time>
      </trkpt>
      <trkpt lat="50.58834" lon="3.42948">
        <ele>15.401696</ele>
        <time>2020-07-28T20:48:14.702Z</time>
      </trkpt>
      <trkpt lat="50.58854" lon="3.42906">
        <ele>15.417967</ele>
        <time>2020-07-28T20:48:19.834Z</time>
      </trkpt>
      <trkpt lat="50.58875" lon="3.4285">
        <ele>15.439473</ele>
        <time>2020-07-28T20:48:26.087Z</time>
      </trkpt>
      <trkpt lat="50.58913" lon="3.42748">
        <ele>15.518072</ele>
        <time>2020-07-28T20:48:37.859Z</time>
      </trkpt>
      <trkpt lat="50.58929" lon="3.42706">
        <ele>15.551359</ele>
        <time>2020-07-28T20:48:42.607Z</time>
      </trkpt>
      <trkpt lat="50.58932" lon="3.42698">
        <ele>15.55761</ele>
        <time>2020-07-28T20:48:43.513Z</time>
      </trkpt>
      <trkpt lat="50.58949" lon="3.42644">
        <ele>15.597576</ele>
        <time>2020-07-28T20:48:49.201Z</time>
      </trkpt>
      <trkpt lat="50.58963" lon="3.42612">
        <ele>15.623482</ele>
        <time>2020-07-28T20:48:52.903Z</time>
      </trkpt>
      <trkpt lat="50.58981" lon="3.42598">
        <ele>15.645833</ele>
        <time>2020-07-28T20:48:55.827Z</time>
      </trkpt>
      <trkpt lat="50.58993" lon="3.42588">
        <ele>15.661957</ele>
        <time>2020-07-28T20:48:58.043Z</time>
      </trkpt>
      <trkpt lat="50.58998" lon="3.4258">
        <ele>15.669848</ele>
        <time>2020-07-28T20:48:59.130Z</time>
      </trkpt>
      <trkpt lat="50.58999" lon="3.42571">
        <ele>15.676838</ele>
        <time>2020-07-28T20:49:00.042Z</time>
      </trkpt>
      <trkpt lat="50.58998" lon="3.42565">
        <ele>15.681154</ele>
        <time>2020-07-28T20:49:00.570Z</time>
      </trkpt>
      <trkpt lat="50.58996" lon="3.42559">
        <ele>15.685957</ele>
        <time>2020-07-28T20:49:01.158Z</time>
      </trkpt>
      <trkpt lat="50.58998" lon="3.42542">
        <ele>15.698432</ele>
        <time>2020-07-28T20:49:02.878Z</time>
      </trkpt>
      <trkpt lat="50.59009" lon="3.42506">
        <ele>15.727547</ele>
        <time>2020-07-28T20:49:06.737Z</time>
      </trkpt>
      <trkpt lat="50.5903" lon="3.42458">
        <ele>15.769605</ele>
        <time>2020-07-28T20:49:12.300Z</time>
      </trkpt>
      <trkpt lat="50.5909" lon="3.42381">
        <ele>16.016409</ele>
        <time>2020-07-28T20:49:24.172Z</time>
      </trkpt>
      <trkpt lat="50.5911" lon="3.42349">
        <ele>16.240392</ele>
        <time>2020-07-28T20:49:28.771Z</time>
      </trkpt>
      <trkpt lat="50.5928" lon="3.42011">
        <ele>19.012819</ele>
        <time>2020-07-28T20:50:20.945Z</time>
      </trkpt>
      <trkpt lat="50.59442" lon="3.41709">
        <ele>22.008752</ele>
        <time>2020-07-28T20:51:15.267Z</time>
      </trkpt>
      <trkpt lat="50.59484" lon="3.41615">
        <ele>21.608407</ele>
        <time>2020-07-28T20:51:24.903Z</time>
      </trkpt>
      <trkpt lat="50.59569" lon="3.41393">
        <ele>19.729227</ele>
        <time>2020-07-28T20:51:43.096Z</time>
      </trkpt>
      <trkpt lat="50.59581" lon="3.41371">
        <ele>19.445392</ele>
        <time>2020-07-28T20:51:44.970Z</time>
      </trkpt>
      <trkpt lat="50.59591" lon="3.41355">
        <ele>19.226516</ele>
        <time>2020-07-28T20:51:47.230Z</time>
      </trkpt>
      <trkpt lat="50.59608" lon="3.41333">
        <ele>18.878414</ele>
        <time>2020-07-28T20:51:49.621Z</time>
      </trkpt>
      <trkpt lat="50.59642" lon="3.41305">
        <ele>18.380326</ele>
        <time>2020-07-28T20:51:54.553Z</time>
      </trkpt>
      <trkpt lat="50.59659" lon="3.41249">
        <ele>18.347149</ele>
        <time>2020-07-28T20:51:59.837Z</time>
      </trkpt>
      <trkpt lat="50.59671" lon="3.41228">
        <ele>18.33147</ele>
        <time>2020-07-28T20:52:02.866Z</time>
      </trkpt>
      <trkpt lat="50.59686" lon="3.41203">
        <ele>18.312893</ele>
        <time>2020-07-28T20:52:06.054Z</time>
      </trkpt>
      <trkpt lat="50.59692" lon="3.41192">
        <ele>18.304694</ele>
        <time>2020-07-28T20:52:08.051Z</time>
      </trkpt>
      <trkpt lat="50.59694" lon="3.41189">
        <ele>18.302496</ele>
        <time>2020-07-28T20:52:08.399Z</time>
      </trkpt>
      <trkpt lat="50.59728" lon="3.41129">
        <ele>18.259087</ele>
        <time>2020-07-28T20:52:16.617Z</time>
      </trkpt>
      <trkpt lat="50.59728" lon="3.41124">
        <ele>18.25663</ele>
        <time>2020-07-28T20:52:16.955Z</time>
      </trkpt>
      <trkpt lat="50.59731" lon="3.4111">
        <ele>18.248751</ele>
        <time>2020-07-28T20:52:18.431Z</time>
      </trkpt>
      <trkpt lat="50.59732" lon="3.41087">
        <ele>18.236155</ele>
        <time>2020-07-28T20:52:20.617Z</time>
      </trkpt>
      <trkpt lat="50.59732" lon="3.41083">
        <ele>18.233981</ele>
        <time>2020-07-28T20:52:21.000Z</time>
      </trkpt>
      <trkpt lat="50.59733" lon="3.41064">
        <ele>18.188505</ele>
        <time>2020-07-28T20:52:22.602Z</time>
      </trkpt>
      <trkpt lat="50.59734" lon="3.41053">
        <ele>18.161841</ele>
        <time>2020-07-28T20:52:23.671Z</time>
      </trkpt>
      <trkpt lat="50.59737" lon="3.41043">
        <ele>18.133976</ele>
        <time>2020-07-28T20:52:24.728Z</time>
      </trkpt>
      <trkpt lat="50.59768" lon="3.40969">
        <ele>17.912104</ele>
        <time>2020-07-28T20:52:32.181Z</time>
      </trkpt>
      <trkpt lat="50.59783" lon="3.40933">
        <ele>17.804678</ele>
        <time>2020-07-28T20:52:35.842Z</time>
      </trkpt>
      <trkpt lat="50.5979" lon="3.40918">
        <ele>17.759296</ele>
        <time>2020-07-28T20:52:37.281Z</time>
      </trkpt>
      <trkpt lat="50.59791" lon="3.40917">
        <ele>17.753818</ele>
        <time>2020-07-28T20:52:37.455Z</time>
      </trkpt>
      <trkpt lat="50.59802" lon="3.4089">
        <ele>17.675721</ele>
        <time>2020-07-28T20:52:40.067Z</time>
      </trkpt>
      <trkpt lat="50.59816" lon="3.40857">
        <ele>17.57439</ele>
        <time>2020-07-28T20:52:43.531Z</time>
      </trkpt>
      <trkpt lat="50.59848" lon="3.40807">
        <ele>17.491028</ele>
        <time>2020-07-28T20:52:49.633Z</time>
      </trkpt>
      <trkpt lat="50.59855" lon="3.40795">
        <ele>17.479161</ele>
        <time>2020-07-28T20:52:51.208Z</time>
      </trkpt>
      <trkpt lat="50.59861" lon="3.40783">
        <ele>17.468294</ele>
        <time>2020-07-28T20:52:52.548Z</time>
      </trkpt>
      <trkpt lat="50.59878" lon="3.40745">
        <ele>17.435608</ele>
        <time>2020-07-28T20:52:56.796Z</time>
      </trkpt>
      <trkpt lat="50.59894" lon="3.40717">
        <ele>17.409373</ele>
        <time>2020-07-28T20:53:00.318Z</time>
      </trkpt>
      <trkpt lat="50.59918" lon="3.40665">
        <ele>17.363659</ele>
        <time>2020-07-28T20:53:06.714Z</time>
      </trkpt>
      <trkpt lat="50.59956" lon="3.40581">
        <ele>17.201601</ele>
        <time>2020-07-28T20:53:16.297Z</time>
      </trkpt>
      <trkpt lat="50.59982" lon="3.40527">
        <ele>17.037951</ele>
        <time>2020-07-28T20:53:22.589Z</time>
      </trkpt>
      <trkpt lat="50.59999" lon="3.405">
        <ele>16.947825</ele>
        <time>2020-07-28T20:53:25.820Z</time>
      </trkpt>
      <trkpt lat="50.60016" lon="3.40477">
        <ele>16.860489</ele>
        <time>2020-07-28T20:53:28.745Z</time>
      </trkpt>
      <trkpt lat="50.60034" lon="3.40456">
        <ele>16.774167</ele>
        <time>2020-07-28T20:53:31.581Z</time>
      </trkpt>
      <trkpt lat="50.60042" lon="3.40449">
        <ele>16.741475</ele>
        <time>2020-07-28T20:53:32.639Z</time>
      </trkpt>
      <trkpt lat="50.60063" lon="3.40429">
        <ele>16.646455</ele>
        <time>2020-07-28T20:53:35.726Z</time>
      </trkpt>
      <trkpt lat="50.60076" lon="3.40416">
        <ele>16.661964</ele>
        <time>2020-07-28T20:53:37.566Z</time>
      </trkpt>
      <trkpt lat="50.60085" lon="3.40406">
        <ele>16.680364</ele>
        <time>2020-07-28T20:53:39.323Z</time>
      </trkpt>
      <trkpt lat="50.60088" lon="3.40403">
        <ele>16.68717</ele>
        <time>2020-07-28T20:53:39.818Z</time>
      </trkpt>
      <trkpt lat="50.60093" lon="3.404">
        <ele>16.695118</ele>
        <time>2020-07-28T20:53:40.405Z</time>
      </trkpt>
      <trkpt lat="50.601" lon="3.40395">
        <ele>16.708868</ele>
        <time>2020-07-28T20:53:41.426Z</time>
      </trkpt>
      <trkpt lat="50.60094" lon="3.4039">
        <ele>16.720709</ele>
        <time>2020-07-28T20:53:42.650Z</time>
      </trkpt>
      <trkpt lat="50.60089" lon="3.40389">
        <ele>16.728991</ele>
        <time>2020-07-28T20:53:43.761Z</time>
      </trkpt>
      <trkpt lat="50.60075" lon="3.4038">
        <ele>16.755028</ele>
        <time>2020-07-28T20:53:46.937Z</time>
      </trkpt>
      <trkpt lat="50.60072" lon="3.40377">
        <ele>16.760668</ele>
        <time>2020-07-28T20:53:47.507Z</time>
      </trkpt>
      <trkpt lat="50.60055" lon="3.40358">
        <ele>16.795465</ele>
        <time>2020-07-28T20:53:52.032Z</time>
      </trkpt>
      <trkpt lat="50.60042" lon="3.40345">
        <ele>16.820683</ele>
        <time>2020-07-28T20:53:55.139Z</time>
      </trkpt>
      <trkpt lat="50.60011" lon="3.40312">
        <ele>16.884371</ele>
        <time>2020-07-28T20:54:03.853Z</time>
      </trkpt>
      <trkpt lat="50.60007" lon="3.40305">
        <ele>16.894548</ele>
        <time>2020-07-28T20:54:05.274Z</time>
      </trkpt>
      <trkpt lat="50.60004" lon="3.40295">
        <ele>16.905957</ele>
        <time>2020-07-28T20:54:06.964Z</time>
      </trkpt>
      <trkpt lat="50.60003" lon="3.40283">
        <ele>16.919758</ele>
        <time>2020-07-28T20:54:09.209Z</time>
      </trkpt>
      <trkpt lat="50.60007" lon="3.40258">
        <ele>16.973817</ele>
        <time>2020-07-28T20:54:12.640Z</time>
      </trkpt>
      <trkpt lat="50.60023" lon="3.40218">
        <ele>17.287973</ele>
        <time>2020-07-28T20:54:19.914Z</time>
      </trkpt>
      <trkpt lat="50.60033" lon="3.40192">
        <ele>17.484184</ele>
        <time>2020-07-28T20:54:24.620Z</time>
      </trkpt>
      <trkpt lat="50.60048" lon="3.40158">
        <ele>17.757724</ele>
        <time>2020-07-28T20:54:31.224Z</time>
      </trkpt>
      <trkpt lat="50.60051" lon="3.40152">
        <ele>17.814395</ele>
        <time>2020-07-28T20:54:32.780Z</time>
      </trkpt>
      <trkpt lat="50.60075" lon="3.40109">
        <ele>18.187381</ele>
        <time>2020-07-28T20:54:42.022Z</time>
      </trkpt>
      <trkpt lat="50.60076" lon="3.40107">
        <ele>18.202726</ele>
        <time>2020-07-28T20:54:42.541Z</time>
      </trkpt>
      <trkpt lat="50.60082" lon="3.40098">
        <ele>18.291563</ele>
        <time>2020-07-28T20:54:44.593Z</time>
      </trkpt>
      <trkpt lat="50.60092" lon="3.40083">
        <ele>18.435888</ele>
        <time>2020-07-28T20:54:47.299Z</time>
      </trkpt>
      <trkpt lat="50.60116" lon="3.40055">
        <ele>18.748573</ele>
        <time>2020-07-28T20:54:52.721Z</time>
      </trkpt>
      <trkpt lat="50.60154" lon="3.40014">
        <ele>18.85233</ele>
        <time>2020-07-28T20:55:00.282Z</time>
      </trkpt>
      <trkpt lat="50.60167" lon="3.40002">
        <ele>18.865069</ele>
        <time>2020-07-28T20:55:02.203Z</time>
      </trkpt>
      <trkpt lat="50.60176" lon="3.39994">
        <ele>18.874325</ele>
        <time>2020-07-28T20:55:03.575Z</time>
      </trkpt>
      <trkpt lat="50.60186" lon="3.39986">
        <ele>18.883582</ele>
        <time>2020-07-28T20:55:05.151Z</time>
      </trkpt>
      <trkpt lat="50.60193" lon="3.39985">
        <ele>18.89009</ele>
        <time>2020-07-28T20:55:06.384Z</time>
      </trkpt>
      <trkpt lat="50.60204" lon="3.39984">
        <ele>18.899205</ele>
        <time>2020-07-28T20:55:08.664Z</time>
      </trkpt>
      <trkpt lat="50.60251" lon="3.39948">
        <ele>18.944336</ele>
        <time>2020-07-28T20:55:19.197Z</time>
      </trkpt>
      <trkpt lat="50.60292" lon="3.39914">
        <ele>18.992933</ele>
        <time>2020-07-28T20:55:28.626Z</time>
      </trkpt>
      <trkpt lat="50.60313" lon="3.39897">
        <ele>19.030564</ele>
        <time>2020-07-28T20:55:33.996Z</time>
      </trkpt>
      <trkpt lat="50.60351" lon="3.39866">
        <ele>19.098537</ele>
        <time>2020-07-28T20:55:42.819Z</time>
      </trkpt>
      <trkpt lat="50.60403" lon="3.3982">
        <ele>19.192095</ele>
        <time>2020-07-28T20:55:55.135Z</time>
      </trkpt>
      <trkpt lat="50.60408" lon="3.39815">
        <ele>19.201669</ele>
        <time>2020-07-28T20:55:56.745Z</time>
      </trkpt>
      <trkpt lat="50.60414" lon="3.39809">
        <ele>19.213076</ele>
        <time>2020-07-28T20:55:58.171Z</time>
      </trkpt>
      <trkpt lat="50.60448" lon="3.39773">
        <ele>19.207898</ele>
        <time>2020-07-28T20:56:06.684Z</time>
      </trkpt>
      <trkpt lat="50.60482" lon="3.3972">
        <ele>19.033877</ele>
        <time>2020-07-28T20:56:16.346Z</time>
      </trkpt>
      <trkpt lat="50.60487" lon="3.3971">
        <ele>19.0039</ele>
        <time>2020-07-28T20:56:17.905Z</time>
      </trkpt>
      <trkpt lat="50.60491" lon="3.39704">
        <ele>18.982773</ele>
        <time>2020-07-28T20:56:19.104Z</time>
      </trkpt>
      <trkpt lat="50.60519" lon="3.39661">
        <ele>18.840166</ele>
        <time>2020-07-28T20:56:26.265Z</time>
      </trkpt>
      <trkpt lat="50.60524" lon="3.39654">
        <ele>18.817975</ele>
        <time>2020-07-28T20:56:27.325Z</time>
      </trkpt>
      <trkpt lat="50.60527" lon="3.3965">
        <ele>18.802545</ele>
        <time>2020-07-28T20:56:28.085Z</time>
      </trkpt>
      <trkpt lat="50.6053" lon="3.39644">
        <ele>18.784791</ele>
        <time>2020-07-28T20:56:28.913Z</time>
      </trkpt>
      <trkpt lat="50.60535" lon="3.39635">
        <ele>18.75653</ele>
        <time>2020-07-28T20:56:30.318Z</time>
      </trkpt>
      <trkpt lat="50.60538" lon="3.39628">
        <ele>18.737964</ele>
        <time>2020-07-28T20:56:31.144Z</time>
      </trkpt>
      <trkpt lat="50.60552" lon="3.39603">
        <ele>18.660815</ele>
        <time>2020-07-28T20:56:34.914Z</time>
      </trkpt>
      <trkpt lat="50.60579" lon="3.39549">
        <ele>18.549985</ele>
        <time>2020-07-28T20:56:43.084Z</time>
      </trkpt>
      <trkpt lat="50.60591" lon="3.39528">
        <ele>18.518206</ele>
        <time>2020-07-28T20:56:46.233Z</time>
      </trkpt>
      <trkpt lat="50.60631" lon="3.39444">
        <ele>18.398118</ele>
        <time>2020-07-28T20:56:59.281Z</time>
      </trkpt>
      <trkpt lat="50.60656" lon="3.39396">
        <ele>18.327532</ele>
        <time>2020-07-28T20:57:07.465Z</time>
      </trkpt>
      <trkpt lat="50.60659" lon="3.39389">
        <ele>18.317381</ele>
        <time>2020-07-28T20:57:08.818Z</time>
      </trkpt>
      <trkpt lat="50.60663" lon="3.39378">
        <ele>18.304359</ele>
        <time>2020-07-28T20:57:10.515Z</time>
      </trkpt>
      <trkpt lat="50.60678" lon="3.39341">
        <ele>18.294282</ele>
        <time>2020-07-28T20:57:16.162Z</time>
      </trkpt>
      <trkpt lat="50.60685" lon="3.39329">
        <ele>18.310181</ele>
        <time>2020-07-28T20:57:18.507Z</time>
      </trkpt>
      <trkpt lat="50.60689" lon="3.39323">
        <ele>18.319229</ele>
        <time>2020-07-28T20:57:19.558Z</time>
      </trkpt>
      <trkpt lat="50.60762" lon="3.39225">
        <ele>18.470053</ele>
        <time>2020-07-28T20:57:40.268Z</time>
      </trkpt>
      <trkpt lat="50.60769" lon="3.39218">
        <ele>18.48321</ele>
        <time>2020-07-28T20:57:42.018Z</time>
      </trkpt>
      <trkpt lat="50.60775" lon="3.39209">
        <ele>18.496554</ele>
        <time>2020-07-28T20:57:43.639Z</time>
      </trkpt>
      <trkpt lat="50.60798" lon="3.3918">
        <ele>18.542509</ele>
        <time>2020-07-28T20:57:49.493Z</time>
      </trkpt>
      <trkpt lat="50.60821" lon="3.39154">
        <ele>18.566355</ele>
        <time>2020-07-28T20:57:55.043Z</time>
      </trkpt>
      <trkpt lat="50.60838" lon="3.39134">
        <ele>18.576057</ele>
        <time>2020-07-28T20:57:59.271Z</time>
      </trkpt>
      <trkpt lat="50.6085" lon="3.39117">
        <ele>18.583062</ele>
        <time>2020-07-28T20:58:02.384Z</time>
      </trkpt>
      <trkpt lat="50.60851" lon="3.39116">
        <ele>18.58361</ele>
        <time>2020-07-28T20:58:02.626Z</time>
      </trkpt>
      <trkpt lat="50.60854" lon="3.39112">
        <ele>18.585372</ele>
        <time>2020-07-28T20:58:03.394Z</time>
      </trkpt>
      <trkpt lat="50.60855" lon="3.3911">
        <ele>18.586288</ele>
        <time>2020-07-28T20:58:03.808Z</time>
      </trkpt>
      <trkpt lat="50.60927" lon="3.38996">
        <ele>18.631866</ele>
        <time>2020-07-28T20:58:24.877Z</time>
      </trkpt>
      <trkpt lat="50.60937" lon="3.3898">
        <ele>18.638151</ele>
        <time>2020-07-28T20:58:27.867Z</time>
      </trkpt>
      <trkpt lat="50.60934" lon="3.38977">
        <ele>18.637014</ele>
        <time>2020-07-28T20:58:28.935Z</time>
      </trkpt>
      <trkpt lat="50.60939" lon="3.38968">
        <ele>18.627056</ele>
        <time>2020-07-28T20:58:30.384Z</time>
      </trkpt>
      <trkpt lat="50.60964" lon="3.3892">
        <ele>18.572387</ele>
        <time>2020-07-28T20:58:38.574Z</time>
      </trkpt>
      <trkpt lat="50.60971" lon="3.38902">
        <ele>18.554514</ele>
        <time>2020-07-28T20:58:41.216Z</time>
      </trkpt>
      <trkpt lat="50.60975" lon="3.38894">
        <ele>18.545727</ele>
        <time>2020-07-28T20:58:42.606Z</time>
      </trkpt>
      <trkpt lat="50.60979" lon="3.38888">
        <ele>18.538132</ele>
        <time>2020-07-28T20:58:43.721Z</time>
      </trkpt>
      <trkpt lat="50.60984" lon="3.38879">
        <ele>18.52861</ele>
        <time>2020-07-28T20:58:44.987Z</time>
      </trkpt>
      <trkpt lat="50.61023" lon="3.38804">
        <ele>18.443346</ele>
        <time>2020-07-28T20:58:57.062Z</time>
      </trkpt>
      <trkpt lat="50.61052" lon="3.38751">
        <ele>18.381982</ele>
        <time>2020-07-28T20:59:05.601Z</time>
      </trkpt>
      <trkpt lat="50.61071" lon="3.38715">
        <ele>18.338788</ele>
        <time>2020-07-28T20:59:11.298Z</time>
      </trkpt>
      <trkpt lat="50.61082" lon="3.38699">
        <ele>18.316787</ele>
        <time>2020-07-28T20:59:14.074Z</time>
      </trkpt>
      <trkpt lat="50.61085" lon="3.38693">
        <ele>18.309778</ele>
        <time>2020-07-28T20:59:14.884Z</time>
      </trkpt>
      <trkpt lat="50.61122" lon="3.38626">
        <ele>18.226724</ele>
        <time>2020-07-28T20:59:25.874Z</time>
      </trkpt>
      <trkpt lat="50.61212" lon="3.38504">
        <ele>18.191385</ele>
        <time>2020-07-28T20:59:50.460Z</time>
      </trkpt>
      <trkpt lat="50.61215" lon="3.385">
        <ele>18.196245</ele>
        <time>2020-07-28T20:59:51.532Z</time>
      </trkpt>
      <trkpt lat="50.61249" lon="3.38463">
        <ele>18.245625</ele>
        <time>2020-07-28T21:00:00.419Z</time>
      </trkpt>
      <trkpt lat="50.61257" lon="3.38455">
        <ele>18.256922</ele>
        <time>2020-07-28T21:00:02.694Z</time>
      </trkpt>
      <trkpt lat="50.61281" lon="3.38432">
        <ele>18.290245</ele>
        <time>2020-07-28T21:00:08.527Z</time>
      </trkpt>
      <trkpt lat="50.61305" lon="3.38413">
        <ele>18.323178</ele>
        <time>2020-07-28T21:00:13.965Z</time>
      </trkpt>
      <trkpt lat="50.61317" lon="3.38396">
        <ele>18.342569</ele>
        <time>2020-07-28T21:00:17.498Z</time>
      </trkpt>
      <trkpt lat="50.61327" lon="3.38378">
        <ele>18.22716</ele>
        <time>2020-07-28T21:00:20.143Z</time>
      </trkpt>
      <trkpt lat="50.61367" lon="3.38329">
        <ele>17.777989</ele>
        <time>2020-07-28T21:00:29.332Z</time>
      </trkpt>
      <trkpt lat="50.61392" lon="3.383">
        <ele>17.504311</ele>
        <time>2020-07-28T21:00:34.643Z</time>
      </trkpt>
      <trkpt lat="50.61396" lon="3.38304">
        <ele>17.460397</ele>
        <time>2020-07-28T21:00:35.456Z</time>
      </trkpt>
      <trkpt lat="50.61401" lon="3.38297">
        <ele>17.402975</ele>
        <time>2020-07-28T21:00:36.547Z</time>
      </trkpt>
      <trkpt lat="50.61426" lon="3.38265">
        <ele>17.117482</ele>
        <time>2020-07-28T21:00:42.028Z</time>
      </trkpt>
      <trkpt lat="50.61447" lon="3.38239">
        <ele>16.881024</ele>
        <time>2020-07-28T21:00:46.622Z</time>
      </trkpt>
      <trkpt lat="50.61462" lon="3.38222">
        <ele>16.73099</ele>
        <time>2020-07-28T21:00:49.635Z</time>
      </trkpt>
      <trkpt lat="50.61483" lon="3.38198">
        <ele>16.57507</ele>
        <time>2020-07-28T21:00:54.224Z</time>
      </trkpt>
      <trkpt lat="50.61507" lon="3.38169">
        <ele>16.39136</ele>
        <time>2020-07-28T21:00:59.606Z</time>
      </trkpt>
      <trkpt lat="50.61581" lon="3.38081">
        <ele>15.837879</ele>
        <time>2020-07-28T21:01:16.288Z</time>
      </trkpt>
      <trkpt lat="50.6162" lon="3.38037">
        <ele>15.726215</ele>
        <time>2020-07-28T21:01:26.412Z</time>
      </trkpt>
      <trkpt lat="50.61653" lon="3.38009">
        <ele>15.820003</ele>
        <time>2020-07-28T21:01:34.549Z</time>
      </trkpt>
      <trkpt lat="50.61658" lon="3.38006">
        <ele>15.833855</ele>
        <time>2020-07-28T21:01:35.770Z</time>
      </trkpt>
      <trkpt lat="50.61683" lon="3.3799">
        <ele>15.901597</ele>
        <time>2020-07-28T21:01:41.585Z</time>
      </trkpt>
      <trkpt lat="50.61717" lon="3.37979">
        <ele>15.988555</ele>
        <time>2020-07-28T21:01:48.989Z</time>
      </trkpt>
      <trkpt lat="50.61761" lon="3.37978">
        <ele>16.098861</ele>
        <time>2020-07-28T21:01:58.389Z</time>
      </trkpt>
      <trkpt lat="50.61804" lon="3.37974">
        <ele>16.212659</ele>
        <time>2020-07-28T21:02:07.590Z</time>
      </trkpt>
      <trkpt lat="50.61842" lon="3.3798">
        <ele>16.316738</ele>
        <time>2020-07-28T21:02:15.820Z</time>
      </trkpt>
      <trkpt lat="50.61917" lon="3.37996">
        <ele>16.517868</ele>
        <time>2020-07-28T21:02:31.956Z</time>
      </trkpt>
      <trkpt lat="50.61976" lon="3.38">
        <ele>16.654674</ele>
        <time>2020-07-28T21:02:44.617Z</time>
      </trkpt>
      <trkpt lat="50.62061" lon="3.37989">
        <ele>16.808778</ele>
        <time>2020-07-28T21:03:02.617Z</time>
      </trkpt>
      <trkpt lat="50.62105" lon="3.37978">
        <ele>16.891272</ele>
        <time>2020-07-28T21:03:12.092Z</time>
      </trkpt>
      <trkpt lat="50.62113" lon="3.37971">
        <ele>16.907271</ele>
        <time>2020-07-28T21:03:13.768Z</time>
      </trkpt>
      <trkpt lat="50.62197" lon="3.37932">
        <ele>16.684191</ele>
        <time>2020-07-28T21:03:31.267Z</time>
      </trkpt>
      <trkpt lat="50.62316" lon="3.37849">
        <ele>16.178246</ele>
        <time>2020-07-28T21:03:55.156Z</time>
      </trkpt>
      <trkpt lat="50.62398" lon="3.3775">
        <ele>15.536515</ele>
        <time>2020-07-28T21:04:14.145Z</time>
      </trkpt>
      <trkpt lat="50.6249" lon="3.37619">
        <ele>14.72937</ele>
        <time>2020-07-28T21:04:36.381Z</time>
      </trkpt>
      <trkpt lat="50.62529" lon="3.37554">
        <ele>14.343821</ele>
        <time>2020-07-28T21:04:46.661Z</time>
      </trkpt>
      <trkpt lat="50.62554" lon="3.37528">
        <ele>14.140616</ele>
        <time>2020-07-28T21:04:52.109Z</time>
      </trkpt>
      <trkpt lat="50.626" lon="3.37459">
        <ele>13.889541</ele>
        <time>2020-07-28T21:05:03.844Z</time>
      </trkpt>
      <trkpt lat="50.62658" lon="3.37388">
        <ele>13.716215</ele>
        <time>2020-07-28T21:05:17.896Z</time>
      </trkpt>
      <trkpt lat="50.62758" lon="3.37296">
        <ele>13.607879</ele>
        <time>2020-07-28T21:05:41.619Z</time>
      </trkpt>
      <trkpt lat="50.62785" lon="3.37279">
        <ele>13.636244</ele>
        <time>2020-07-28T21:05:47.493Z</time>
      </trkpt>
      <trkpt lat="50.62775" lon="3.37244">
        <ele>13.66006</ele>
        <time>2020-07-28T21:05:52.399Z</time>
      </trkpt>
      <trkpt lat="50.62796" lon="3.37219">
        <ele>13.686572</ele>
        <time>2020-07-28T21:05:58.088Z</time>
      </trkpt>
      <trkpt lat="50.62806" lon="3.3721">
        <ele>13.697978</ele>
        <time>2020-07-28T21:06:00.399Z</time>
      </trkpt>
      <trkpt lat="50.62904" lon="3.37119">
        <ele>13.993034</ele>
        <time>2020-07-28T21:06:24.402Z</time>
      </trkpt>
      <trkpt lat="50.62912" lon="3.37111">
        <ele>14.026277</ele>
        <time>2020-07-28T21:06:26.592Z</time>
      </trkpt>
      <trkpt lat="50.62928" lon="3.37097">
        <ele>14.0869</ele>
        <time>2020-07-28T21:06:30.260Z</time>
      </trkpt>
      <trkpt lat="50.62994" lon="3.37031">
        <ele>14.354838</ele>
        <time>2020-07-28T21:06:47.248Z</time>
      </trkpt>
      <trkpt lat="50.63077" lon="3.36954">
        <ele>14.715918</ele>
        <time>2020-07-28T21:07:09.045Z</time>
      </trkpt>
      <trkpt lat="50.63116" lon="3.36933">
        <ele>14.872841</ele>
        <time>2020-07-28T21:07:18.105Z</time>
      </trkpt>
      <trkpt lat="50.63178" lon="3.36851">
        <ele>14.954495</ele>
        <time>2020-07-28T21:07:34.955Z</time>
      </trkpt>
      <trkpt lat="50.6319" lon="3.36825">
        <ele>14.91701</ele>
        <time>2020-07-28T21:07:38.913Z</time>
      </trkpt>
      <trkpt lat="50.63239" lon="3.36721">
        <ele>14.764199</ele>
        <time>2020-07-28T21:07:54.862Z</time>
      </trkpt>
      <trkpt lat="50.63299" lon="3.36555">
        <ele>14.370957</ele>
        <time>2020-07-28T21:08:17.353Z</time>
      </trkpt>
      <trkpt lat="50.63325" lon="3.36476">
        <ele>14.152545</ele>
        <time>2020-07-28T21:08:28.094Z</time>
      </trkpt>
      <trkpt lat="50.63385" lon="3.36263">
        <ele>13.713579</ele>
        <time>2020-07-28T21:08:56.701Z</time>
      </trkpt>
      <trkpt lat="50.63425" lon="3.3614">
        <ele>13.483371</ele>
        <time>2020-07-28T21:09:13.727Z</time>
      </trkpt>
      <trkpt lat="50.63497" lon="3.35968">
        <ele>13.143228</ele>
        <time>2020-07-28T21:09:38.839Z</time>
      </trkpt>
      <trkpt lat="50.63572" lon="3.35823">
        <ele>12.891923</ele>
        <time>2020-07-28T21:10:02.078Z</time>
      </trkpt>
      <trkpt lat="50.63618" lon="3.35745">
        <ele>12.762468</ele>
        <time>2020-07-28T21:10:15.344Z</time>
      </trkpt>
      <trkpt lat="50.63724" lon="3.35591">
        <ele>12.47142</ele>
        <time>2020-07-28T21:10:43.304Z</time>
      </trkpt>
      <trkpt lat="50.63785" lon="3.35513">
        <ele>12.362661</ele>
        <time>2020-07-28T21:10:58.749Z</time>
      </trkpt>
      <trkpt lat="50.63836" lon="3.3546">
        <ele>12.438885</ele>
        <time>2020-07-28T21:11:10.940Z</time>
      </trkpt>
      <trkpt lat="50.63858" lon="3.35437">
        <ele>12.472173</ele>
        <time>2020-07-28T21:11:16.348Z</time>
      </trkpt>
      <trkpt lat="50.64036" lon="3.35289">
        <ele>12.951295</ele>
        <time>2020-07-28T21:11:59.724Z</time>
      </trkpt>
      <trkpt lat="50.64159" lon="3.35217">
        <ele>13.162891</ele>
        <time>2020-07-28T21:12:27.598Z</time>
      </trkpt>
      <trkpt lat="50.6425" lon="3.35175">
        <ele>13.214649</ele>
        <time>2020-07-28T21:12:46.981Z</time>
      </trkpt>
      <trkpt lat="50.64517" lon="3.35097">
        <ele>12.406138</ele>
        <time>2020-07-28T21:13:38.925Z</time>
      </trkpt>
      <trkpt lat="50.64527" lon="3.351">
        <ele>12.364178</ele>
        <time>2020-07-28T21:13:40.872Z</time>
      </trkpt>
      <trkpt lat="50.64531" lon="3.35102">
        <ele>12.348318</ele>
        <time>2020-07-28T21:13:41.506Z</time>
      </trkpt>
      <trkpt lat="50.64536" lon="3.35102">
        <ele>12.325788</ele>
        <time>2020-07-28T21:13:42.524Z</time>
      </trkpt>
      <trkpt lat="50.64541" lon="3.35099">
        <ele>12.30502</ele>
        <time>2020-07-28T21:13:43.445Z</time>
      </trkpt>
      <trkpt lat="50.64548" lon="3.3522">
        <ele>11.993726</ele>
        <time>2020-07-28T21:13:57.785Z</time>
      </trkpt>
      <trkpt lat="50.64564" lon="3.35533">
        <ele>11.522399</ele>
        <time>2020-07-28T21:14:36.021Z</time>
      </trkpt>
      <trkpt lat="50.64571" lon="3.35536">
        <ele>11.52879</ele>
        <time>2020-07-28T21:14:37.524Z</time>
      </trkpt>
      <trkpt lat="50.64571" lon="3.35532">
        <ele>11.53106</ele>
        <time>2020-07-28T21:14:37.816Z</time>
      </trkpt>
      <trkpt lat="50.64574" lon="3.35279">
        <ele>11.77543</ele>
        <time>2020-07-28T21:15:02.640Z</time>
      </trkpt>
      <trkpt lat="50.64564" lon="3.3513">
        <ele>12.561733</ele>
        <time>2020-07-28T21:15:19.304Z</time>
      </trkpt>
      <trkpt lat="50.64561" lon="3.35095">
        <ele>12.745612</ele>
        <time>2020-07-28T21:15:23.593Z</time>
      </trkpt>
      <trkpt lat="50.6455" lon="3.3499">
        <ele>13.447717</ele>
        <time>2020-07-28T21:15:37.028Z</time>
      </trkpt>
      <trkpt lat="50.64519" lon="3.34722">
        <ele>16.25524</ele>
        <time>2020-07-28T21:16:14.390Z</time>
      </trkpt>
      <trkpt lat="50.64507" lon="3.34606">
        <ele>17.646349</ele>
        <time>2020-07-28T21:16:31.088Z</time>
      </trkpt>
      <trkpt lat="50.64505" lon="3.34574">
        <ele>18.024444</ele>
        <time>2020-07-28T21:16:36.233Z</time>
      </trkpt>
      <trkpt lat="50.64452" lon="3.3457">
        <ele>19.02615</ele>
        <time>2020-07-28T21:16:48.271Z</time>
      </trkpt>
      <trkpt lat="50.6441" lon="3.34564">
        <ele>19.658519</ele>
        <time>2020-07-28T21:16:56.568Z</time>
      </trkpt>
      <trkpt lat="50.64404" lon="3.34565">
        <ele>19.730978</ele>
        <time>2020-07-28T21:16:57.706Z</time>
      </trkpt>
      <trkpt lat="50.64401" lon="3.3457">
        <ele>19.788339</ele>
        <time>2020-07-28T21:16:59.208Z</time>
      </trkpt>
      <trkpt lat="50.64392" lon="3.34612">
        <ele>20.127544</ele>
        <time>2020-07-28T21:17:04.399Z</time>
      </trkpt>
      <trkpt lat="50.64348" lon="3.34656">
        <ele>20.764847</ele>
        <time>2020-07-28T21:17:15.208Z</time>
      </trkpt>
      <trkpt lat="50.64342" lon="3.34659">
        <ele>20.848394</ele>
        <time>2020-07-28T21:17:16.882Z</time>
      </trkpt>
      <trkpt lat="50.64324" lon="3.34641">
        <ele>21.105246</ele>
        <time>2020-07-28T21:17:20.769Z</time>
      </trkpt>
      <trkpt lat="50.64317" lon="3.3463">
        <ele>21.221513</ele>
        <time>2020-07-28T21:17:22.755Z</time>
      </trkpt>
      <trkpt lat="50.64308" lon="3.34614">
        <ele>21.394508</ele>
        <time>2020-07-28T21:17:24.975Z</time>
      </trkpt>
      <trkpt lat="50.64302" lon="3.34604">
        <ele>21.49252</ele>
        <time>2020-07-28T21:17:26.329Z</time>
      </trkpt>
      <trkpt lat="50.64292" lon="3.34588">
        <ele>21.603378</ele>
        <time>2020-07-28T21:17:29.594Z</time>
      </trkpt>
      <trkpt lat="50.6429" lon="3.34586">
        <ele>21.607012</ele>
        <time>2020-07-28T21:17:30.083Z</time>
      </trkpt>
      <trkpt lat="50.64258" lon="3.34537">
        <ele>21.676321</ele>
        <time>2020-07-28T21:17:36.799Z</time>
      </trkpt>
      <trkpt lat="50.64216" lon="3.34472">
        <ele>21.76694</ele>
        <time>2020-07-28T21:17:45.261Z</time>
      </trkpt>
      <trkpt lat="50.64193" lon="3.34437">
        <ele>21.816624</ele>
        <time>2020-07-28T21:17:49.825Z</time>
      </trkpt>
      <trkpt lat="50.6419" lon="3.34433">
        <ele>21.822484</ele>
        <time>2020-07-28T21:17:50.446Z</time>
      </trkpt>
      <trkpt lat="50.64161" lon="3.34392">
        <ele>21.856381</ele>
        <time>2020-07-28T21:17:56.587Z</time>
      </trkpt>
      <trkpt lat="50.6412" lon="3.34341">
        <ele>21.739517</ele>
        <time>2020-07-28T21:18:04.188Z</time>
      </trkpt>
      <trkpt lat="50.64044" lon="3.34245">
        <ele>21.521123</ele>
        <time>2020-07-28T21:18:17.878Z</time>
      </trkpt>
      <trkpt lat="50.63919" lon="3.34071">
        <ele>20.293343</ele>
        <time>2020-07-28T21:18:39.328Z</time>
      </trkpt>
      <trkpt lat="50.63914" lon="3.34067">
        <ele>20.24711</ele>
        <time>2020-07-28T21:18:39.933Z</time>
      </trkpt>
      <trkpt lat="50.63888" lon="3.34044">
        <ele>20.004045</ele>
        <time>2020-07-28T21:18:43.620Z</time>
      </trkpt>
      <trkpt lat="50.63888" lon="3.34044">
        <ele>20.004045</ele>
        <time>2020-07-28T21:18:43.626Z</time>
      </trkpt>
      <trkpt lat="50.63888" lon="3.34044">
        <ele>20.004045</ele>
        <time>2020-07-28T21:18:43.706Z</time>
      </trkpt>
      <trkpt lat="50.63886" lon="3.34048">
        <ele>19.963307</ele>
        <time>2020-07-28T21:18:44.243Z</time>
      </trkpt>
      <trkpt lat="50.63868" lon="3.34058">
        <ele>19.722804</ele>
        <time>2020-07-28T21:18:47.345Z</time>
      </trkpt>
      <trkpt lat="50.6386" lon="3.34072">
        <ele>19.569379</ele>
        <time>2020-07-28T21:18:49.569Z</time>
      </trkpt>
      <trkpt lat="50.63853" lon="3.34097">
        <ele>19.349204</ele>
        <time>2020-07-28T21:18:52.436Z</time>
      </trkpt>
      <trkpt lat="50.63854" lon="3.34211">
        <ele>18.422721</ele>
        <time>2020-07-28T21:19:04.331Z</time>
      </trkpt>
      <trkpt lat="50.6385" lon="3.34221">
        <ele>18.328024</ele>
        <time>2020-07-28T21:19:05.394Z</time>
      </trkpt>
      <trkpt lat="50.63743" lon="3.34309">
        <ele>17.192812</ele>
        <time>2020-07-28T21:19:26.682Z</time>
      </trkpt>
      <trkpt lat="50.63708" lon="3.3435">
        <ele>16.887758</ele>
        <time>2020-07-28T21:19:34.199Z</time>
      </trkpt>
      <trkpt lat="50.63671" lon="3.34416">
        <ele>16.491189</ele>
        <time>2020-07-28T21:19:44.818Z</time>
      </trkpt>
      <trkpt lat="50.63666" lon="3.34431">
        <ele>16.428234</ele>
        <time>2020-07-28T21:19:46.954Z</time>
      </trkpt>
      <trkpt lat="50.63632" lon="3.34698">
        <ele>16.401883</ele>
        <time>2020-07-28T21:20:22.689Z</time>
      </trkpt>
      <trkpt lat="50.63577" lon="3.3483">
        <ele>16.027329</ele>
        <time>2020-07-28T21:20:41.707Z</time>
      </trkpt>
      <trkpt lat="50.63579" lon="3.34874">
        <ele>15.915535</ele>
        <time>2020-07-28T21:20:46.964Z</time>
      </trkpt>
      <trkpt lat="50.63582" lon="3.34881">
        <ele>15.894325</ele>
        <time>2020-07-28T21:20:47.901Z</time>
      </trkpt>
      <trkpt lat="50.63618" lon="3.34969">
        <ele>15.657784</ele>
        <time>2020-07-28T21:21:00.071Z</time>
      </trkpt>
      <trkpt lat="50.63644" lon="3.35032">
        <ele>15.553855</ele>
        <time>2020-07-28T21:21:08.869Z</time>
      </trkpt>
      <trkpt lat="50.63539" lon="3.3507">
        <ele>15.321243</ele>
        <time>2020-07-28T21:21:23.963Z</time>
      </trkpt>
      <trkpt lat="50.63314" lon="3.35183">
        <ele>16.427841</ele>
        <time>2020-07-28T21:22:04.647Z</time>
      </trkpt>
      <trkpt lat="50.63046" lon="3.35389">
        <ele>17.586165</ele>
        <time>2020-07-28T21:22:53.995Z</time>
      </trkpt>
      <trkpt lat="50.63043" lon="3.35388">
        <ele>17.595207</ele>
        <time>2020-07-28T21:22:54.289Z</time>
      </trkpt>
      <trkpt lat="50.63038" lon="3.35383">
        <ele>17.61651</ele>
        <time>2020-07-28T21:22:55.155Z</time>
      </trkpt>
      <trkpt lat="50.63026" lon="3.35372">
        <ele>17.649761</ele>
        <time>2020-07-28T21:22:57.345Z</time>
      </trkpt>
      <trkpt lat="50.63014" lon="3.35373">
        <ele>17.669608</ele>
        <time>2020-07-28T21:22:59.160Z</time>
      </trkpt>
      <trkpt lat="50.62972" lon="3.35453">
        <ele>17.778456</ele>
        <time>2020-07-28T21:23:08.897Z</time>
      </trkpt>
      <trkpt lat="50.62967" lon="3.35457">
        <ele>17.788017</ele>
        <time>2020-07-28T21:23:09.718Z</time>
      </trkpt>
      <trkpt lat="50.62956" lon="3.35466">
        <ele>17.808642</ele>
        <time>2020-07-28T21:23:12.040Z</time>
      </trkpt>
      <trkpt lat="50.62889" lon="3.35523">
        <ele>17.936265</ele>
        <time>2020-07-28T21:23:28.313Z</time>
      </trkpt>
      <trkpt lat="50.62721" lon="3.35617">
        <ele>19.211345</ele>
        <time>2020-07-28T21:24:10.337Z</time>
      </trkpt>
      <trkpt lat="50.62663" lon="3.3564">
        <ele>19.421805</ele>
        <time>2020-07-28T21:24:23.392Z</time>
      </trkpt>
      <trkpt lat="50.62652" lon="3.35646">
        <ele>19.461725</ele>
        <time>2020-07-28T21:24:25.895Z</time>
      </trkpt>
      <trkpt lat="50.62608" lon="3.35663">
        <ele>19.617138</ele>
        <time>2020-07-28T21:24:35.341Z</time>
      </trkpt>
      <trkpt lat="50.62589" lon="3.35671">
        <ele>19.685057</ele>
        <time>2020-07-28T21:24:39.327Z</time>
      </trkpt>
      <trkpt lat="50.62452" lon="3.35725">
        <ele>20.287906</ele>
        <time>2020-07-28T21:25:09.464Z</time>
      </trkpt>
      <trkpt lat="50.62436" lon="3.35726">
        <ele>20.364065</ele>
        <time>2020-07-28T21:25:13.209Z</time>
      </trkpt>
      <trkpt lat="50.62422" lon="3.35734">
        <ele>20.432172</ele>
        <time>2020-07-28T21:25:16.523Z</time>
      </trkpt>
      <trkpt lat="50.6238" lon="3.35769">
        <ele>20.655003</ele>
        <time>2020-07-28T21:25:24.891Z</time>
      </trkpt>
      <trkpt lat="50.62351" lon="3.35721">
        <ele>20.946597</ele>
        <time>2020-07-28T21:25:32.215Z</time>
      </trkpt>
      <trkpt lat="50.62327" lon="3.35674">
        <ele>21.228127</ele>
        <time>2020-07-28T21:25:39.418Z</time>
      </trkpt>
      <trkpt lat="50.62305" lon="3.35604">
        <ele>21.588107</ele>
        <time>2020-07-28T21:25:48.489Z</time>
      </trkpt>
      <trkpt lat="50.62293" lon="3.35572">
        <ele>21.763362</ele>
        <time>2020-07-28T21:25:52.512Z</time>
      </trkpt>
      <trkpt lat="50.62279" lon="3.35537">
        <ele>21.954338</ele>
        <time>2020-07-28T21:25:56.986Z</time>
      </trkpt>
      <trkpt lat="50.62272" lon="3.3554">
        <ele>22.004835</ele>
        <time>2020-07-28T21:25:58.369Z</time>
      </trkpt>
      <trkpt lat="50.62271" lon="3.35541">
        <ele>22.008236</ele>
        <time>2020-07-28T21:25:58.524Z</time>
      </trkpt>
      <trkpt lat="50.62268" lon="3.35542">
        <ele>22.021516</ele>
        <time>2020-07-28T21:25:59.099Z</time>
      </trkpt>
      <trkpt lat="50.62265" lon="3.35543">
        <ele>22.035573</ele>
        <time>2020-07-28T21:25:59.904Z</time>
      </trkpt>
      <trkpt lat="50.622" lon="3.35523">
        <ele>22.295786</ele>
        <time>2020-07-28T21:26:10.814Z</time>
      </trkpt>
      <trkpt lat="50.62167" lon="3.35528">
        <ele>22.425771</ele>
        <time>2020-07-28T21:26:16.168Z</time>
      </trkpt>
      <trkpt lat="50.62146" lon="3.35539">
        <ele>22.515475</ele>
        <time>2020-07-28T21:26:19.772Z</time>
      </trkpt>
      <trkpt lat="50.62139" lon="3.35549">
        <ele>22.552936</ele>
        <time>2020-07-28T21:26:21.414Z</time>
      </trkpt>
      <trkpt lat="50.62129" lon="3.35564">
        <ele>22.605721</ele>
        <time>2020-07-28T21:26:24.437Z</time>
      </trkpt>
      <trkpt lat="50.62115" lon="3.35584">
        <ele>22.679983</ele>
        <time>2020-07-28T21:26:28.443Z</time>
      </trkpt>
      <trkpt lat="50.62105" lon="3.35594">
        <ele>22.693756</ele>
        <time>2020-07-28T21:26:30.937Z</time>
      </trkpt>
      <trkpt lat="50.62101" lon="3.35596">
        <ele>22.676941</ele>
        <time>2020-07-28T21:26:31.684Z</time>
      </trkpt>
      <trkpt lat="50.62083" lon="3.35603">
        <ele>22.599837</ele>
        <time>2020-07-28T21:26:35.737Z</time>
      </trkpt>
      <trkpt lat="50.6207" lon="3.35605">
        <ele>22.54804</ele>
        <time>2020-07-28T21:26:38.434Z</time>
      </trkpt>
      <trkpt lat="50.62049" lon="3.35646">
        <ele>22.414024</ele>
        <time>2020-07-28T21:26:45.232Z</time>
      </trkpt>
      <trkpt lat="50.61961" lon="3.35835">
        <ele>21.588924</ele>
        <time>2020-07-28T21:27:11.837Z</time>
      </trkpt>
      <trkpt lat="50.61948" lon="3.35846">
        <ele>21.450656</ele>
        <time>2020-07-28T21:27:14.447Z</time>
      </trkpt>
      <trkpt lat="50.61948" lon="3.35846">
        <ele>21.450656</ele>
        <time>2020-07-28T21:27:14.452Z</time>
      </trkpt>
      <trkpt lat="50.61951" lon="3.35889">
        <ele>21.19474</ele>
        <time>2020-07-28T21:27:17.786Z</time>
      </trkpt>
      <trkpt lat="50.61951" lon="3.35936">
        <ele>20.912328</ele>
        <time>2020-07-28T21:27:21.447Z</time>
      </trkpt>
      <trkpt lat="50.61943" lon="3.35981">
        <ele>20.636036</ele>
        <time>2020-07-28T21:27:25.054Z</time>
      </trkpt>
      <trkpt lat="50.6191" lon="3.36068">
        <ele>20.177446</ele>
        <time>2020-07-28T21:27:32.906Z</time>
      </trkpt>
      <trkpt lat="50.61892" lon="3.36107">
        <ele>20.040526</ele>
        <time>2020-07-28T21:27:36.827Z</time>
      </trkpt>
      <trkpt lat="50.61875" lon="3.36147">
        <ele>19.903693</ele>
        <time>2020-07-28T21:27:40.962Z</time>
      </trkpt>
      <trkpt lat="50.61868" lon="3.36164">
        <ele>19.847068</ele>
        <time>2020-07-28T21:27:42.706Z</time>
      </trkpt>
      <trkpt lat="50.61841" lon="3.36231">
        <ele>19.621999</ele>
        <time>2020-07-28T21:27:49.748Z</time>
      </trkpt>
      <trkpt lat="50.61835" lon="3.36255">
        <ele>19.549262</ele>
        <time>2020-07-28T21:27:52.058Z</time>
      </trkpt>
      <trkpt lat="50.61822" lon="3.36268">
        <ele>19.527774</ele>
        <time>2020-07-28T21:27:54.460Z</time>
      </trkpt>
      <trkpt lat="50.61805" lon="3.36317">
        <ele>19.676465</ele>
        <time>2020-07-28T21:27:59.953Z</time>
      </trkpt>
      <trkpt lat="50.61789" lon="3.36358">
        <ele>19.806113</ele>
        <time>2020-07-28T21:28:04.953Z</time>
      </trkpt>
      <trkpt lat="50.61643" lon="3.367">
        <ele>21.202601</ele>
        <time>2020-07-28T21:28:50.373Z</time>
      </trkpt>
      <trkpt lat="50.61605" lon="3.36788">
        <ele>21.450739</ele>
        <time>2020-07-28T21:29:02.072Z</time>
      </trkpt>
      <trkpt lat="50.61505" lon="3.37019">
        <ele>21.613031</ele>
        <time>2020-07-28T21:29:29.113Z</time>
      </trkpt>
      <trkpt lat="50.61371" lon="3.37329">
        <ele>21.476394</ele>
        <time>2020-07-28T21:30:00.939Z</time>
      </trkpt>
      <trkpt lat="50.61358" lon="3.37357">
        <ele>21.551751</ele>
        <time>2020-07-28T21:30:04.868Z</time>
      </trkpt>
      <trkpt lat="50.61354" lon="3.37361">
        <ele>21.567089</ele>
        <time>2020-07-28T21:30:05.708Z</time>
      </trkpt>
      <trkpt lat="50.61353" lon="3.37367">
        <ele>21.580924</ele>
        <time>2020-07-28T21:30:06.448Z</time>
      </trkpt>
      <trkpt lat="50.61346" lon="3.37383">
        <ele>21.623131</ele>
        <time>2020-07-28T21:30:08.803Z</time>
      </trkpt>
      <trkpt lat="50.61346" lon="3.37383">
        <ele>21.623131</ele>
        <time>2020-07-28T21:30:08.828Z</time>
      </trkpt>
      <trkpt lat="50.61346" lon="3.37383">
        <ele>21.623131</ele>
        <time>2020-07-28T21:30:08.830Z</time>
      </trkpt>
      <trkpt lat="50.61254" lon="3.37286">
        <ele>22.893476</ele>
        <time>2020-07-28T21:30:38.001Z</time>
      </trkpt>
      <trkpt lat="50.61218" lon="3.37248">
        <ele>23.577784</ele>
        <time>2020-07-28T21:30:50.035Z</time>
      </trkpt>
      <trkpt lat="50.61196" lon="3.37224">
        <ele>24.009215</ele>
        <time>2020-07-28T21:30:57.536Z</time>
      </trkpt>
      <trkpt lat="50.6099" lon="3.37068">
        <ele>27.453555</ele>
        <time>2020-07-28T21:31:57.135Z</time>
      </trkpt>
      <trkpt lat="50.6099" lon="3.37063">
        <ele>27.497004</ele>
        <time>2020-07-28T21:31:57.959Z</time>
      </trkpt>
      <trkpt lat="50.60989" lon="3.37055">
        <ele>27.582743</ele>
        <time>2020-07-28T21:31:59.446Z</time>
      </trkpt>
      <trkpt lat="50.60987" lon="3.37052">
        <ele>27.625989</ele>
        <time>2020-07-28T21:32:00.273Z</time>
      </trkpt>
      <trkpt lat="50.60983" lon="3.3705">
        <ele>27.678084</ele>
        <time>2020-07-28T21:32:01.200Z</time>
      </trkpt>
      <trkpt lat="50.6098" lon="3.37051">
        <ele>27.731417</ele>
        <time>2020-07-28T21:32:02.052Z</time>
      </trkpt>
      <trkpt lat="50.60977" lon="3.37053">
        <ele>27.781826</ele>
        <time>2020-07-28T21:32:02.838Z</time>
      </trkpt>
      <trkpt lat="50.60975" lon="3.37057">
        <ele>27.832662</ele>
        <time>2020-07-28T21:32:03.621Z</time>
      </trkpt>
      <trkpt lat="50.60951" lon="3.37047">
        <ele>28.218695</ele>
        <time>2020-07-28T21:32:10.301Z</time>
      </trkpt>
      <trkpt lat="50.60931" lon="3.37041">
        <ele>28.533077</ele>
        <time>2020-07-28T21:32:15.294Z</time>
      </trkpt>
      <trkpt lat="50.60914" lon="3.37036">
        <ele>28.805084</ele>
        <time>2020-07-28T21:32:20.124Z</time>
      </trkpt>
      <trkpt lat="50.60903" lon="3.37036">
        <ele>28.978934</ele>
        <time>2020-07-28T21:32:22.840Z</time>
      </trkpt>
      <trkpt lat="50.60877" lon="3.37037">
        <ele>29.389373</ele>
        <time>2020-07-28T21:32:29.915Z</time>
      </trkpt>
      <trkpt lat="50.60857" lon="3.3704">
        <ele>29.704762</ele>
        <time>2020-07-28T21:32:35.021Z</time>
      </trkpt>
      <trkpt lat="50.60842" lon="3.37044">
        <ele>29.945071</ele>
        <time>2020-07-28T21:32:39.396Z</time>
      </trkpt>
      <trkpt lat="50.60835" lon="3.37037">
        <ele>30.070678</ele>
        <time>2020-07-28T21:32:41.411Z</time>
      </trkpt>
      <trkpt lat="50.60818" lon="3.37041">
        <ele>30.368466</ele>
        <time>2020-07-28T21:32:45.982Z</time>
      </trkpt>
      <trkpt lat="50.60807" lon="3.37049">
        <ele>30.593592</ele>
        <time>2020-07-28T21:32:49.485Z</time>
      </trkpt>
      <trkpt lat="50.60775" lon="3.37055">
        <ele>31.165759</ele>
        <time>2020-07-28T21:32:58.121Z</time>
      </trkpt>
      <trkpt lat="50.60757" lon="3.37056">
        <ele>31.491828</ele>
        <time>2020-07-28T21:33:03.096Z</time>
      </trkpt>
      <trkpt lat="50.60713" lon="3.37055">
        <ele>32.272376</ele>
        <time>2020-07-28T21:33:15.142Z</time>
      </trkpt>
      <trkpt lat="50.60672" lon="3.37054">
        <ele>33.015249</ele>
        <time>2020-07-28T21:33:26.632Z</time>
      </trkpt>
      <trkpt lat="50.60603" lon="3.37039">
        <ele>34.360322</ele>
        <time>2020-07-28T21:33:46.022Z</time>
      </trkpt>
      <trkpt lat="50.60566" lon="3.37026">
        <ele>35.110339</ele>
        <time>2020-07-28T21:33:56.951Z</time>
      </trkpt>
      <trkpt lat="50.60447" lon="3.36987">
        <ele>37.441276</ele>
        <time>2020-07-28T21:34:30.960Z</time>
      </trkpt>
      <trkpt lat="50.60442" lon="3.36985">
        <ele>37.53892</ele>
        <time>2020-07-28T21:34:32.640Z</time>
      </trkpt>
      <trkpt lat="50.60442" lon="3.37018">
        <ele>37.915989</ele>
        <time>2020-07-28T21:34:37.047Z</time>
      </trkpt>
      <trkpt lat="50.60444" lon="3.3705">
        <ele>38.283453</ele>
        <time>2020-07-28T21:34:41.538Z</time>
      </trkpt>
      <trkpt lat="50.60447" lon="3.37076">
        <ele>38.583884</ele>
        <time>2020-07-28T21:34:45.015Z</time>
      </trkpt>
      <trkpt lat="50.60441" lon="3.37081">
        <ele>38.709201</ele>
        <time>2020-07-28T21:34:46.925Z</time>
      </trkpt>
      <trkpt lat="50.60429" lon="3.37088">
        <ele>38.94234</ele>
        <time>2020-07-28T21:34:50.563Z</time>
      </trkpt>
      <trkpt lat="50.60416" lon="3.37094">
        <ele>39.177549</ele>
        <time>2020-07-28T21:34:54.048Z</time>
      </trkpt>
      <trkpt lat="50.60251" lon="3.37324">
        <ele>42.999411</ele>
        <time>2020-07-28T21:35:54.514Z</time>
      </trkpt>
      <trkpt lat="50.60245" lon="3.37336">
        <ele>43.158</ele>
        <time>2020-07-28T21:35:56.928Z</time>
      </trkpt>
      <trkpt lat="50.60109" lon="3.3754">
        <ele>45.592809</ele>
        <time>2020-07-28T21:36:44.082Z</time>
      </trkpt>
      <trkpt lat="50.60105" lon="3.37547">
        <ele>45.658747</ele>
        <time>2020-07-28T21:36:45.762Z</time>
      </trkpt>
      <trkpt lat="50.60102" lon="3.37544">
        <ele>45.705073</ele>
        <time>2020-07-28T21:36:46.742Z</time>
      </trkpt>
      <trkpt lat="50.60098" lon="3.37544">
        <ele>45.751863</ele>
        <time>2020-07-28T21:36:47.664Z</time>
      </trkpt>
      <trkpt lat="50.60094" lon="3.37547">
        <ele>45.798827</ele>
        <time>2020-07-28T21:36:48.644Z</time>
      </trkpt>
      <trkpt lat="50.60092" lon="3.37551">
        <ele>45.838688</ele>
        <time>2020-07-28T21:36:49.405Z</time>
      </trkpt>
      <trkpt lat="50.60091" lon="3.37561">
        <ele>45.91647</ele>
        <time>2020-07-28T21:36:50.937Z</time>
      </trkpt>
      <trkpt lat="50.60093" lon="3.37566">
        <ele>45.955692</ele>
        <time>2020-07-28T21:36:51.694Z</time>
      </trkpt>
      <trkpt lat="50.60085" lon="3.37571">
        <ele>46.053646</ele>
        <time>2020-07-28T21:36:54.159Z</time>
      </trkpt>
      <trkpt lat="50.59961" lon="3.37761">
        <ele>47.987291</ele>
        <time>2020-07-28T21:37:37.171Z</time>
      </trkpt>
      <trkpt lat="50.59956" lon="3.37765">
        <ele>48.032274</ele>
        <time>2020-07-28T21:37:38.569Z</time>
      </trkpt>
      <trkpt lat="50.59948" lon="3.37772">
        <ele>48.122949</ele>
        <time>2020-07-28T21:37:40.157Z</time>
      </trkpt>
      <trkpt lat="50.59829" lon="3.37872">
        <ele>49.333004</ele>
        <time>2020-07-28T21:38:05.092Z</time>
      </trkpt>
      <trkpt lat="50.59825" lon="3.37876">
        <ele>49.360324</ele>
        <time>2020-07-28T21:38:06.010Z</time>
      </trkpt>
      <trkpt lat="50.5979" lon="3.37915">
        <ele>49.588564</ele>
        <time>2020-07-28T21:38:13.368Z</time>
      </trkpt>
      <trkpt lat="50.59718" lon="3.38002">
        <ele>50.07501</ele>
        <time>2020-07-28T21:38:28.927Z</time>
      </trkpt>
      <trkpt lat="50.5971" lon="3.38016">
        <ele>50.136406</ele>
        <time>2020-07-28T21:38:31.078Z</time>
      </trkpt>
      <trkpt lat="50.59714" lon="3.3802">
        <ele>50.160943</ele>
        <time>2020-07-28T21:38:31.807Z</time>
      </trkpt>
      <trkpt lat="50.59746" lon="3.3805">
        <ele>50.132618</ele>
        <time>2020-07-28T21:38:37.878Z</time>
      </trkpt>
      <trkpt lat="50.59869" lon="3.38139">
        <ele>49.29226</ele>
        <time>2020-07-28T21:38:54.964Z</time>
      </trkpt>
      <trkpt lat="50.59856" lon="3.38166">
        <ele>49.157891</ele>
        <time>2020-07-28T21:38:57.500Z</time>
      </trkpt>
      <trkpt lat="50.59818" lon="3.38229">
        <ele>48.460369</ele>
        <time>2020-07-28T21:39:04.138Z</time>
      </trkpt>
      <trkpt lat="50.59812" lon="3.38236">
        <ele>48.359928</ele>
        <time>2020-07-28T21:39:05.034Z</time>
      </trkpt>
      <trkpt lat="50.59753" lon="3.38333">
        <ele>47.248864</ele>
        <time>2020-07-28T21:39:14.941Z</time>
      </trkpt>
      <trkpt lat="50.59746" lon="3.38349">
        <ele>47.082931</ele>
        <time>2020-07-28T21:39:16.420Z</time>
      </trkpt>
      <trkpt lat="50.597" lon="3.38465">
        <ele>45.598498</ele>
        <time>2020-07-28T21:39:26.516Z</time>
      </trkpt>
      <trkpt lat="50.59676" lon="3.3853">
        <ele>44.713531</ele>
        <time>2020-07-28T21:39:31.764Z</time>
      </trkpt>
      <trkpt lat="50.59646" lon="3.38612">
        <ele>43.590627</ele>
        <time>2020-07-28T21:39:38.312Z</time>
      </trkpt>
      <trkpt lat="50.5962" lon="3.38646">
        <ele>42.816862</ele>
        <time>2020-07-28T21:39:41.920Z</time>
      </trkpt>
      <trkpt lat="50.59572" lon="3.38708">
        <ele>41.293964</ele>
        <time>2020-07-28T21:39:48.535Z</time>
      </trkpt>
      <trkpt lat="50.5948" lon="3.38826">
        <ele>38.360829</ele>
        <time>2020-07-28T21:40:01.111Z</time>
      </trkpt>
      <trkpt lat="50.59451" lon="3.38861">
        <ele>37.408431</ele>
        <time>2020-07-28T21:40:05.000Z</time>
      </trkpt>
      <trkpt lat="50.59418" lon="3.38902">
        <ele>36.319145</ele>
        <time>2020-07-28T21:40:09.442Z</time>
      </trkpt>
      <trkpt lat="50.59405" lon="3.38917">
        <ele>35.889762</ele>
        <time>2020-07-28T21:40:11.181Z</time>
      </trkpt>
      <trkpt lat="50.59389" lon="3.38926">
        <ele>35.46004</ele>
        <time>2020-07-28T21:40:12.898Z</time>
      </trkpt>
      <trkpt lat="50.59362" lon="3.38944">
        <ele>34.69815</ele>
        <time>2020-07-28T21:40:15.944Z</time>
      </trkpt>
      <trkpt lat="50.59229" lon="3.39027">
        <ele>30.792379</ele>
        <time>2020-07-28T21:40:30.729Z</time>
      </trkpt>
      <trkpt lat="50.59092" lon="3.39122">
        <ele>27.770138</ele>
        <time>2020-07-28T21:40:46.825Z</time>
      </trkpt>
      <trkpt lat="50.58909" lon="3.39304">
        <ele>25.326098</ele>
        <time>2020-07-28T21:41:13.401Z</time>
      </trkpt>
      <trkpt lat="50.58904" lon="3.39309">
        <ele>25.278374</ele>
        <time>2020-07-28T21:41:14.408Z</time>
      </trkpt>
      <trkpt lat="50.58896" lon="3.39297">
        <ele>25.189091</ele>
        <time>2020-07-28T21:41:15.752Z</time>
      </trkpt>
      <trkpt lat="50.58865" lon="3.39224">
        <ele>24.967679</ele>
        <time>2020-07-28T21:41:23.336Z</time>
      </trkpt>
      <trkpt lat="50.58841" lon="3.39128">
        <ele>24.947211</ele>
        <time>2020-07-28T21:41:32.785Z</time>
      </trkpt>
      <trkpt lat="50.58827" lon="3.39089">
        <ele>24.938419</ele>
        <time>2020-07-28T21:41:37.027Z</time>
      </trkpt>
      <trkpt lat="50.58778" lon="3.38973">
        <ele>25.063357</ele>
        <time>2020-07-28T21:41:51.244Z</time>
      </trkpt>
      <trkpt lat="50.58706" lon="3.388">
        <ele>25.654471</ele>
        <time>2020-07-28T21:42:13.561Z</time>
      </trkpt>
      <trkpt lat="50.58705" lon="3.38797">
        <ele>25.666076</ele>
        <time>2020-07-28T21:42:14.228Z</time>
      </trkpt>
      <trkpt lat="50.58696" lon="3.38771">
        <ele>25.738797</ele>
        <time>2020-07-28T21:42:17.115Z</time>
      </trkpt>
      <trkpt lat="50.58693" lon="3.3876">
        <ele>25.754472</ele>
        <time>2020-07-28T21:42:18.300Z</time>
      </trkpt>
      <trkpt lat="50.58686" lon="3.3874">
        <ele>25.786259</ele>
        <time>2020-07-28T21:42:20.816Z</time>
      </trkpt>
      <trkpt lat="50.58676" lon="3.38696">
        <ele>25.849647</ele>
        <time>2020-07-28T21:42:25.487Z</time>
      </trkpt>
      <trkpt lat="50.58672" lon="3.38678">
        <ele>25.87536</ele>
        <time>2020-07-28T21:42:27.423Z</time>
      </trkpt>
      <trkpt lat="50.58611" lon="3.38386">
        <ele>26.311716</ele>
        <time>2020-07-28T21:42:57.105Z</time>
      </trkpt>
      <trkpt lat="50.58608" lon="3.38371">
        <ele>26.334907</ele>
        <time>2020-07-28T21:42:58.711Z</time>
      </trkpt>
      <trkpt lat="50.58589" lon="3.38281">
        <ele>26.477924</ele>
        <time>2020-07-28T21:43:08.484Z</time>
      </trkpt>
      <trkpt lat="50.58588" lon="3.38273">
        <ele>26.490648</ele>
        <time>2020-07-28T21:43:09.491Z</time>
      </trkpt>
      <trkpt lat="50.58584" lon="3.3822">
        <ele>26.589554</ele>
        <time>2020-07-28T21:43:15.082Z</time>
      </trkpt>
      <trkpt lat="50.58583" lon="3.38172">
        <ele>26.706071</ele>
        <time>2020-07-28T21:43:20.164Z</time>
      </trkpt>
      <trkpt lat="50.58586" lon="3.38134">
        <ele>26.798166</ele>
        <time>2020-07-28T21:43:24.338Z</time>
      </trkpt>
      <trkpt lat="50.58584" lon="3.38105">
        <ele>26.868685</ele>
        <time>2020-07-28T21:43:27.408Z</time>
      </trkpt>
      <trkpt lat="50.58581" lon="3.38078">
        <ele>26.934856</ele>
        <time>2020-07-28T21:43:30.379Z</time>
      </trkpt>
      <trkpt lat="50.58545" lon="3.37889">
        <ele>27.2747</ele>
        <time>2020-07-28T21:43:50.518Z</time>
      </trkpt>
      <trkpt lat="50.58519" lon="3.37832">
        <ele>27.316677</ele>
        <time>2020-07-28T21:43:57.109Z</time>
      </trkpt>
      <trkpt lat="50.58426" lon="3.37692">
        <ele>27.450361</ele>
        <time>2020-07-28T21:44:16.071Z</time>
      </trkpt>
      <trkpt lat="50.58403" lon="3.37641">
        <ele>27.498147</ele>
        <time>2020-07-28T21:44:22.057Z</time>
      </trkpt>
      <trkpt lat="50.58381" lon="3.37578">
        <ele>27.552471</ele>
        <time>2020-07-28T21:44:29.046Z</time>
      </trkpt>
      <trkpt lat="50.5833" lon="3.3739">
        <ele>27.97859</ele>
        <time>2020-07-28T21:44:50.145Z</time>
      </trkpt>
      <trkpt lat="50.58326" lon="3.37377">
        <ele>28.019504</ele>
        <time>2020-07-28T21:44:51.630Z</time>
      </trkpt>
      <trkpt lat="50.58315" lon="3.37352">
        <ele>28.109195</ele>
        <time>2020-07-28T21:44:54.837Z</time>
      </trkpt>
      <trkpt lat="50.58294" lon="3.37303">
        <ele>28.286051</ele>
        <time>2020-07-28T21:45:01.204Z</time>
      </trkpt>
      <trkpt lat="50.58268" lon="3.37241">
        <ele>28.545051</ele>
        <time>2020-07-28T21:45:09.546Z</time>
      </trkpt>
      <trkpt lat="50.58213" lon="3.37118">
        <ele>29.332642</ele>
        <time>2020-07-28T21:45:26.413Z</time>
      </trkpt>
      <trkpt lat="50.58206" lon="3.37097">
        <ele>29.453869</ele>
        <time>2020-07-28T21:45:29.107Z</time>
      </trkpt>
      <trkpt lat="50.5819" lon="3.37044">
        <ele>29.761827</ele>
        <time>2020-07-28T21:45:35.733Z</time>
      </trkpt>
      <trkpt lat="50.58139" lon="3.36931">
        <ele>31.09128</ele>
        <time>2020-07-28T21:45:53.324Z</time>
      </trkpt>
      <trkpt lat="50.58091" lon="3.36843">
        <ele>32.35492</ele>
        <time>2020-07-28T21:46:09.662Z</time>
      </trkpt>
      <trkpt lat="50.58077" lon="3.36845">
        <ele>32.595446</ele>
        <time>2020-07-28T21:46:13.224Z</time>
      </trkpt>
      <trkpt lat="50.58058" lon="3.36865">
        <ele>32.999768</ele>
        <time>2020-07-28T21:46:18.363Z</time>
      </trkpt>
      <trkpt lat="50.57998" lon="3.36973">
        <ele>34.776736</ele>
        <time>2020-07-28T21:46:40.721Z</time>
      </trkpt>
      <trkpt lat="50.57914" lon="3.37019">
        <ele>36.502392</ele>
        <time>2020-07-28T21:47:00.379Z</time>
      </trkpt>
      <trkpt lat="50.57825" lon="3.37047">
        <ele>37.354882</ele>
        <time>2020-07-28T21:47:17.567Z</time>
      </trkpt>
      <trkpt lat="50.57811" lon="3.37058">
        <ele>37.501399</ele>
        <time>2020-07-28T21:47:20.163Z</time>
      </trkpt>
      <trkpt lat="50.5777" lon="3.37089">
        <ele>37.910609</ele>
        <time>2020-07-28T21:47:27.818Z</time>
      </trkpt>
      <trkpt lat="50.57731" lon="3.3712">
        <ele>38.401</ele>
        <time>2020-07-28T21:47:35.579Z</time>
      </trkpt>
      <trkpt lat="50.5769" lon="3.37121">
        <ele>39.057222</ele>
        <time>2020-07-28T21:47:43.185Z</time>
      </trkpt>
      <trkpt lat="50.5765" lon="3.37084">
        <ele>39.783727</ele>
        <time>2020-07-28T21:47:52.355Z</time>
      </trkpt>
      <trkpt lat="50.57638" lon="3.37069">
        <ele>40.0365</ele>
        <time>2020-07-28T21:47:55.946Z</time>
      </trkpt>
      <trkpt lat="50.57559" lon="3.3697">
        <ele>41.891231</ele>
        <time>2020-07-28T21:48:20.504Z</time>
      </trkpt>
      <trkpt lat="50.57434" lon="3.36974">
        <ele>44.763593</ele>
        <time>2020-07-28T21:48:51.896Z</time>
      </trkpt>
      <trkpt lat="50.56873" lon="3.37316">
        <ele>53.817286</ele>
        <time>2020-07-28T21:50:54.118Z</time>
      </trkpt>
      <trkpt lat="50.56851" lon="3.37329">
        <ele>54.322765</ele>
        <time>2020-07-28T21:51:00.636Z</time>
      </trkpt>
      <trkpt lat="50.56804" lon="3.37343">
        <ele>55.345539</ele>
        <time>2020-07-28T21:51:11.754Z</time>
      </trkpt>
      <trkpt lat="50.56673" lon="3.37296">
        <ele>58.160336</ele>
        <time>2020-07-28T21:51:45.284Z</time>
      </trkpt>
      <trkpt lat="50.5634" lon="3.37232">
        <ele>63.754713</ele>
        <time>2020-07-28T21:52:58.100Z</time>
      </trkpt>
      <trkpt lat="50.56302" lon="3.37242">
        <ele>64.01081</ele>
        <time>2020-07-28T21:53:04.936Z</time>
      </trkpt>
      <trkpt lat="50.56298" lon="3.37244">
        <ele>64.035067</ele>
        <time>2020-07-28T21:53:05.594Z</time>
      </trkpt>
      <trkpt lat="50.56289" lon="3.37265">
        <ele>64.140384</ele>
        <time>2020-07-28T21:53:08.179Z</time>
      </trkpt>
      <trkpt lat="50.56281" lon="3.37281">
        <ele>64.224312</ele>
        <time>2020-07-28T21:53:10.350Z</time>
      </trkpt>
      <trkpt lat="50.56275" lon="3.37295">
        <ele>64.296884</ele>
        <time>2020-07-28T21:53:12.006Z</time>
      </trkpt>
      <trkpt lat="50.56239" lon="3.37368">
        <ele>64.59911</ele>
        <time>2020-07-28T21:53:20.801Z</time>
      </trkpt>
      <trkpt lat="50.56222" lon="3.37356">
        <ele>64.514908</ele>
        <time>2020-07-28T21:53:24.314Z</time>
      </trkpt>
      <trkpt lat="50.56213" lon="3.37334">
        <ele>64.439345</ele>
        <time>2020-07-28T21:53:27.659Z</time>
      </trkpt>
      <trkpt lat="50.56206" lon="3.3727">
        <ele>64.253232</ele>
        <time>2020-07-28T21:53:35.494Z</time>
      </trkpt>
      <trkpt lat="50.56187" lon="3.37229">
        <ele>64.108745</ele>
        <time>2020-07-28T21:53:41.525Z</time>
      </trkpt>
      <trkpt lat="50.55917" lon="3.36852">
        <ele>60.136718</ele>
        <time>2020-07-28T21:54:46.239Z</time>
      </trkpt>
      <trkpt lat="50.55908" lon="3.36848">
        <ele>59.961512</ele>
        <time>2020-07-28T21:54:47.628Z</time>
      </trkpt>
      <trkpt lat="50.559" lon="3.36847">
        <ele>59.798428</ele>
        <time>2020-07-28T21:54:48.928Z</time>
      </trkpt>
      <trkpt lat="50.55896" lon="3.36853">
        <ele>59.700175</ele>
        <time>2020-07-28T21:54:49.526Z</time>
      </trkpt>
      <trkpt lat="50.55836" lon="3.36941">
        <ele>56.809005</ele>
        <time>2020-07-28T21:55:00.969Z</time>
      </trkpt>
      <trkpt lat="50.55792" lon="3.36984">
        <ele>54.245238</ele>
        <time>2020-07-28T21:55:07.966Z</time>
      </trkpt>
      <trkpt lat="50.55773" lon="3.36989">
        <ele>53.337176</ele>
        <time>2020-07-28T21:55:10.330Z</time>
      </trkpt>
      <trkpt lat="50.557" lon="3.36994">
        <ele>49.780992</ele>
        <time>2020-07-28T21:55:20.280Z</time>
      </trkpt>
      <trkpt lat="50.5568" lon="3.36995">
        <ele>49.011332</ele>
        <time>2020-07-28T21:55:22.986Z</time>
      </trkpt>
      <trkpt lat="50.55552" lon="3.36999">
        <ele>44.016119</ele>
        <time>2020-07-28T21:55:41.016Z</time>
      </trkpt>
      <trkpt lat="50.55493" lon="3.37001">
        <ele>42.534786</ele>
        <time>2020-07-28T21:55:49.982Z</time>
      </trkpt>
      <trkpt lat="50.55452" lon="3.36981">
        <ele>41.896417</ele>
        <time>2020-07-28T21:55:56.671Z</time>
      </trkpt>
      <trkpt lat="50.55396" lon="3.36927">
        <ele>40.898481</ele>
        <time>2020-07-28T21:56:07.755Z</time>
      </trkpt>
      <trkpt lat="50.55293" lon="3.36855">
        <ele>40.518207</ele>
        <time>2020-07-28T21:56:29.863Z</time>
      </trkpt>
      <trkpt lat="50.55172" lon="3.36717">
        <ele>40.751345</ele>
        <time>2020-07-28T21:57:04.170Z</time>
      </trkpt>
      <trkpt lat="50.55154" lon="3.36706">
        <ele>40.739282</ele>
        <time>2020-07-28T21:57:08.513Z</time>
      </trkpt>
      <trkpt lat="50.55108" lon="3.36678">
        <ele>40.7083</ele>
        <time>2020-07-28T21:57:18.572Z</time>
      </trkpt>
      <trkpt lat="50.55073" lon="3.36656">
        <ele>40.684964</ele>
        <time>2020-07-28T21:57:25.769Z</time>
      </trkpt>
      <trkpt lat="50.54849" lon="3.36518">
        <ele>38.261443</ele>
        <time>2020-07-28T21:58:06.697Z</time>
      </trkpt>
      <trkpt lat="50.54799" lon="3.36504">
        <ele>37.641248</ele>
        <time>2020-07-28T21:58:15.171Z</time>
      </trkpt>
      <trkpt lat="50.54791" lon="3.365">
        <ele>37.538389</ele>
        <time>2020-07-28T21:58:16.529Z</time>
      </trkpt>
      <trkpt lat="50.54787" lon="3.36512">
        <ele>37.441136</ele>
        <time>2020-07-28T21:58:17.400Z</time>
      </trkpt>
      <trkpt lat="50.54755" lon="3.36616">
        <ele>36.544035</ele>
        <time>2020-07-28T21:58:26.127Z</time>
      </trkpt>
      <trkpt lat="50.54743" lon="3.36657">
        <ele>36.551918</ele>
        <time>2020-07-28T21:58:29.883Z</time>
      </trkpt>
      <trkpt lat="50.54735" lon="3.36696">
        <ele>36.658586</ele>
        <time>2020-07-28T21:58:33.738Z</time>
      </trkpt>
      <trkpt lat="50.54734" lon="3.36706">
        <ele>36.684739</ele>
        <time>2020-07-28T21:58:34.565Z</time>
      </trkpt>
      <trkpt lat="50.54738" lon="3.36717">
        <ele>36.718365</ele>
        <time>2020-07-28T21:58:35.611Z</time>
      </trkpt>
      <trkpt lat="50.5475" lon="3.36749">
        <ele>36.812956</ele>
        <time>2020-07-28T21:58:39.480Z</time>
      </trkpt>
      <trkpt lat="50.54752" lon="3.36795">
        <ele>36.935901</ele>
        <time>2020-07-28T21:58:45.385Z</time>
      </trkpt>
      <trkpt lat="50.54753" lon="3.36816">
        <ele>36.991075</ele>
        <time>2020-07-28T21:58:47.466Z</time>
      </trkpt>
      <trkpt lat="50.54755" lon="3.36918">
        <ele>37.287692</ele>
        <time>2020-07-28T21:59:00.347Z</time>
      </trkpt>
      <trkpt lat="50.5476" lon="3.36985">
        <ele>37.568713</ele>
        <time>2020-07-28T21:59:08.645Z</time>
      </trkpt>
      <trkpt lat="50.54763" lon="3.37012">
        <ele>37.679496</ele>
        <time>2020-07-28T21:59:12.618Z</time>
      </trkpt>
      <trkpt lat="50.54805" lon="3.37182">
        <ele>38.248692</ele>
        <time>2020-07-28T21:59:31.849Z</time>
      </trkpt>
      <trkpt lat="50.54822" lon="3.37263">
        <ele>37.52713</ele>
        <time>2020-07-28T21:59:38.536Z</time>
      </trkpt>
      <trkpt lat="50.54845" lon="3.37372">
        <ele>36.569572</ele>
        <time>2020-07-28T21:59:46.651Z</time>
      </trkpt>
      <trkpt lat="50.54848" lon="3.37387">
        <ele>36.438255</ele>
        <time>2020-07-28T21:59:47.693Z</time>
      </trkpt>
      <trkpt lat="50.54871" lon="3.37486">
        <ele>35.495056</ele>
        <time>2020-07-28T21:59:55.257Z</time>
      </trkpt>
      <trkpt lat="50.54876" lon="3.37525">
        <ele>35.116192</ele>
        <time>2020-07-28T21:59:58.173Z</time>
      </trkpt>
      <trkpt lat="50.54875" lon="3.37542">
        <ele>34.949285</ele>
        <time>2020-07-28T21:59:59.407Z</time>
      </trkpt>
      <trkpt lat="50.54872" lon="3.37565">
        <ele>34.731273</ele>
        <time>2020-07-28T22:00:01.074Z</time>
      </trkpt>
      <trkpt lat="50.54859" lon="3.37594">
        <ele>34.396608</ele>
        <time>2020-07-28T22:00:03.628Z</time>
      </trkpt>
      <trkpt lat="50.54832" lon="3.37629">
        <ele>33.870846</ele>
        <time>2020-07-28T22:00:07.760Z</time>
      </trkpt>
      <trkpt lat="50.54795" lon="3.37639">
        <ele>33.311841</ele>
        <time>2020-07-28T22:00:12.233Z</time>
      </trkpt>
      <trkpt lat="50.54777" lon="3.37652">
        <ele>33.105592</ele>
        <time>2020-07-28T22:00:14.714Z</time>
      </trkpt>
      <trkpt lat="50.5477" lon="3.37668">
        <ele>32.98354</ele>
        <time>2020-07-28T22:00:16.179Z</time>
      </trkpt>
      <trkpt lat="50.54775" lon="3.37799">
        <ele>32.147689</ele>
        <time>2020-07-28T22:00:26.413Z</time>
      </trkpt>
      <trkpt lat="50.54776" lon="3.37823">
        <ele>31.988705</ele>
        <time>2020-07-28T22:00:28.369Z</time>
      </trkpt>
      <trkpt lat="50.54778" lon="3.37879">
        <ele>31.636216</ele>
        <time>2020-07-28T22:00:32.663Z</time>
      </trkpt>
      <trkpt lat="50.548" lon="3.38364">
        <ele>29.930312</ele>
        <time>2020-07-28T22:01:12.849Z</time>
      </trkpt>
      <trkpt lat="50.54809" lon="3.38648">
        <ele>30.27156</ele>
        <time>2020-07-28T22:01:40.672Z</time>
      </trkpt>
      <trkpt lat="50.54809" lon="3.38651">
        <ele>30.282273</ele>
        <time>2020-07-28T22:01:41.184Z</time>
      </trkpt>
      <trkpt lat="50.54797" lon="3.38748">
        <ele>30.590848</ele>
        <time>2020-07-28T22:01:52.855Z</time>
      </trkpt>
      <trkpt lat="50.54781" lon="3.38881">
        <ele>31.439993</ele>
        <time>2020-07-28T22:02:09.957Z</time>
      </trkpt>
      <trkpt lat="50.54781" lon="3.38883">
        <ele>31.456031</ele>
        <time>2020-07-28T22:02:10.338Z</time>
      </trkpt>
      <trkpt lat="50.54779" lon="3.38893">
        <ele>31.518945</ele>
        <time>2020-07-28T22:02:11.571Z</time>
      </trkpt>
      <trkpt lat="50.54777" lon="3.38912">
        <ele>31.640251</ele>
        <time>2020-07-28T22:02:13.946Z</time>
      </trkpt>
      <trkpt lat="50.54774" lon="3.38926">
        <ele>31.737342</ele>
        <time>2020-07-28T22:02:15.825Z</time>
      </trkpt>
      <trkpt lat="50.54767" lon="3.38926">
        <ele>31.803955</ele>
        <time>2020-07-28T22:02:17.225Z</time>
      </trkpt>
      <trkpt lat="50.5468" lon="3.38915">
        <ele>32.371983</ele>
        <time>2020-07-28T22:02:32.659Z</time>
      </trkpt>
      <trkpt lat="50.54657" lon="3.38912">
        <ele>32.387286</ele>
        <time>2020-07-28T22:02:36.503Z</time>
      </trkpt>
      <trkpt lat="50.54608" lon="3.38907">
        <ele>32.420249</ele>
        <time>2020-07-28T22:02:44.042Z</time>
      </trkpt>
      <trkpt lat="50.54599" lon="3.38901">
        <ele>32.426868</ele>
        <time>2020-07-28T22:02:45.475Z</time>
      </trkpt>
      <trkpt lat="50.54594" lon="3.38895">
        <ele>32.431497</ele>
        <time>2020-07-28T22:02:46.441Z</time>
      </trkpt>
      <trkpt lat="50.54582" lon="3.38894">
        <ele>32.439377</ele>
        <time>2020-07-28T22:02:47.956Z</time>
      </trkpt>
      <trkpt lat="50.5453" lon="3.38864">
        <ele>32.426391</ele>
        <time>2020-07-28T22:02:55.363Z</time>
      </trkpt>
      <trkpt lat="50.5449" lon="3.38839">
        <ele>32.179082</ele>
        <time>2020-07-28T22:03:00.985Z</time>
      </trkpt>
      <trkpt lat="50.54449" lon="3.38806">
        <ele>31.917394</ele>
        <time>2020-07-28T22:03:06.853Z</time>
      </trkpt>
      <trkpt lat="50.54439" lon="3.38799">
        <ele>31.855829</ele>
        <time>2020-07-28T22:03:08.289Z</time>
      </trkpt>
      <trkpt lat="50.54426" lon="3.3879">
        <ele>31.776909</ele>
        <time>2020-07-28T22:03:10.194Z</time>
      </trkpt>
      <trkpt lat="50.54392" lon="3.38764">
        <ele>31.559924</ele>
        <time>2020-07-28T22:03:15.372Z</time>
      </trkpt>
      <trkpt lat="50.54351" lon="3.38735">
        <ele>31.164432</ele>
        <time>2020-07-28T22:03:21.224Z</time>
      </trkpt>
      <trkpt lat="50.54342" lon="3.38722">
        <ele>31.021046</ele>
        <time>2020-07-28T22:03:22.790Z</time>
      </trkpt>
      <trkpt lat="50.54341" lon="3.3872">
        <ele>31.00311</ele>
        <time>2020-07-28T22:03:23.024Z</time>
      </trkpt>
      <trkpt lat="50.5432" lon="3.38682">
        <ele>30.632476</ele>
        <time>2020-07-28T22:03:26.878Z</time>
      </trkpt>
      <trkpt lat="50.54305" lon="3.38652">
        <ele>30.348771</ele>
        <time>2020-07-28T22:03:29.942Z</time>
      </trkpt>
      <trkpt lat="50.54269" lon="3.38651">
        <ele>29.936391</ele>
        <time>2020-07-28T22:03:34.084Z</time>
      </trkpt>
      <trkpt lat="50.54244" lon="3.38657">
        <ele>29.643079</ele>
        <time>2020-07-28T22:03:37.046Z</time>
      </trkpt>
      <trkpt lat="50.54236" lon="3.38658">
        <ele>29.549901</ele>
        <time>2020-07-28T22:03:37.925Z</time>
      </trkpt>
      <trkpt lat="50.5423" lon="3.38664">
        <ele>29.473022</ele>
        <time>2020-07-28T22:03:38.654Z</time>
      </trkpt>
      <trkpt lat="50.54229" lon="3.38664">
        <ele>29.467563</ele>
        <time>2020-07-28T22:03:38.720Z</time>
      </trkpt>
      <trkpt lat="50.54225" lon="3.38668">
        <ele>29.40804</ele>
        <time>2020-07-28T22:03:39.256Z</time>
      </trkpt>
      <trkpt lat="50.54212" lon="3.38685">
        <ele>29.169949</ele>
        <time>2020-07-28T22:03:41.368Z</time>
      </trkpt>
      <trkpt lat="50.54202" lon="3.38702">
        <ele>28.954261</ele>
        <time>2020-07-28T22:03:42.981Z</time>
      </trkpt>
      <trkpt lat="50.54197" lon="3.3871">
        <ele>28.846075</ele>
        <time>2020-07-28T22:03:43.769Z</time>
      </trkpt>
      <trkpt lat="50.54158" lon="3.38766">
        <ele>28.086087</ele>
        <time>2020-07-28T22:03:49.863Z</time>
      </trkpt>
      <trkpt lat="50.5415" lon="3.38777">
        <ele>27.931533</ele>
        <time>2020-07-28T22:03:51.001Z</time>
      </trkpt>
      <trkpt lat="50.54137" lon="3.38792">
        <ele>27.694435</ele>
        <time>2020-07-28T22:03:53.679Z</time>
      </trkpt>
      <trkpt lat="50.54101" lon="3.38814">
        <ele>27.124613</ele>
        <time>2020-07-28T22:04:00.114Z</time>
      </trkpt>
      <trkpt lat="50.54047" lon="3.38819">
        <ele>26.525644</ele>
        <time>2020-07-28T22:04:09.382Z</time>
      </trkpt>
      <trkpt lat="50.53964" lon="3.38819">
        <ele>25.87509</ele>
        <time>2020-07-28T22:04:24.374Z</time>
      </trkpt>
      <trkpt lat="50.53881" lon="3.38822">
        <ele>25.297911</ele>
        <time>2020-07-28T22:04:39.559Z</time>
      </trkpt>
      <trkpt lat="50.53866" lon="3.38823">
        <ele>25.258537</ele>
        <time>2020-07-28T22:04:42.105Z</time>
      </trkpt>
      <trkpt lat="50.53794" lon="3.38812">
        <ele>25.058662</ele>
        <time>2020-07-28T22:04:55.762Z</time>
      </trkpt>
      <trkpt lat="50.53776" lon="3.38807">
        <ele>25.007181</ele>
        <time>2020-07-28T22:04:59.429Z</time>
      </trkpt>
      <trkpt lat="50.5372" lon="3.38767">
        <ele>24.856503</ele>
        <time>2020-07-28T22:05:11.575Z</time>
      </trkpt>
      <trkpt lat="50.53717" lon="3.38765">
        <ele>24.879381</ele>
        <time>2020-07-28T22:05:12.217Z</time>
      </trkpt>
      <trkpt lat="50.53704" lon="3.38755">
        <ele>24.974355</ele>
        <time>2020-07-28T22:05:15.285Z</time>
      </trkpt>
      <trkpt lat="50.53668" lon="3.38721">
        <ele>25.257583</ele>
        <time>2020-07-28T22:05:24.258Z</time>
      </trkpt>
      <trkpt lat="50.53575" lon="3.38659">
        <ele>25.941426</ele>
        <time>2020-07-28T22:05:48.315Z</time>
      </trkpt>
      <trkpt lat="50.53554" lon="3.38653">
        <ele>26.118464</ele>
        <time>2020-07-28T22:05:53.735Z</time>
      </trkpt>
      <trkpt lat="50.53532" lon="3.38657">
        <ele>26.414355</ele>
        <time>2020-07-28T22:05:59.182Z</time>
      </trkpt>
      <trkpt lat="50.53513" lon="3.38664">
        <ele>26.676326</ele>
        <time>2020-07-28T22:06:04.224Z</time>
      </trkpt>
      <trkpt lat="50.53502" lon="3.3867">
        <ele>26.833773</ele>
        <time>2020-07-28T22:06:06.538Z</time>
      </trkpt>
      <trkpt lat="50.53406" lon="3.38717">
        <ele>28.212561</ele>
        <time>2020-07-28T22:06:27.551Z</time>
      </trkpt>
      <trkpt lat="50.53359" lon="3.38741">
        <ele>28.827048</ele>
        <time>2020-07-28T22:06:37.821Z</time>
      </trkpt>
      <trkpt lat="50.53149" lon="3.38844">
        <ele>31.15135</ele>
        <time>2020-07-28T22:07:19.692Z</time>
      </trkpt>
      <trkpt lat="50.53107" lon="3.38864">
        <ele>31.519649</ele>
        <time>2020-07-28T22:07:27.528Z</time>
      </trkpt>
      <trkpt lat="50.53091" lon="3.3887">
        <ele>31.653041</ele>
        <time>2020-07-28T22:07:30.326Z</time>
      </trkpt>
      <trkpt lat="50.53074" lon="3.38873">
        <ele>31.79535</ele>
        <time>2020-07-28T22:07:33.286Z</time>
      </trkpt>
      <trkpt lat="50.53068" lon="3.38875">
        <ele>31.85095</ele>
        <time>2020-07-28T22:07:34.459Z</time>
      </trkpt>
      <trkpt lat="50.53044" lon="3.38875">
        <ele>32.047162</ele>
        <time>2020-07-28T22:07:38.543Z</time>
      </trkpt>
      <trkpt lat="50.52915" lon="3.38858">
        <ele>33.072562</ele>
        <time>2020-07-28T22:08:02.196Z</time>
      </trkpt>
      <trkpt lat="50.52853" lon="3.3885">
        <ele>33.556141</ele>
        <time>2020-07-28T22:08:13.060Z</time>
      </trkpt>
      <trkpt lat="50.52848" lon="3.3885">
        <ele>33.593314</ele>
        <time>2020-07-28T22:08:14.247Z</time>
      </trkpt>
      <trkpt lat="50.52843" lon="3.38849">
        <ele>33.626391</ele>
        <time>2020-07-28T22:08:15.170Z</time>
      </trkpt>
      <trkpt lat="50.52811" lon="3.38845">
        <ele>33.841831</ele>
        <time>2020-07-28T22:08:20.652Z</time>
      </trkpt>
      <trkpt lat="50.52782" lon="3.38841">
        <ele>34.037543</ele>
        <time>2020-07-28T22:08:25.414Z</time>
      </trkpt>
      <trkpt lat="50.52779" lon="3.38841">
        <ele>34.054417</ele>
        <time>2020-07-28T22:08:25.911Z</time>
      </trkpt>
      <trkpt lat="50.52738" lon="3.38835">
        <ele>34.333714</ele>
        <time>2020-07-28T22:08:33.136Z</time>
      </trkpt>
      <trkpt lat="50.52719" lon="3.38832">
        <ele>34.460056</ele>
        <time>2020-07-28T22:08:36.369Z</time>
      </trkpt>
      <trkpt lat="50.52702" lon="3.38829">
        <ele>34.577339</ele>
        <time>2020-07-28T22:08:39.659Z</time>
      </trkpt>
      <trkpt lat="50.5267" lon="3.38821">
        <ele>34.829055</ele>
        <time>2020-07-28T22:08:45.331Z</time>
      </trkpt>
      <trkpt lat="50.52631" lon="3.38811">
        <ele>35.206637</ele>
        <time>2020-07-28T22:08:52.226Z</time>
      </trkpt>
      <trkpt lat="50.52599" lon="3.38802">
        <ele>35.520775</ele>
        <time>2020-07-28T22:08:58.168Z</time>
      </trkpt>
      <trkpt lat="50.52565" lon="3.38793">
        <ele>35.86025</ele>
        <time>2020-07-28T22:09:04.735Z</time>
      </trkpt>
      <trkpt lat="50.52443" lon="3.38762">
        <ele>37.228845</ele>
        <time>2020-07-28T22:09:29.192Z</time>
      </trkpt>
      <trkpt lat="50.52387" lon="3.38745">
        <ele>37.935113</ele>
        <time>2020-07-28T22:09:40.637Z</time>
      </trkpt>
      <trkpt lat="50.52371" lon="3.38739">
        <ele>38.14552</ele>
        <time>2020-07-28T22:09:43.921Z</time>
      </trkpt>
      <trkpt lat="50.52365" lon="3.38739">
        <ele>38.214504</ele>
        <time>2020-07-28T22:09:45.009Z</time>
      </trkpt>
      <trkpt lat="50.52351" lon="3.38737">
        <ele>38.393887</ele>
        <time>2020-07-28T22:09:47.881Z</time>
      </trkpt>
      <trkpt lat="50.52273" lon="3.3878">
        <ele>39.446356</ele>
        <time>2020-07-28T22:10:04.010Z</time>
      </trkpt>
      <trkpt lat="50.52225" lon="3.38828">
        <ele>40.170737</ele>
        <time>2020-07-28T22:10:15.349Z</time>
      </trkpt>
      <trkpt lat="50.52208" lon="3.38832">
        <ele>40.389035</ele>
        <time>2020-07-28T22:10:19.208Z</time>
      </trkpt>
      <trkpt lat="50.52191" lon="3.38823">
        <ele>40.609196</ele>
        <time>2020-07-28T22:10:22.557Z</time>
      </trkpt>
      <trkpt lat="50.52135" lon="3.38749">
        <ele>41.410843</ele>
        <time>2020-07-28T22:10:37.428Z</time>
      </trkpt>
      <trkpt lat="50.52098" lon="3.38733">
        <ele>41.778342</ele>
        <time>2020-07-28T22:10:44.690Z</time>
      </trkpt>
      <trkpt lat="50.52092" lon="3.38736">
        <ele>41.837489</ele>
        <time>2020-07-28T22:10:46.176Z</time>
      </trkpt>
      <trkpt lat="50.52089" lon="3.38742">
        <ele>41.882378</ele>
        <time>2020-07-28T22:10:47.096Z</time>
      </trkpt>
      <trkpt lat="50.52082" lon="3.3878">
        <ele>42.127651</ele>
        <time>2020-07-28T22:10:51.515Z</time>
      </trkpt>
      <trkpt lat="50.52066" lon="3.38868">
        <ele>42.683344</ele>
        <time>2020-07-28T22:11:01.874Z</time>
      </trkpt>
      <trkpt lat="50.52063" lon="3.38892">
        <ele>42.695662</ele>
        <time>2020-07-28T22:11:04.406Z</time>
      </trkpt>
      <trkpt lat="50.52056" lon="3.38917">
        <ele>42.659948</ele>
        <time>2020-07-28T22:11:07.427Z</time>
      </trkpt>
      <trkpt lat="50.52052" lon="3.3892">
        <ele>42.651994</ele>
        <time>2020-07-28T22:11:07.898Z</time>
      </trkpt>
      <trkpt lat="50.52043" lon="3.38924">
        <ele>42.631972</ele>
        <time>2020-07-28T22:11:09.337Z</time>
      </trkpt>
      <trkpt lat="50.52026" lon="3.38922">
        <ele>42.597453</ele>
        <time>2020-07-28T22:11:12.293Z</time>
      </trkpt>
      <trkpt lat="50.52009" lon="3.38919">
        <ele>42.564012</ele>
        <time>2020-07-28T22:11:14.460Z</time>
      </trkpt>
      <trkpt lat="50.51989" lon="3.38918">
        <ele>42.522446</ele>
        <time>2020-07-28T22:11:17.315Z</time>
      </trkpt>
      <trkpt lat="50.51919" lon="3.3893">
        <ele>42.379308</ele>
        <time>2020-07-28T22:11:26.591Z</time>
      </trkpt>
      <trkpt lat="50.51913" lon="3.38937">
        <ele>42.364732</ele>
        <time>2020-07-28T22:11:27.480Z</time>
      </trkpt>
      <trkpt lat="50.51908" lon="3.38942">
        <ele>42.349323</ele>
        <time>2020-07-28T22:11:28.150Z</time>
      </trkpt>
      <trkpt lat="50.51902" lon="3.38956">
        <ele>42.250377</ele>
        <time>2020-07-28T22:11:29.651Z</time>
      </trkpt>
      <trkpt lat="50.5188" lon="3.39072">
        <ele>41.544441</ele>
        <time>2020-07-28T22:11:39.309Z</time>
      </trkpt>
      <trkpt lat="50.5184" lon="3.39175">
        <ele>40.844673</ele>
        <time>2020-07-28T22:11:48.551Z</time>
      </trkpt>
      <trkpt lat="50.51817" lon="3.39229">
        <ele>40.504253</ele>
        <time>2020-07-28T22:11:53.707Z</time>
      </trkpt>
      <trkpt lat="50.51783" lon="3.39311">
        <ele>40.031134</ele>
        <time>2020-07-28T22:12:01.518Z</time>
      </trkpt>
      <trkpt lat="50.51708" lon="3.39277">
        <ele>39.434401</ele>
        <time>2020-07-28T22:12:11.481Z</time>
      </trkpt>
      <trkpt lat="50.51676" lon="3.39263">
        <ele>39.246597</ele>
        <time>2020-07-28T22:12:15.829Z</time>
      </trkpt>
      <trkpt lat="50.51668" lon="3.39259">
        <ele>39.206268</ele>
        <time>2020-07-28T22:12:17.006Z</time>
      </trkpt>
      <trkpt lat="50.51639" lon="3.39244">
        <ele>39.070669</ele>
        <time>2020-07-28T22:12:21.059Z</time>
      </trkpt>
      <trkpt lat="50.51546" lon="3.39196">
        <ele>38.627931</ele>
        <time>2020-07-28T22:12:34.341Z</time>
      </trkpt>
      <trkpt lat="50.51471" lon="3.39157">
        <ele>38.414329</ele>
        <time>2020-07-28T22:12:45.001Z</time>
      </trkpt>
      <trkpt lat="50.5137" lon="3.39108">
        <ele>38.201981</ele>
        <time>2020-07-28T22:13:00.163Z</time>
      </trkpt>
      <trkpt lat="50.51366" lon="3.39106">
        <ele>38.194664</ele>
        <time>2020-07-28T22:13:00.718Z</time>
      </trkpt>
      <trkpt lat="50.51184" lon="3.39018">
        <ele>37.756702</ele>
        <time>2020-07-28T22:13:28.163Z</time>
      </trkpt>
      <trkpt lat="50.51178" lon="3.39019">
        <ele>37.718371</ele>
        <time>2020-07-28T22:13:28.899Z</time>
      </trkpt>
      <trkpt lat="50.51088" lon="3.39051">
        <ele>36.695402</ele>
        <time>2020-07-28T22:13:40.333Z</time>
      </trkpt>
      <trkpt lat="50.50931" lon="3.39065">
        <ele>34.757289</ele>
        <time>2020-07-28T22:13:58.322Z</time>
      </trkpt>
      <trkpt lat="50.50883" lon="3.39087">
        <ele>34.071567</ele>
        <time>2020-07-28T22:14:04.144Z</time>
      </trkpt>
      <trkpt lat="50.50846" lon="3.39115">
        <ele>33.504461</ele>
        <time>2020-07-28T22:14:09.086Z</time>
      </trkpt>
      <trkpt lat="50.50846" lon="3.39136">
        <ele>33.323757</ele>
        <time>2020-07-28T22:14:11.452Z</time>
      </trkpt>
      <trkpt lat="50.50873" lon="3.39211">
        <ele>32.676433</ele>
        <time>2020-07-28T22:14:21.024Z</time>
      </trkpt>
      <trkpt lat="50.50874" lon="3.39233">
        <ele>32.515783</ele>
        <time>2020-07-28T22:14:23.465Z</time>
      </trkpt>
      <trkpt lat="50.50868" lon="3.39261">
        <ele>32.291086</ele>
        <time>2020-07-28T22:14:26.814Z</time>
      </trkpt>
      <trkpt lat="50.50817" lon="3.39324">
        <ele>31.543492</ele>
        <time>2020-07-28T22:14:37.939Z</time>
      </trkpt>
      <trkpt lat="50.50791" lon="3.39343">
        <ele>31.213583</ele>
        <time>2020-07-28T22:14:42.704Z</time>
      </trkpt>
      <trkpt lat="50.50768" lon="3.39316">
        <ele>30.648086</ele>
        <time>2020-07-28T22:14:47.528Z</time>
      </trkpt>
      <trkpt lat="50.50742" lon="3.39286">
        <ele>30.024011</ele>
        <time>2020-07-28T22:14:52.637Z</time>
      </trkpt>
      <trkpt lat="50.50734" lon="3.39277">
        <ele>29.828036</ele>
        <time>2020-07-28T22:14:54.228Z</time>
      </trkpt>
      <trkpt lat="50.50663" lon="3.3935">
        <ele>28.157981</ele>
        <time>2020-07-28T22:15:07.445Z</time>
      </trkpt>
      <trkpt lat="50.50633" lon="3.39376">
        <ele>27.483426</ele>
        <time>2020-07-28T22:15:12.703Z</time>
      </trkpt>
      <trkpt lat="50.50606" lon="3.39386">
        <ele>26.953349</ele>
        <time>2020-07-28T22:15:16.842Z</time>
      </trkpt>
      <trkpt lat="50.50569" lon="3.39377">
        <ele>26.211997</ele>
        <time>2020-07-28T22:15:22.726Z</time>
      </trkpt>
      <trkpt lat="50.50554" lon="3.39381">
        <ele>25.914486</ele>
        <time>2020-07-28T22:15:25.138Z</time>
      </trkpt>
      <trkpt lat="50.50535" lon="3.39399">
        <ele>25.481883</ele>
        <time>2020-07-28T22:15:28.681Z</time>
      </trkpt>
      <trkpt lat="50.50482" lon="3.39464">
        <ele>24.172629</ele>
        <time>2020-07-28T22:15:39.605Z</time>
      </trkpt>
      <trkpt lat="50.50476" lon="3.39466">
        <ele>24.089933</ele>
        <time>2020-07-28T22:15:40.661Z</time>
      </trkpt>
      <trkpt lat="50.50457" lon="3.39463">
        <ele>23.878773</ele>
        <time>2020-07-28T22:15:43.745Z</time>
      </trkpt>
      <trkpt lat="50.50418" lon="3.39422">
        <ele>23.34885</ele>
        <time>2020-07-28T22:15:51.528Z</time>
      </trkpt>
      <trkpt lat="50.504" lon="3.39398">
        <ele>23.079824</ele>
        <time>2020-07-28T22:15:55.562Z</time>
      </trkpt>
      <trkpt lat="50.5037" lon="3.39339">
        <ele>22.530904</ele>
        <time>2020-07-28T22:16:03.898Z</time>
      </trkpt>
      <trkpt lat="50.50296" lon="3.39198">
        <ele>21.834865</ele>
        <time>2020-07-28T22:16:25.225Z</time>
      </trkpt>
      <trkpt lat="50.50281" lon="3.39185">
        <ele>21.776172</ele>
        <time>2020-07-28T22:16:28.419Z</time>
      </trkpt>
      <trkpt lat="50.50268" lon="3.39178">
        <ele>21.730789</ele>
        <time>2020-07-28T22:16:30.878Z</time>
      </trkpt>
      <trkpt lat="50.50256" lon="3.39179">
        <ele>21.686661</ele>
        <time>2020-07-28T22:16:33.394Z</time>
      </trkpt>
      <trkpt lat="50.50166" lon="3.39181">
        <ele>21.546377</ele>
        <time>2020-07-28T22:16:51.372Z</time>
      </trkpt>
      <trkpt lat="50.50122" lon="3.39179">
        <ele>21.63033</ele>
        <time>2020-07-28T22:17:00.727Z</time>
      </trkpt>
      <trkpt lat="50.50013" lon="3.39167">
        <ele>21.833429</ele>
        <time>2020-07-28T22:17:24.229Z</time>
      </trkpt>
      <trkpt lat="50.49997" lon="3.39168">
        <ele>21.839821</ele>
        <time>2020-07-28T22:17:27.715Z</time>
      </trkpt>
      <trkpt lat="50.49956" lon="3.39182">
        <ele>21.85573</ele>
        <time>2020-07-28T22:17:36.099Z</time>
      </trkpt>
      <trkpt lat="50.49929" lon="3.39196">
        <ele>21.866364</ele>
        <time>2020-07-28T22:17:41.870Z</time>
      </trkpt>
      <trkpt lat="50.49888" lon="3.39214">
        <ele>21.882788</ele>
        <time>2020-07-28T22:17:50.457Z</time>
      </trkpt>
      <trkpt lat="50.49863" lon="3.39217">
        <ele>21.892276</ele>
        <time>2020-07-28T22:17:55.666Z</time>
      </trkpt>
      <trkpt lat="50.49855" lon="3.39209">
        <ele>21.895939</ele>
        <time>2020-07-28T22:17:57.494Z</time>
      </trkpt>
      <trkpt lat="50.49776" lon="3.39064">
        <ele>22.004272</ele>
        <time>2020-07-28T22:18:15.674Z</time>
      </trkpt>
      <trkpt lat="50.496" lon="3.38889">
        <ele>22.196097</ele>
        <time>2020-07-28T22:18:48.358Z</time>
      </trkpt>
      <trkpt lat="50.49543" lon="3.38889">
        <ele>22.141914</ele>
        <time>2020-07-28T22:18:56.375Z</time>
      </trkpt>
      <trkpt lat="50.49525" lon="3.38901">
        <ele>22.02586</ele>
        <time>2020-07-28T22:18:59.016Z</time>
      </trkpt>
      <trkpt lat="50.49424" lon="3.39113">
        <ele>21.101101</ele>
        <time>2020-07-28T22:19:20.545Z</time>
      </trkpt>
      <trkpt lat="50.49398" lon="3.39135">
        <ele>20.990153</ele>
        <time>2020-07-28T22:19:24.394Z</time>
      </trkpt>
      <trkpt lat="50.49292" lon="3.39213">
        <ele>20.54874</ele>
        <time>2020-07-28T22:19:40.633Z</time>
      </trkpt>
      <trkpt lat="50.49231" lon="3.39296">
        <ele>20.426125</ele>
        <time>2020-07-28T22:19:52.460Z</time>
      </trkpt>
      <trkpt lat="50.4919" lon="3.39371">
        <ele>20.349064</ele>
        <time>2020-07-28T22:20:01.713Z</time>
      </trkpt>
      <trkpt lat="50.49175" lon="3.39411">
        <ele>20.313134</ele>
        <time>2020-07-28T22:20:06.028Z</time>
      </trkpt>
      <trkpt lat="50.49164" lon="3.39464">
        <ele>20.226838</ele>
        <time>2020-07-28T22:20:11.068Z</time>
      </trkpt>
      <trkpt lat="50.49149" lon="3.39612">
        <ele>19.903251</ele>
        <time>2020-07-28T22:20:23.979Z</time>
      </trkpt>
      <trkpt lat="50.49131" lon="3.39664">
        <ele>19.777026</ele>
        <time>2020-07-28T22:20:28.952Z</time>
      </trkpt>
      <trkpt lat="50.49109" lon="3.39681">
        <ele>19.69473</ele>
        <time>2020-07-28T22:20:32.171Z</time>
      </trkpt>
      <trkpt lat="50.48931" lon="3.39709">
        <ele>19.643446</ele>
        <time>2020-07-28T22:20:58.492Z</time>
      </trkpt>
      <trkpt lat="50.48895" lon="3.39731">
        <ele>19.804967</ele>
        <time>2020-07-28T22:21:04.879Z</time>
      </trkpt>
      <trkpt lat="50.48836" lon="3.39787">
        <ele>20.122394</ele>
        <time>2020-07-28T22:21:16.650Z</time>
      </trkpt>
      <trkpt lat="50.48814" lon="3.39832">
        <ele>20.289018</ele>
        <time>2020-07-28T22:21:22.884Z</time>
      </trkpt>
      <trkpt lat="50.48786" lon="3.3993">
        <ele>20.446953</ele>
        <time>2020-07-28T22:21:34.482Z</time>
      </trkpt>
      <trkpt lat="50.48717" lon="3.39879">
        <ele>20.371794</ele>
        <time>2020-07-28T22:21:45.696Z</time>
      </trkpt>
      <trkpt lat="50.48698" lon="3.39865">
        <ele>20.351172</ele>
        <time>2020-07-28T22:21:48.572Z</time>
      </trkpt>
      <trkpt lat="50.48669" lon="3.39842">
        <ele>20.318365</ele>
        <time>2020-07-28T22:21:53.095Z</time>
      </trkpt>
      <trkpt lat="50.48649" lon="3.39826">
        <ele>20.292546</ele>
        <time>2020-07-28T22:21:56.038Z</time>
      </trkpt>
      <trkpt lat="50.48632" lon="3.39811">
        <ele>20.151469</ele>
        <time>2020-07-28T22:21:58.595Z</time>
      </trkpt>
      <trkpt lat="50.48545" lon="3.39763">
        <ele>19.511377</ele>
        <time>2020-07-28T22:22:10.204Z</time>
      </trkpt>
      <trkpt lat="50.48391" lon="3.39831">
        <ele>18.595897</ele>
        <time>2020-07-28T22:22:30.703Z</time>
      </trkpt>
      <trkpt lat="50.48358" lon="3.3984">
        <ele>18.440206</ele>
        <time>2020-07-28T22:22:35.204Z</time>
      </trkpt>
      <trkpt lat="50.48346" lon="3.39843">
        <ele>18.380867</ele>
        <time>2020-07-28T22:22:37.173Z</time>
      </trkpt>
      <trkpt lat="50.48299" lon="3.39871">
        <ele>18.152146</ele>
        <time>2020-07-28T22:22:44.284Z</time>
      </trkpt>
      <trkpt lat="50.48229" lon="3.39927">
        <ele>17.883533</ele>
        <time>2020-07-28T22:22:54.972Z</time>
      </trkpt>
      <trkpt lat="50.48218" lon="3.39938">
        <ele>17.84181</ele>
        <time>2020-07-28T22:22:56.732Z</time>
      </trkpt>
      <trkpt lat="50.48188" lon="3.39968">
        <ele>17.719872</ele>
        <time>2020-07-28T22:23:01.604Z</time>
      </trkpt>
      <trkpt lat="50.48161" lon="3.39995">
        <ele>17.609934</ele>
        <time>2020-07-28T22:23:05.961Z</time>
      </trkpt>
      <trkpt lat="50.48135" lon="3.40031">
        <ele>17.494585</ele>
        <time>2020-07-28T22:23:10.654Z</time>
      </trkpt>
      <trkpt lat="50.48129" lon="3.40035">
        <ele>17.474673</ele>
        <time>2020-07-28T22:23:11.461Z</time>
      </trkpt>
      <trkpt lat="50.48117" lon="3.40045">
        <ele>17.431366</ele>
        <time>2020-07-28T22:23:13.206Z</time>
      </trkpt>
      <trkpt lat="50.48107" lon="3.4005">
        <ele>17.395138</ele>
        <time>2020-07-28T22:23:14.687Z</time>
      </trkpt>
      <trkpt lat="50.481" lon="3.40053">
        <ele>17.370214</ele>
        <time>2020-07-28T22:23:15.770Z</time>
      </trkpt>
      <trkpt lat="50.48066" lon="3.40055">
        <ele>17.261789</ele>
        <time>2020-07-28T22:23:20.134Z</time>
      </trkpt>
      <trkpt lat="50.48026" lon="3.40021">
        <ele>17.112063</ele>
        <time>2020-07-28T22:23:26.175Z</time>
      </trkpt>
      <trkpt lat="50.48006" lon="3.40015">
        <ele>17.046336</ele>
        <time>2020-07-28T22:23:29.026Z</time>
      </trkpt>
      <trkpt lat="50.47874" lon="3.40052">
        <ele>17.214442</ele>
        <time>2020-07-28T22:23:49.853Z</time>
      </trkpt>
      <trkpt lat="50.4783" lon="3.40085">
        <ele>17.314932</ele>
        <time>2020-07-28T22:23:57.805Z</time>
      </trkpt>
      <trkpt lat="50.47732" lon="3.40193">
        <ele>17.654052</ele>
        <time>2020-07-28T22:24:17.175Z</time>
      </trkpt>
      <trkpt lat="50.47704" lon="3.40241">
        <ele>17.776104</ele>
        <time>2020-07-28T22:24:23.754Z</time>
      </trkpt>
      <trkpt lat="50.47702" lon="3.40246">
        <ele>17.788367</ele>
        <time>2020-07-28T22:24:24.457Z</time>
      </trkpt>
      <trkpt lat="50.47697" lon="3.40255">
        <ele>17.810388</ele>
        <time>2020-07-28T22:24:25.644Z</time>
      </trkpt>
      <trkpt lat="50.47672" lon="3.40305">
        <ele>17.920778</ele>
        <time>2020-07-28T22:24:32.050Z</time>
      </trkpt>
      <trkpt lat="50.47647" lon="3.40391">
        <ele>18.06555</ele>
        <time>2020-07-28T22:24:41.666Z</time>
      </trkpt>
      <trkpt lat="50.47576" lon="3.40557">
        <ele>18.308103</ele>
        <time>2020-07-28T22:25:01.671Z</time>
      </trkpt>
      <trkpt lat="50.47569" lon="3.40585">
        <ele>18.302187</ele>
        <time>2020-07-28T22:25:04.589Z</time>
      </trkpt>
      <trkpt lat="50.47559" lon="3.40681">
        <ele>18.282822</ele>
        <time>2020-07-28T22:25:14.002Z</time>
      </trkpt>
      <trkpt lat="50.47547" lon="3.40731">
        <ele>18.272187</ele>
        <time>2020-07-28T22:25:19.025Z</time>
      </trkpt>
      <trkpt lat="50.47438" lon="3.41064">
        <ele>17.641405</ele>
        <time>2020-07-28T22:25:51.834Z</time>
      </trkpt>
      <trkpt lat="50.47417" lon="3.41111">
        <ele>17.484533</ele>
        <time>2020-07-28T22:25:56.569Z</time>
      </trkpt>
      <trkpt lat="50.47347" lon="3.41236">
        <ele>17.023918</ele>
        <time>2020-07-28T22:26:10.804Z</time>
      </trkpt>
      <trkpt lat="50.47333" lon="3.41258">
        <ele>16.941181</ele>
        <time>2020-07-28T22:26:13.316Z</time>
      </trkpt>
      <trkpt lat="50.47317" lon="3.41267">
        <ele>16.915266</ele>
        <time>2020-07-28T22:26:15.834Z</time>
      </trkpt>
      <trkpt lat="50.47261" lon="3.41265">
        <ele>16.84059</ele>
        <time>2020-07-28T22:26:23.675Z</time>
      </trkpt>
      <trkpt lat="50.47232" lon="3.41272">
        <ele>16.802341</ele>
        <time>2020-07-28T22:26:27.860Z</time>
      </trkpt>
      <trkpt lat="50.47156" lon="3.41338">
        <ele>16.696757</ele>
        <time>2020-07-28T22:26:40.834Z</time>
      </trkpt>
      <trkpt lat="50.47095" lon="3.41382">
        <ele>16.67483</ele>
        <time>2020-07-28T22:26:50.811Z</time>
      </trkpt>
      <trkpt lat="50.46934" lon="3.41482">
        <ele>16.649997</ele>
        <time>2020-07-28T22:27:16.019Z</time>
      </trkpt>
      <trkpt lat="50.46901" lon="3.4149">
        <ele>16.654442</ele>
        <time>2020-07-28T22:27:20.910Z</time>
      </trkpt>
      <trkpt lat="50.46906" lon="3.41552">
        <ele>16.659813</ele>
        <time>2020-07-28T22:27:26.925Z</time>
      </trkpt>
      <trkpt lat="50.46913" lon="3.41584">
        <ele>16.662762</ele>
        <time>2020-07-28T22:27:30.264Z</time>
      </trkpt>
      <trkpt lat="50.46972" lon="3.41703">
        <ele>16.791602</ele>
        <time>2020-07-28T22:27:45.171Z</time>
      </trkpt>
      <trkpt lat="50.46996" lon="3.41775">
        <ele>16.874043</ele>
        <time>2020-07-28T22:27:53.389Z</time>
      </trkpt>
      <trkpt lat="50.4704" lon="3.41845">
        <ele>16.949545</ele>
        <time>2020-07-28T22:28:03.183Z</time>
      </trkpt>
      <trkpt lat="50.47119" lon="3.42004">
        <ele>16.947287</ele>
        <time>2020-07-28T22:28:22.245Z</time>
      </trkpt>
      <trkpt lat="50.47122" lon="3.42028">
        <ele>16.947014</ele>
        <time>2020-07-28T22:28:24.466Z</time>
      </trkpt>
      <trkpt lat="50.47118" lon="3.42056">
        <ele>16.946693</ele>
        <time>2020-07-28T22:28:27.057Z</time>
      </trkpt>
      <trkpt lat="50.47085" lon="3.42188">
        <ele>16.862822</ele>
        <time>2020-07-28T22:28:39.848Z</time>
      </trkpt>
      <trkpt lat="50.47086" lon="3.42218">
        <ele>16.844512</ele>
        <time>2020-07-28T22:28:42.538Z</time>
      </trkpt>
      <trkpt lat="50.47106" lon="3.42256">
        <ele>16.814339</ele>
        <time>2020-07-28T22:28:46.961Z</time>
      </trkpt>
      <trkpt lat="50.47108" lon="3.42258">
        <ele>16.812412</ele>
        <time>2020-07-28T22:28:47.236Z</time>
      </trkpt>
      <trkpt lat="50.47184" lon="3.42343">
        <ele>17.068495</ele>
        <time>2020-07-28T22:29:01.485Z</time>
      </trkpt>
      <trkpt lat="50.47249" lon="3.42447">
        <ele>17.579094</ele>
        <time>2020-07-28T22:29:17.752Z</time>
      </trkpt>
      <trkpt lat="50.47266" lon="3.42477">
        <ele>17.716734</ele>
        <time>2020-07-28T22:29:22.566Z</time>
      </trkpt>
      <trkpt lat="50.47281" lon="3.42507">
        <ele>17.883119</ele>
        <time>2020-07-28T22:29:27.127Z</time>
      </trkpt>
      <trkpt lat="50.47299" lon="3.42556">
        <ele>18.152447</ele>
        <time>2020-07-28T22:29:34.053Z</time>
      </trkpt>
      <trkpt lat="50.47333" lon="3.42587">
        <ele>18.439559</ele>
        <time>2020-07-28T22:29:41.105Z</time>
      </trkpt>
      <trkpt lat="50.47335" lon="3.4259">
        <ele>18.459192</ele>
        <time>2020-07-28T22:29:41.858Z</time>
      </trkpt>
      <trkpt lat="50.47341" lon="3.42599">
        <ele>18.520467</ele>
        <time>2020-07-28T22:29:43.327Z</time>
      </trkpt>
      <trkpt lat="50.47343" lon="3.42607">
        <ele>18.56101</ele>
        <time>2020-07-28T22:29:44.322Z</time>
      </trkpt>
      <trkpt lat="50.47357" lon="3.42605">
        <ele>18.669809</ele>
        <time>2020-07-28T22:29:46.828Z</time>
      </trkpt>
      <trkpt lat="50.47365" lon="3.42604">
        <ele>18.727689</ele>
        <time>2020-07-28T22:29:48.425Z</time>
      </trkpt>
      <trkpt lat="50.47375" lon="3.42607">
        <ele>18.800871</ele>
        <time>2020-07-28T22:29:50.167Z</time>
      </trkpt>
      <trkpt lat="50.47395" lon="3.42618">
        <ele>18.962649</ele>
        <time>2020-07-28T22:29:53.733Z</time>
      </trkpt>
      <trkpt lat="50.47413" lon="3.42629">
        <ele>19.095238</ele>
        <time>2020-07-28T22:29:57.018Z</time>
      </trkpt>
      <trkpt lat="50.47437" lon="3.42644">
        <ele>19.084316</ele>
        <time>2020-07-28T22:30:00.937Z</time>
      </trkpt>
      <trkpt lat="50.47452" lon="3.42652">
        <ele>19.077514</ele>
        <time>2020-07-28T22:30:03.288Z</time>
      </trkpt>
      <trkpt lat="50.47448" lon="3.42668">
        <ele>19.072681</ele>
        <time>2020-07-28T22:30:04.792Z</time>
      </trkpt>
      <trkpt lat="50.47422" lon="3.42797">
        <ele>19.035778</ele>
        <time>2020-07-28T22:30:17.330Z</time>
      </trkpt>
      <trkpt lat="50.47415" lon="3.42835">
        <ele>19.025004</ele>
        <time>2020-07-28T22:30:20.735Z</time>
      </trkpt>
      <trkpt lat="50.4741" lon="3.42874">
        <ele>18.97983</ele>
        <time>2020-07-28T22:30:24.239Z</time>
      </trkpt>
      <trkpt lat="50.47407" lon="3.4291">
        <ele>18.890503</ele>
        <time>2020-07-28T22:30:27.395Z</time>
      </trkpt>
      <trkpt lat="50.47406" lon="3.42913">
        <ele>18.881795</ele>
        <time>2020-07-28T22:30:27.758Z</time>
      </trkpt>
      <trkpt lat="50.47403" lon="3.43012">
        <ele>18.638935</ele>
        <time>2020-07-28T22:30:36.434Z</time>
      </trkpt>
      <trkpt lat="50.47398" lon="3.43194">
        <ele>18.12037</ele>
        <time>2020-07-28T22:30:52.100Z</time>
      </trkpt>
      <trkpt lat="50.47396" lon="3.43242">
        <ele>17.936531</ele>
        <time>2020-07-28T22:30:56.016Z</time>
      </trkpt>
      <trkpt lat="50.47394" lon="3.43256">
        <ele>17.884765</ele>
        <time>2020-07-28T22:30:57.182Z</time>
      </trkpt>
      <trkpt lat="50.47388" lon="3.43289">
        <ele>17.756124</ele>
        <time>2020-07-28T22:30:59.881Z</time>
      </trkpt>
      <trkpt lat="50.47378" lon="3.43333">
        <ele>17.581965</ele>
        <time>2020-07-28T22:31:03.748Z</time>
      </trkpt>
      <trkpt lat="50.47371" lon="3.43382">
        <ele>17.390793</ele>
        <time>2020-07-28T22:31:08.049Z</time>
      </trkpt>
      <trkpt lat="50.4737" lon="3.43392">
        <ele>17.35203</ele>
        <time>2020-07-28T22:31:08.840Z</time>
      </trkpt>
      <trkpt lat="50.47363" lon="3.4346">
        <ele>17.183758</ele>
        <time>2020-07-28T22:31:14.642Z</time>
      </trkpt>
      <trkpt lat="50.47355" lon="3.43514">
        <ele>17.08899</ele>
        <time>2020-07-28T22:31:19.357Z</time>
      </trkpt>
      <trkpt lat="50.47343" lon="3.43555">
        <ele>17.011386</ele>
        <time>2020-07-28T22:31:23.216Z</time>
      </trkpt>
      <trkpt lat="50.47333" lon="3.43582">
        <ele>16.956796</ele>
        <time>2020-07-28T22:31:26.041Z</time>
      </trkpt>
      <trkpt lat="50.47315" lon="3.43617">
        <ele>16.87882</ele>
        <time>2020-07-28T22:31:30.071Z</time>
      </trkpt>
      <trkpt lat="50.47305" lon="3.43634">
        <ele>16.838691</ele>
        <time>2020-07-28T22:31:32.243Z</time>
      </trkpt>
      <trkpt lat="50.47256" lon="3.43705">
        <ele>16.877525</ele>
        <time>2020-07-28T22:31:42.398Z</time>
      </trkpt>
      <trkpt lat="50.47243" lon="3.43737">
        <ele>16.938657</ele>
        <time>2020-07-28T22:31:46.315Z</time>
      </trkpt>
      <trkpt lat="50.47227" lon="3.43795">
        <ele>17.038838</ele>
        <time>2020-07-28T22:31:52.736Z</time>
      </trkpt>
      <trkpt lat="50.47213" lon="3.43826">
        <ele>17.098126</ele>
        <time>2020-07-28T22:31:56.494Z</time>
      </trkpt>
      <trkpt lat="50.47181" lon="3.43875">
        <ele>17.209846</ele>
        <time>2020-07-28T22:32:03.776Z</time>
      </trkpt>
      <trkpt lat="50.4716" lon="3.43897">
        <ele>17.314595</ele>
        <time>2020-07-28T22:32:08.027Z</time>
      </trkpt>
      <trkpt lat="50.47133" lon="3.43912">
        <ele>17.442</ele>
        <time>2020-07-28T22:32:12.905Z</time>
      </trkpt>
      <trkpt lat="50.47089" lon="3.43934">
        <ele>17.643498</ele>
        <time>2020-07-28T22:32:20.551Z</time>
      </trkpt>
      <trkpt lat="50.47043" lon="3.43975">
        <ele>17.875855</ele>
        <time>2020-07-28T22:32:29.479Z</time>
      </trkpt>
      <trkpt lat="50.47021" lon="3.44011">
        <ele>18.015932</ele>
        <time>2020-07-28T22:32:34.884Z</time>
      </trkpt>
      <trkpt lat="50.47003" lon="3.44054">
        <ele>18.03068</ele>
        <time>2020-07-28T22:32:40.307Z</time>
      </trkpt>
      <trkpt lat="50.4697" lon="3.44166">
        <ele>18.065589</ele>
        <time>2020-07-28T22:32:52.454Z</time>
      </trkpt>
      <trkpt lat="50.46904" lon="3.44268">
        <ele>17.969515</ele>
        <time>2020-07-28T22:33:05.348Z</time>
      </trkpt>
      <trkpt lat="50.46895" lon="3.44286">
        <ele>17.897269</ele>
        <time>2020-07-28T22:33:07.176Z</time>
      </trkpt>
      <trkpt lat="50.46893" lon="3.4429">
        <ele>17.880473</ele>
        <time>2020-07-28T22:33:07.610Z</time>
      </trkpt>
      <trkpt lat="50.4689" lon="3.443">
        <ele>17.842245</ele>
        <time>2020-07-28T22:33:08.600Z</time>
      </trkpt>
      <trkpt lat="50.46871" lon="3.44361">
        <ele>17.623027</ele>
        <time>2020-07-28T22:33:14.239Z</time>
      </trkpt>
      <trkpt lat="50.46863" lon="3.4439">
        <ele>17.518781</ele>
        <time>2020-07-28T22:33:16.857Z</time>
      </trkpt>
      <trkpt lat="50.46842" lon="3.44451">
        <ele>17.295984</ele>
        <time>2020-07-28T22:33:22.558Z</time>
      </trkpt>
      <trkpt lat="50.46832" lon="3.44489">
        <ele>17.164891</ele>
        <time>2020-07-28T22:33:25.977Z</time>
      </trkpt>
      <trkpt lat="50.46829" lon="3.44533">
        <ele>17.059645</ele>
        <time>2020-07-28T22:33:29.688Z</time>
      </trkpt>
      <trkpt lat="50.46828" lon="3.44616">
        <ele>16.864254</ele>
        <time>2020-07-28T22:33:36.783Z</time>
      </trkpt>
      <trkpt lat="50.46809" lon="3.4475">
        <ele>16.539569</ele>
        <time>2020-07-28T22:33:49.180Z</time>
      </trkpt>
      <trkpt lat="50.46781" lon="3.44932">
        <ele>15.891738</ele>
        <time>2020-07-28T22:34:05.284Z</time>
      </trkpt>
      <trkpt lat="50.46777" lon="3.44958">
        <ele>15.799412</ele>
        <time>2020-07-28T22:34:07.449Z</time>
      </trkpt>
      <trkpt lat="50.46768" lon="3.45001">
        <ele>15.639416</ele>
        <time>2020-07-28T22:34:11.149Z</time>
      </trkpt>
      <trkpt lat="50.46759" lon="3.45033">
        <ele>15.514941</ele>
        <time>2020-07-28T22:34:13.835Z</time>
      </trkpt>
      <trkpt lat="50.46746" lon="3.45059">
        <ele>15.384135</ele>
        <time>2020-07-28T22:34:16.408Z</time>
      </trkpt>
      <trkpt lat="50.4667" lon="3.45159">
        <ele>14.763643</ele>
        <time>2020-07-28T22:34:28.792Z</time>
      </trkpt>
      <trkpt lat="50.46649" lon="3.45188">
        <ele>14.584379</ele>
        <time>2020-07-28T22:34:32.514Z</time>
      </trkpt>
      <trkpt lat="50.46637" lon="3.45205">
        <ele>14.486015</ele>
        <time>2020-07-28T22:34:34.754Z</time>
      </trkpt>
      <trkpt lat="50.46624" lon="3.45222">
        <ele>14.381854</ele>
        <time>2020-07-28T22:34:37.081Z</time>
      </trkpt>
      <trkpt lat="50.4661" lon="3.45234">
        <ele>14.48736</ele>
        <time>2020-07-28T22:34:39.522Z</time>
      </trkpt>
      <trkpt lat="50.46601" lon="3.4524">
        <ele>14.547568</ele>
        <time>2020-07-28T22:34:41.166Z</time>
      </trkpt>
      <trkpt lat="50.46598" lon="3.45239">
        <ele>14.569005</ele>
        <time>2020-07-28T22:34:41.641Z</time>
      </trkpt>
      <trkpt lat="50.46595" lon="3.45239">
        <ele>14.590097</ele>
        <time>2020-07-28T22:34:42.114Z</time>
      </trkpt>
      <trkpt lat="50.46592" lon="3.45241">
        <ele>14.610585</ele>
        <time>2020-07-28T22:34:42.596Z</time>
      </trkpt>
      <trkpt lat="50.46587" lon="3.45253">
        <ele>14.670266</ele>
        <time>2020-07-28T22:34:44.030Z</time>
      </trkpt>
      <trkpt lat="50.46587" lon="3.45258">
        <ele>14.69077</ele>
        <time>2020-07-28T22:34:44.572Z</time>
      </trkpt>
      <trkpt lat="50.46588" lon="3.45263">
        <ele>14.711522</ele>
        <time>2020-07-28T22:34:45.097Z</time>
      </trkpt>
      <trkpt lat="50.46592" lon="3.4527">
        <ele>14.752766</ele>
        <time>2020-07-28T22:34:46.279Z</time>
      </trkpt>
      <trkpt lat="50.46594" lon="3.45272">
        <ele>14.773152</ele>
        <time>2020-07-28T22:34:46.818Z</time>
      </trkpt>
      <trkpt lat="50.466" lon="3.45278">
        <ele>14.817098</ele>
        <time>2020-07-28T22:34:47.866Z</time>
      </trkpt>
      <trkpt lat="50.46603" lon="3.45282">
        <ele>14.841911</ele>
        <time>2020-07-28T22:34:48.461Z</time>
      </trkpt>
      <trkpt lat="50.46611" lon="3.45296">
        <ele>14.922375</ele>
        <time>2020-07-28T22:34:50.505Z</time>
      </trkpt>
      <trkpt lat="50.46617" lon="3.45316">
        <ele>15.016079</ele>
        <time>2020-07-28T22:34:53.351Z</time>
      </trkpt>
      <trkpt lat="50.46665" lon="3.45387">
        <ele>15.446968</ele>
        <time>2020-07-28T22:35:05.693Z</time>
      </trkpt>
      <trkpt lat="50.46666" lon="3.45387">
        <ele>15.451878</ele>
        <time>2020-07-28T22:35:06.048Z</time>
      </trkpt>
      <trkpt lat="50.46673" lon="3.45396">
        <ele>15.512333</ele>
        <time>2020-07-28T22:35:07.802Z</time>
      </trkpt>
      <trkpt lat="50.46689" lon="3.45418">
        <ele>15.703916</ele>
        <time>2020-07-28T22:35:11.681Z</time>
      </trkpt>
      <trkpt lat="50.46717" lon="3.45443">
        <ele>16.047206</ele>
        <time>2020-07-28T22:35:17.832Z</time>
      </trkpt>
      <trkpt lat="50.46726" lon="3.45449">
        <ele>16.143484</ele>
        <time>2020-07-28T22:35:19.930Z</time>
      </trkpt>
      <trkpt lat="50.46731" lon="3.45451">
        <ele>16.202276</ele>
        <time>2020-07-28T22:35:21.068Z</time>
      </trkpt>
      <trkpt lat="50.46735" lon="3.45453">
        <ele>16.251283</ele>
        <time>2020-07-28T22:35:21.884Z</time>
      </trkpt>
      <trkpt lat="50.46746" lon="3.45455">
        <ele>16.358708</ele>
        <time>2020-07-28T22:35:23.743Z</time>
      </trkpt>
      <trkpt lat="50.46763" lon="3.45457">
        <ele>16.546077</ele>
        <time>2020-07-28T22:35:27.474Z</time>
      </trkpt>
      <trkpt lat="50.46779" lon="3.45455">
        <ele>16.709564</ele>
        <time>2020-07-28T22:35:30.271Z</time>
      </trkpt>
      <trkpt lat="50.46818" lon="3.45446">
        <ele>17.125585</ele>
        <time>2020-07-28T22:35:38.172Z</time>
      </trkpt>
      <trkpt lat="50.46858" lon="3.45443">
        <ele>17.467784</ele>
        <time>2020-07-28T22:35:45.442Z</time>
      </trkpt>
      <trkpt lat="50.46875" lon="3.45447">
        <ele>17.478241</ele>
        <time>2020-07-28T22:35:48.528Z</time>
      </trkpt>
      <trkpt lat="50.46883" lon="3.45449">
        <ele>17.482804</ele>
        <time>2020-07-28T22:35:49.702Z</time>
      </trkpt>
      <trkpt lat="50.46903" lon="3.45459">
        <ele>17.495866</ele>
        <time>2020-07-28T22:35:53.228Z</time>
      </trkpt>
      <trkpt lat="50.46927" lon="3.45479">
        <ele>17.51211</ele>
        <time>2020-07-28T22:35:57.355Z</time>
      </trkpt>
      <trkpt lat="50.46957" lon="3.45509">
        <ele>17.533759</ele>
        <time>2020-07-28T22:36:02.716Z</time>
      </trkpt>
      <trkpt lat="50.46987" lon="3.4554">
        <ele>17.555581</ele>
        <time>2020-07-28T22:36:07.877Z</time>
      </trkpt>
      <trkpt lat="50.47094" lon="3.45645">
        <ele>16.849548</ele>
        <time>2020-07-28T22:36:23.741Z</time>
      </trkpt>
      <trkpt lat="50.4712" lon="3.45664">
        <ele>16.640812</ele>
        <time>2020-07-28T22:36:27.318Z</time>
      </trkpt>
      <trkpt lat="50.47155" lon="3.45672">
        <ele>16.385028</ele>
        <time>2020-07-28T22:36:31.802Z</time>
      </trkpt>
      <trkpt lat="50.47165" lon="3.4567">
        <ele>16.308097</ele>
        <time>2020-07-28T22:36:33.084Z</time>
      </trkpt>
      <trkpt lat="50.47185" lon="3.45665">
        <ele>16.23413</ele>
        <time>2020-07-28T22:36:35.836Z</time>
      </trkpt>
      <trkpt lat="50.47204" lon="3.45652">
        <ele>16.18795</ele>
        <time>2020-07-28T22:36:38.492Z</time>
      </trkpt>
      <trkpt lat="50.47217" lon="3.45642">
        <ele>16.155261</ele>
        <time>2020-07-28T22:36:40.531Z</time>
      </trkpt>
      <trkpt lat="50.47241" lon="3.45619">
        <ele>16.092083</ele>
        <time>2020-07-28T22:36:44.419Z</time>
      </trkpt>
      <trkpt lat="50.47308" lon="3.45573">
        <ele>15.924831</ele>
        <time>2020-07-28T22:36:54.880Z</time>
      </trkpt>
      <trkpt lat="50.47356" lon="3.4556">
        <ele>15.890454</ele>
        <time>2020-07-28T22:37:02.246Z</time>
      </trkpt>
      <trkpt lat="50.47361" lon="3.4556">
        <ele>15.899488</ele>
        <time>2020-07-28T22:37:03.382Z</time>
      </trkpt>
      <trkpt lat="50.47388" lon="3.45563">
        <ele>15.943196</ele>
        <time>2020-07-28T22:37:07.359Z</time>
      </trkpt>
      <trkpt lat="50.47438" lon="3.45589">
        <ele>16.028376</ele>
        <time>2020-07-28T22:37:15.503Z</time>
      </trkpt>
      <trkpt lat="50.47537" lon="3.45678">
        <ele>16.318361</ele>
        <time>2020-07-28T22:37:33.142Z</time>
      </trkpt>
      <trkpt lat="50.47596" lon="3.45744">
        <ele>16.636759</ele>
        <time>2020-07-28T22:37:45.432Z</time>
      </trkpt>
      <trkpt lat="50.47614" lon="3.45764">
        <ele>16.733572</ele>
        <time>2020-07-28T22:37:49.328Z</time>
      </trkpt>
      <trkpt lat="50.4763" lon="3.45775">
        <ele>16.809515</ele>
        <time>2020-07-28T22:37:52.151Z</time>
      </trkpt>
      <trkpt lat="50.47672" lon="3.45789">
        <ele>16.994883</ele>
        <time>2020-07-28T22:37:59.502Z</time>
      </trkpt>
      <trkpt lat="50.4769" lon="3.45794">
        <ele>17.07137</ele>
        <time>2020-07-28T22:38:02.693Z</time>
      </trkpt>
      <trkpt lat="50.47712" lon="3.45801">
        <ele>17.166598</ele>
        <time>2020-07-28T22:38:06.541Z</time>
      </trkpt>
      <trkpt lat="50.47716" lon="3.45803">
        <ele>17.186939</ele>
        <time>2020-07-28T22:38:07.437Z</time>
      </trkpt>
      <trkpt lat="50.47721" lon="3.45806">
        <ele>17.21133</ele>
        <time>2020-07-28T22:38:08.336Z</time>
      </trkpt>
      <trkpt lat="50.47792" lon="3.45868">
        <ele>17.554665</ele>
        <time>2020-07-28T22:38:21.719Z</time>
      </trkpt>
      <trkpt lat="50.47879" lon="3.45919">
        <ele>17.677569</ele>
        <time>2020-07-28T22:38:36.110Z</time>
      </trkpt>
      <trkpt lat="50.47946" lon="3.45926">
        <ele>17.65022</ele>
        <time>2020-07-28T22:38:45.930Z</time>
      </trkpt>
      <trkpt lat="50.47995" lon="3.45908">
        <ele>17.630006</ele>
        <time>2020-07-28T22:38:52.897Z</time>
      </trkpt>
      <trkpt lat="50.48012" lon="3.45901">
        <ele>17.550357</ele>
        <time>2020-07-28T22:38:55.407Z</time>
      </trkpt>
      <trkpt lat="50.48027" lon="3.45894">
        <ele>17.458877</ele>
        <time>2020-07-28T22:38:57.474Z</time>
      </trkpt>
      <trkpt lat="50.48099" lon="3.45884">
        <ele>17.032235</ele>
        <time>2020-07-28T22:39:07.125Z</time>
      </trkpt>
      <trkpt lat="50.48216" lon="3.45737">
        <ele>16.186288</ele>
        <time>2020-07-28T22:39:25.958Z</time>
      </trkpt>
      <trkpt lat="50.48222" lon="3.45732">
        <ele>16.148314</ele>
        <time>2020-07-28T22:39:26.836Z</time>
      </trkpt>
      <trkpt lat="50.48223" lon="3.4573">
        <ele>16.13908</ele>
        <time>2020-07-28T22:39:27.002Z</time>
      </trkpt>
      <trkpt lat="50.48311" lon="3.45641">
        <ele>15.589861</ele>
        <time>2020-07-28T22:39:41.343Z</time>
      </trkpt>
      <trkpt lat="50.48319" lon="3.45632">
        <ele>15.573839</ele>
        <time>2020-07-28T22:39:42.639Z</time>
      </trkpt>
      <trkpt lat="50.48328" lon="3.45623">
        <ele>15.558296</ele>
        <time>2020-07-28T22:39:44.123Z</time>
      </trkpt>
      <trkpt lat="50.4835" lon="3.456">
        <ele>15.51667</ele>
        <time>2020-07-28T22:39:47.762Z</time>
      </trkpt>
      <trkpt lat="50.48381" lon="3.45569">
        <ele>15.459611</ele>
        <time>2020-07-28T22:39:53.184Z</time>
      </trkpt>
      <trkpt lat="50.48429" lon="3.45544">
        <ele>15.379936</ele>
        <time>2020-07-28T22:40:00.767Z</time>
      </trkpt>
      <trkpt lat="50.48454" lon="3.45541">
        <ele>15.341356</ele>
        <time>2020-07-28T22:40:04.364Z</time>
      </trkpt>
      <trkpt lat="50.48566" lon="3.45542">
        <ele>15.074469</ele>
        <time>2020-07-28T22:40:20.014Z</time>
      </trkpt>
      <trkpt lat="50.48634" lon="3.45565">
        <ele>14.899006</ele>
        <time>2020-07-28T22:40:29.512Z</time>
      </trkpt>
      <trkpt lat="50.48644" lon="3.45569">
        <ele>14.871904</ele>
        <time>2020-07-28T22:40:30.895Z</time>
      </trkpt>
      <trkpt lat="50.4867" lon="3.45581">
        <ele>14.874376</ele>
        <time>2020-07-28T22:40:34.726Z</time>
      </trkpt>
      <trkpt lat="50.48702" lon="3.45586">
        <ele>14.893697</ele>
        <time>2020-07-28T22:40:39.259Z</time>
      </trkpt>
      <trkpt lat="50.48734" lon="3.45582">
        <ele>14.912546</ele>
        <time>2020-07-28T22:40:43.854Z</time>
      </trkpt>
      <trkpt lat="50.48767" lon="3.4557">
        <ele>14.933116</ele>
        <time>2020-07-28T22:40:49.097Z</time>
      </trkpt>
      <trkpt lat="50.48834" lon="3.45509">
        <ele>15.081098</ele>
        <time>2020-07-28T22:41:01.708Z</time>
      </trkpt>
      <trkpt lat="50.48846" lon="3.45495">
        <ele>15.172823</ele>
        <time>2020-07-28T22:41:04.231Z</time>
      </trkpt>
      <trkpt lat="50.48907" lon="3.45426">
        <ele>15.64154</ele>
        <time>2020-07-28T22:41:17.132Z</time>
      </trkpt>
      <trkpt lat="50.48955" lon="3.45371">
        <ele>16.015581</ele>
        <time>2020-07-28T22:41:27.810Z</time>
      </trkpt>
      <trkpt lat="50.48985" lon="3.45329">
        <ele>16.303006</ele>
        <time>2020-07-28T22:41:35.118Z</time>
      </trkpt>
      <trkpt lat="50.49" lon="3.45306">
        <ele>16.460246</ele>
        <time>2020-07-28T22:41:38.997Z</time>
      </trkpt>
      <trkpt lat="50.49012" lon="3.45284">
        <ele>16.600097</ele>
        <time>2020-07-28T22:41:42.190Z</time>
      </trkpt>
      <trkpt lat="50.49015" lon="3.45276">
        <ele>16.644417</ele>
        <time>2020-07-28T22:41:43.487Z</time>
      </trkpt>
      <trkpt lat="50.49149" lon="3.4508">
        <ele>17.745515</ele>
        <time>2020-07-28T22:42:15.869Z</time>
      </trkpt>
      <trkpt lat="50.49223" lon="3.4497">
        <ele>18.132771</ele>
        <time>2020-07-28T22:42:31.779Z</time>
      </trkpt>
      <trkpt lat="50.49229" lon="3.4496">
        <ele>18.126354</ele>
        <time>2020-07-28T22:42:32.986Z</time>
      </trkpt>
      <trkpt lat="50.49248" lon="3.44932">
        <ele>18.080502</ele>
        <time>2020-07-28T22:42:36.882Z</time>
      </trkpt>
      <trkpt lat="50.49283" lon="3.44878">
        <ele>17.993859</ele>
        <time>2020-07-28T22:42:43.905Z</time>
      </trkpt>
      <trkpt lat="50.49359" lon="3.44758">
        <ele>17.834973</ele>
        <time>2020-07-28T22:42:58.654Z</time>
      </trkpt>
      <trkpt lat="50.49366" lon="3.44748">
        <ele>17.848168</ele>
        <time>2020-07-28T22:42:59.929Z</time>
      </trkpt>
      <trkpt lat="50.49368" lon="3.44744">
        <ele>17.85312</ele>
        <time>2020-07-28T22:43:00.420Z</time>
      </trkpt>
      <trkpt lat="50.4942" lon="3.44663">
        <ele>17.963653</ele>
        <time>2020-07-28T22:43:11.811Z</time>
      </trkpt>
      <trkpt lat="50.49426" lon="3.44654">
        <ele>17.976124</ele>
        <time>2020-07-28T22:43:12.926Z</time>
      </trkpt>
      <trkpt lat="50.49477" lon="3.44573">
        <ele>18.084975</ele>
        <time>2020-07-28T22:43:24.787Z</time>
      </trkpt>
      <trkpt lat="50.49491" lon="3.44561">
        <ele>18.078343</ele>
        <time>2020-07-28T22:43:27.691Z</time>
      </trkpt>
      <trkpt lat="50.49544" lon="3.44521">
        <ele>18.02467</ele>
        <time>2020-07-28T22:43:36.777Z</time>
      </trkpt>
      <trkpt lat="50.49562" lon="3.44503">
        <ele>18.005023</ele>
        <time>2020-07-28T22:43:40.088Z</time>
      </trkpt>
      <trkpt lat="50.4959" lon="3.44475">
        <ele>17.975042</ele>
        <time>2020-07-28T22:43:44.756Z</time>
      </trkpt>
      <trkpt lat="50.49648" lon="3.44404">
        <ele>17.73567</ele>
        <time>2020-07-28T22:43:54.487Z</time>
      </trkpt>
      <trkpt lat="50.49663" lon="3.44393">
        <ele>17.577658</ele>
        <time>2020-07-28T22:43:56.519Z</time>
      </trkpt>
      <trkpt lat="50.49669" lon="3.44396">
        <ele>17.519736</ele>
        <time>2020-07-28T22:43:57.284Z</time>
      </trkpt>
      <trkpt lat="50.49672" lon="3.44401">
        <ele>17.476104</ele>
        <time>2020-07-28T22:43:57.853Z</time>
      </trkpt>
      <trkpt lat="50.49674" lon="3.44405">
        <ele>17.445147</ele>
        <time>2020-07-28T22:43:58.183Z</time>
      </trkpt>
      <trkpt lat="50.49687" lon="3.44433">
        <ele>17.232027</ele>
        <time>2020-07-28T22:44:00.943Z</time>
      </trkpt>
      <trkpt lat="50.49735" lon="3.44569">
        <ele>16.274291</ele>
        <time>2020-07-28T22:44:12.732Z</time>
      </trkpt>
      <trkpt lat="50.49754" lon="3.44626">
        <ele>16.075641</ele>
        <time>2020-07-28T22:44:17.792Z</time>
      </trkpt>
      <trkpt lat="50.49776" lon="3.4469">
        <ele>15.915176</ele>
        <time>2020-07-28T22:44:23.955Z</time>
      </trkpt>
      <trkpt lat="50.49798" lon="3.44759">
        <ele>15.744044</ele>
        <time>2020-07-28T22:44:30.729Z</time>
      </trkpt>
      <trkpt lat="50.49799" lon="3.44762">
        <ele>15.736952</ele>
        <time>2020-07-28T22:44:31.118Z</time>
      </trkpt>
      <trkpt lat="50.49844" lon="3.44889">
        <ele>15.876009</ele>
        <time>2020-07-28T22:44:45.568Z</time>
      </trkpt>
      <trkpt lat="50.49851" lon="3.44909">
        <ele>15.989275</ele>
        <time>2020-07-28T22:44:48.312Z</time>
      </trkpt>
      <trkpt lat="50.49853" lon="3.44914">
        <ele>16.016803</ele>
        <time>2020-07-28T22:44:48.939Z</time>
      </trkpt>
      <trkpt lat="50.49864" lon="3.44939">
        <ele>16.162122</ele>
        <time>2020-07-28T22:44:52.475Z</time>
      </trkpt>
      <trkpt lat="50.49867" lon="3.44946">
        <ele>16.202099</ele>
        <time>2020-07-28T22:44:53.500Z</time>
      </trkpt>
      <trkpt lat="50.49874" lon="3.44964">
        <ele>16.303847</ele>
        <time>2020-07-28T22:44:56.179Z</time>
      </trkpt>
      <trkpt lat="50.49935" lon="3.45106">
        <ele>17.003225</ele>
        <time>2020-07-28T22:45:16.912Z</time>
      </trkpt>
      <trkpt lat="50.49943" lon="3.45125">
        <ele>17.051432</ele>
        <time>2020-07-28T22:45:19.456Z</time>
      </trkpt>
      <trkpt lat="50.49958" lon="3.45159">
        <ele>17.135563</ele>
        <time>2020-07-28T22:45:23.577Z</time>
      </trkpt>
      <trkpt lat="50.49974" lon="3.45177">
        <ele>17.200206</ele>
        <time>2020-07-28T22:45:26.730Z</time>
      </trkpt>
      <trkpt lat="50.49999" lon="3.45188">
        <ele>17.281095</ele>
        <time>2020-07-28T22:45:30.372Z</time>
      </trkpt>
      <trkpt lat="50.50005" lon="3.45189">
        <ele>17.301636</ele>
        <time>2020-07-28T22:45:31.408Z</time>
      </trkpt>
      <trkpt lat="50.50044" lon="3.45199">
        <ele>17.429464</ele>
        <time>2020-07-28T22:45:37.563Z</time>
      </trkpt>
      <trkpt lat="50.50051" lon="3.45202">
        <ele>17.452132</ele>
        <time>2020-07-28T22:45:38.617Z</time>
      </trkpt>
      <trkpt lat="50.50052" lon="3.45203">
        <ele>17.457494</ele>
        <time>2020-07-28T22:45:38.872Z</time>
      </trkpt>
      <trkpt lat="50.50084" lon="3.45223">
        <ele>17.474841</ele>
        <time>2020-07-28T22:45:44.132Z</time>
      </trkpt>
      <trkpt lat="50.50092" lon="3.45227">
        <ele>17.467357</ele>
        <time>2020-07-28T22:45:45.346Z</time>
      </trkpt>
      <trkpt lat="50.5013" lon="3.45249">
        <ele>17.431903</ele>
        <time>2020-07-28T22:45:50.833Z</time>
      </trkpt>
      <trkpt lat="50.50142" lon="3.45258">
        <ele>17.420225</ele>
        <time>2020-07-28T22:45:52.723Z</time>
      </trkpt>
      <trkpt lat="50.50193" lon="3.45294">
        <ele>17.370626</ele>
        <time>2020-07-28T22:46:00.277Z</time>
      </trkpt>
      <trkpt lat="50.50229" lon="3.45322">
        <ele>17.33816</ele>
        <time>2020-07-28T22:46:05.998Z</time>
      </trkpt>
      <trkpt lat="50.5031" lon="3.45386">
        <ele>17.723634</ele>
        <time>2020-07-28T22:46:22.221Z</time>
      </trkpt>
      <trkpt lat="50.50341" lon="3.45413">
        <ele>17.873904</ele>
        <time>2020-07-28T22:46:27.980Z</time>
      </trkpt>
      <trkpt lat="50.50355" lon="3.45425">
        <ele>17.941754</ele>
        <time>2020-07-28T22:46:30.417Z</time>
      </trkpt>
      <trkpt lat="50.50407" lon="3.45459">
        <ele>18.186025</ele>
        <time>2020-07-28T22:46:39.341Z</time>
      </trkpt>
      <trkpt lat="50.50388" lon="3.45566">
        <ele>18.509627</ele>
        <time>2020-07-28T22:46:55.155Z</time>
      </trkpt>
      <trkpt lat="50.50381" lon="3.45609">
        <ele>18.640279</ele>
        <time>2020-07-28T22:47:01.500Z</time>
      </trkpt>
      <trkpt lat="50.50383" lon="3.45617">
        <ele>18.663213</ele>
        <time>2020-07-28T22:47:02.815Z</time>
      </trkpt>
      <trkpt lat="50.50381" lon="3.45625">
        <ele>18.68756</ele>
        <time>2020-07-28T22:47:04.195Z</time>
      </trkpt>
      <trkpt lat="50.50383" lon="3.45617">
        <ele>18.711906</ele>
        <time>2020-07-28T22:47:05.203Z</time>
      </trkpt>
      <trkpt lat="50.50437" lon="3.45631">
        <ele>18.967329</ele>
        <time>2020-07-28T22:47:16.980Z</time>
      </trkpt>
      <trkpt lat="50.50436" lon="3.45642">
        <ele>19.00228</ele>
        <time>2020-07-28T22:47:18.345Z</time>
      </trkpt>
      <trkpt lat="50.50433" lon="3.4572">
        <ele>19.248084</ele>
        <time>2020-07-28T22:47:26.452Z</time>
      </trkpt>
      <trkpt lat="50.50424" lon="3.45772">
        <ele>19.419915</ele>
        <time>2020-07-28T22:47:32.415Z</time>
      </trkpt>
      <trkpt lat="50.5041" lon="3.45851">
        <ele>19.679308</ele>
        <time>2020-07-28T22:47:41.374Z</time>
      </trkpt>
      <trkpt lat="50.50361" lon="3.46074">
        <ele>20.374314</ele>
        <time>2020-07-28T22:48:06.634Z</time>
      </trkpt>
      <trkpt lat="50.50345" lon="3.46155">
        <ele>20.61856</ele>
        <time>2020-07-28T22:48:15.487Z</time>
      </trkpt>
      <trkpt lat="50.50335" lon="3.46236">
        <ele>20.636164</ele>
        <time>2020-07-28T22:48:23.702Z</time>
      </trkpt>
      <trkpt lat="50.50325" lon="3.46304">
        <ele>20.636164</ele>
        <time>2020-07-28T22:48:30.753Z</time>
      </trkpt>
      <trkpt lat="50.50317" lon="3.46374">
        <ele>20.636164</ele>
        <time>2020-07-28T22:48:37.799Z</time>
      </trkpt>
      <trkpt lat="50.50313" lon="3.46411">
        <ele>20.636164</ele>
        <time>2020-07-28T22:48:41.288Z</time>
      </trkpt>
      <trkpt lat="50.50316" lon="3.46422">
        <ele>20.636164</ele>
        <time>2020-07-28T22:48:42.534Z</time>
      </trkpt>
      <trkpt lat="50.5034" lon="3.46438">
        <ele>20.636164</ele>
        <time>2020-07-28T22:48:46.355Z</time>
      </trkpt>
      <trkpt lat="50.50361" lon="3.46454">
        <ele>20.636164</ele>
        <time>2020-07-28T22:48:49.745Z</time>
      </trkpt>
      <trkpt lat="50.50361" lon="3.46454">
        <ele>20.636164</ele>
        <time>2020-07-28T22:48:49.808Z</time>
      </trkpt>
    </trkseg>
  </trk>
</gpx>